Darstellungsparameter: Aktuell verwendete Einstellungen:
Skalierung der Graphiken ... ?
xyx+y,   Skalierungsfaktor:      Skalierung: Modus: x, Faktor: 1
Darstellungszeitraum ... ?
Vom - - bis: - -   Zeitraum: 05.09.2009 - 05.10.2009
Min/Max/Avg-Anzeige ... ?
Zeige MMA aktuell
Zeige MMA Monat
Zeige MMA alles
Zeige --A aktuell
Zeige --A Monat
Zeige --A alles
Keine MMA-Anzeige
MMA:
Average (ber die Originaldaten)
MMA-Basis: 05.09.2009 - 05.10.2009
Quicknavigation für Darstellung... ?
Tage:      1T, 2T, 3T, 5T -1T -2T -3T -5T +1T +2T +3T +5T
Wochen: 1W, 2W, 3W -1W -2W -3W +1W +2W +3W
Monate: 1M, 3M, 6M -1M -3M -6M +1M +3M +6M
Jahre:    1J, 3J, 5J, 10J -1J -3J -5J -10J +1J +3J +5J +10J
Nutze für die Darstellung ... ?
Originaldaten oder Mittelwerte auf ...
Stundenbasis Tagesbasis Wochenbasis
Monatsbasis Jahresbasis      Datenbasis: Original-Daten
Darstellen als:
Statistik (Auto) Statistik J:M      Darstellung:
Zur Graphik,    zurück zur Übersicht aller Sensoren.
 
Tabellarische Datenbersicht: ?
 
Sensor: Nr:Datum:Temp:Abs-Feuchte:Windchill:Wind:
Aussen-T/F 1 05-09-2009 00:01:02 12.7 C 7.68 g/m*3 12.7 C 0 km/h
2 05-09-2009 00:13:02 12.8 C 7.73 g/m*3 12.8 C 0 km/h
3 05-09-2009 00:25:03 12.8 C 7.84 g/m*3 12.8 C 0 km/h
4 05-09-2009 00:37:03 12.9 C 7.78 g/m*3 12.9 C 0 km/h
5 05-09-2009 00:49:03 12.7 C 7.79 g/m*3 12.7 C 0 km/h
6 05-09-2009 01:01:03 12.5 C 7.81 g/m*3 12.5 C 0 km/h
7 05-09-2009 01:13:03 12.5 C 7.81 g/m*3 12.5 C 0 km/h
8 05-09-2009 01:25:03 12.5 C 7.7 g/m*3 12.5 C 0 km/h
9 05-09-2009 01:37:03 12.6 C 7.74 g/m*3 12.6 C 0 km/h
10 05-09-2009 01:49:03 12.5 C 7.7 g/m*3 12.5 C 0 km/h
11 05-09-2009 02:01:03 12.5 C 7.7 g/m*3 12.5 C 0 km/h
12 05-09-2009 02:13:03 12.6 C 7.63 g/m*3 12.6 C 0 km/h
13 05-09-2009 02:25:03 12.5 C 7.7 g/m*3 12.5 C 0 km/h
14 05-09-2009 02:37:03 12.5 C 7.7 g/m*3 12.5 C 0 km/h
15 05-09-2009 02:49:03 12.6 C 7.63 g/m*3 12.6 C 0 km/h
16 05-09-2009 03:01:03 12.6 C 7.74 g/m*3 12.6 C 0 km/h
17 05-09-2009 03:13:03 12.7 C 7.68 g/m*3 12.7 C 0 km/h
18 05-09-2009 03:25:03 12.8 C 7.73 g/m*3 12.8 C 0 km/h
19 05-09-2009 03:37:03 12.7 C 7.79 g/m*3 12.7 C 0 km/h
20 05-09-2009 03:49:03 12.7 C 7.79 g/m*3 12.7 C 0 km/h
21 05-09-2009 04:01:03 12.8 C 7.84 g/m*3 12.8 C 0 km/h
22 05-09-2009 04:13:04 12.8 C 7.73 g/m*3 12.8 C 0 km/h
23 05-09-2009 04:25:04 12.8 C 7.84 g/m*3 12.8 C 0 km/h
24 05-09-2009 04:37:04 12.7 C 7.79 g/m*3 12.7 C 0 km/h
25 05-09-2009 04:49:04 12.7 C 7.79 g/m*3 12.7 C 0 km/h
Sensor: Nr:Datum:Temp:Abs-Feuchte:Windchill:Wind:
Aussen-T/F 26 05-09-2009 05:01:04 12.7 C 7.79 g/m*3 12.7 C 0 km/h
27 05-09-2009 05:13:04 12.7 C 7.79 g/m*3 12.7 C 0 km/h
28 05-09-2009 05:25:04 12.6 C 7.85 g/m*3 12.6 C 0 km/h
29 05-09-2009 05:37:04 12.6 C 7.85 g/m*3 12.6 C 0 km/h
30 05-09-2009 05:49:04 12.6 C 7.85 g/m*3 12.6 C 0 km/h
31 05-09-2009 06:01:04 12.7 C 7.79 g/m*3 12.7 C 0 km/h
32 05-09-2009 06:13:04 12.5 C 7.7 g/m*3 12.5 C 0 km/h
33 05-09-2009 06:25:04 12.3 C 7.82 g/m*3 12.3 C 0 km/h
34 05-09-2009 06:37:04 12.4 C 7.87 g/m*3 12.4 C 0 km/h
35 05-09-2009 06:49:04 12.5 C 7.81 g/m*3 12.5 C 0 km/h
36 05-09-2009 07:01:04 12.6 C 7.85 g/m*3 12.6 C 0 km/h
37 05-09-2009 07:13:04 12.7 C 7.79 g/m*3 12.7 C 0 km/h
38 05-09-2009 07:25:04 12.5 C 7.7 g/m*3 12.5 C 0 km/h
39 05-09-2009 07:37:04 12.5 C 7.81 g/m*3 12.5 C 0 km/h
40 05-09-2009 07:49:04 12.4 C 7.76 g/m*3 12.4 C 0 km/h
41 05-09-2009 08:01:05 12.4 C 7.87 g/m*3 12.4 C 0 km/h
42 05-09-2009 08:13:05 12.6 C 7.97 g/m*3 12.6 C 0 km/h
43 05-09-2009 08:25:05 12.6 C 7.97 g/m*3 12.6 C 0 km/h
44 05-09-2009 08:37:05 13.1 C 7.99 g/m*3 13.1 C 0 km/h
45 05-09-2009 08:49:05 13.2 C 7.92 g/m*3 13.2 C 0 km/h
46 05-09-2009 09:01:02 13.6 C 8.12 g/m*3 13.6 C 0 km/h
47 05-09-2009 09:13:02 14.1 C 8.01 g/m*3 14.1 C 0 km/h
48 05-09-2009 09:25:01 14.7 C 7.93 g/m*3 14.7 C 0 km/h
49 05-09-2009 09:37:02 14.7 C 7.81 g/m*3 14.7 C 0 km/h
50 05-09-2009 09:49:02 15.1 C 7.87 g/m*3 15.1 C 0 km/h
Sensor: Nr:Datum:Temp:Abs-Feuchte:Windchill:Wind:
Aussen-T/F 51 05-09-2009 10:01:02 15.4 C 8.01 g/m*3 15.4 C 0 km/h
52 05-09-2009 10:13:02 15.1 C 7.74 g/m*3 15.1 C 0 km/h
53 05-09-2009 10:25:02 15.2 C 7.79 g/m*3 15.2 C 0 km/h
54 05-09-2009 10:37:02 15.7 C 7.89 g/m*3 15.7 C 0 km/h
55 05-09-2009 10:49:01 16.3 C 7.63 g/m*3 16.3 C 0 km/h
56 05-09-2009 11:01:02 16.9 C 7.62 g/m*3 16.9 C 0 km/h
57 05-09-2009 11:13:02 17.5 C 7.45 g/m*3 17.5 C 0 km/h
58 05-09-2009 11:25:01 17.3 C 7.51 g/m*3 17.3 C 0 km/h
59 05-09-2009 11:37:01 16.8 C 7.58 g/m*3 16.8 C 0 km/h
60 05-09-2009 11:49:02 16.8 C 7.43 g/m*3 16.8 C 0 km/h
61 05-09-2009 12:01:02 17.3 C 6.92 g/m*3 17.3 C 0 km/h
62 05-09-2009 12:13:02 17.7 C 6.64 g/m*3 17.7 C 0 km/h
63 05-09-2009 12:25:02 17.7 C 6.49 g/m*3 17.7 C 0 km/h
64 05-09-2009 12:37:02 17.7 C 6.34 g/m*3 17.7 C 0 km/h
65 05-09-2009 12:49:02 18 C 6.3 g/m*3 18 C 0 km/h
66 05-09-2009 13:01:02 18.2 C 6.37 g/m*3 18.2 C 0 km/h
67 05-09-2009 13:13:03 18.4 C 6.61 g/m*3 18.4 C 0 km/h
68 05-09-2009 13:25:02 18.2 C 6.22 g/m*3 18.2 C 0 km/h
69 05-09-2009 13:37:02 18 C 5.99 g/m*3 18 C 0 km/h
70 05-09-2009 13:49:01 18.1 C 6.33 g/m*3 18.1 C 0 km/h
71 05-09-2009 14:01:01 18 C 6.3 g/m*3 18 C 0 km/h
72 05-09-2009 14:13:01 18.6 C 5.89 g/m*3 18.6 C 0 km/h
73 05-09-2009 14:25:01 19.9 C 6.01 g/m*3 19.9 C 0 km/h
74 05-09-2009 14:37:01 20.2 C 5.94 g/m*3 20.2 C 0 km/h
75 05-09-2009 14:49:02 20.3 C 5.28 g/m*3 20.3 C 0 km/h
Sensor: Nr:Datum:Temp:Abs-Feuchte:Windchill:Wind:
Aussen-T/F 76 05-09-2009 15:01:02 21 C 5.31 g/m*3 21 C 0 km/h
77 05-09-2009 15:13:02 21.8 C 5.18 g/m*3 21.8 C 0 km/h
78 05-09-2009 15:25:03 21 C 4.95 g/m*3 21 C 0 km/h
79 05-09-2009 15:37:02 22.1 C 5.08 g/m*3 22.1 C 0 km/h
80 05-09-2009 15:49:03 21.8 C 5.18 g/m*3 21.8 C 0 km/h
81 05-09-2009 16:01:02 20 C 5.88 g/m*3 20 C 0 km/h
82 05-09-2009 16:13:02 18.5 C 6.8 g/m*3 18.5 C 0 km/h
83 05-09-2009 16:25:02 16.8 C 7.15 g/m*3 16.8 C 0 km/h
84 05-09-2009 16:37:02 16.9 C 7.48 g/m*3 16.9 C 0 km/h
85 05-09-2009 16:49:02 17.4 C 6.97 g/m*3 17.4 C 0 km/h
86 05-09-2009 17:01:02 17.4 C 6.82 g/m*3 17.4 C 0 km/h
87 05-09-2009 17:13:02 16.8 C 6.86 g/m*3 16.8 C 0 km/h
88 05-09-2009 17:25:02 16.9 C 6.9 g/m*3 16.9 C 0 km/h
89 05-09-2009 17:37:02 18.5 C 6.49 g/m*3 18.5 C 0 km/h
90 05-09-2009 17:49:02 19.5 C 6.21 g/m*3 19.5 C 0 km/h
91 05-09-2009 18:01:01 18.7 C 6.24 g/m*3 18.7 C 0 km/h
92 05-09-2009 18:13:01 17.9 C 6.57 g/m*3 17.9 C 0 km/h
93 05-09-2009 18:25:02 17.9 C 6.26 g/m*3 17.9 C 0 km/h
94 05-09-2009 18:37:02 18.6 C 5.89 g/m*3 18.6 C 0 km/h
95 05-09-2009 18:49:01 18.3 C 6.1 g/m*3 18.3 C 0 km/h
96 05-09-2009 19:01:02 17.8 C 6.53 g/m*3 17.8 C 0 km/h
97 05-09-2009 19:13:02 17.1 C 6.84 g/m*3 17.1 C 0 km/h
98 05-09-2009 19:25:01 17.3 C 7.22 g/m*3 17.3 C 0 km/h
99 05-09-2009 19:37:02 17.3 C 7.37 g/m*3 17.3 C 0 km/h
100 05-09-2009 19:49:02 16.4 C 7.68 g/m*3 16.4 C 0 km/h
Sensor: Nr:Datum:Temp:Abs-Feuchte:Windchill:Wind:
Aussen-T/F 101 05-09-2009 20:01:02 15.8 C 7.94 g/m*3 15.8 C 0 km/h
102 05-09-2009 20:13:02 15.3 C 7.84 g/m*3 15.3 C 0 km/h
103 05-09-2009 20:25:02 14.8 C 7.98 g/m*3 14.8 C 0 km/h
104 05-09-2009 20:37:02 14.6 C 7.88 g/m*3 14.6 C 0 km/h
105 05-09-2009 20:49:02 14 C 7.96 g/m*3 14 C 0 km/h
106 05-09-2009 21:01:02 13.9 C 8.03 g/m*3 13.9 C 0 km/h
107 05-09-2009 21:13:02 13.8 C 8.22 g/m*3 13.8 C 0 km/h
108 05-09-2009 21:25:02 13.7 C 8.17 g/m*3 13.7 C 0 km/h
109 05-09-2009 21:37:02 13.7 C 8.29 g/m*3 13.7 C 0 km/h
110 05-09-2009 21:49:02 13.5 C 8.42 g/m*3 13.5 C 0 km/h
111 05-09-2009 22:01:02 13.2 C 8.38 g/m*3 13.2 C 0 km/h
112 05-09-2009 22:13:02 13.1 C 8.44 g/m*3 13.1 C 0 km/h
113 05-09-2009 22:25:02 12.8 C 8.4 g/m*3 12.8 C 0 km/h
114 05-09-2009 22:37:02 12.8 C 8.29 g/m*3 12.8 C 0 km/h
115 05-09-2009 22:49:02 12.7 C 8.24 g/m*3 12.7 C 0 km/h
116 05-09-2009 23:01:01 12.6 C 8.3 g/m*3 12.6 C 0 km/h
117 05-09-2009 23:13:01 12.5 C 8.14 g/m*3 12.5 C 0 km/h
118 05-09-2009 23:25:02 12.3 C 8.04 g/m*3 12.3 C 0 km/h
119 05-09-2009 23:37:02 12.2 C 8.2 g/m*3 12.2 C 0 km/h
120 05-09-2009 23:49:01 11.8 C 8.1 g/m*3 11.8 C 0 km/h
121 06-09-2009 00:01:02 11.7 C 8.26 g/m*3 11.7 C 0 km/h
122 06-09-2009 00:13:02 11.6 C 8.32 g/m*3 11.6 C 0 km/h
123 06-09-2009 00:25:01 11.4 C 8.42 g/m*3 11.4 C 0 km/h
124 06-09-2009 00:37:02 11.5 C 8.57 g/m*3 11.5 C 0 km/h
125 06-09-2009 00:49:02 11.3 C 8.47 g/m*3 11.3 C 0 km/h
Sensor: Nr:Datum:Temp:Abs-Feuchte:Windchill:Wind:
Aussen-T/F 126 06-09-2009 01:01:02 11.2 C 8.41 g/m*3 11.2 C 0 km/h
127 06-09-2009 01:13:02 11 C 8.41 g/m*3 11 C 0 km/h
128 06-09-2009 01:25:01 10.9 C 8.36 g/m*3 10.9 C 0 km/h
129 06-09-2009 01:37:02 10.8 C 8.4 g/m*3 10.8 C 0 km/h
130 06-09-2009 01:49:02 10.8 C 8.4 g/m*3 10.8 C 0 km/h
131 06-09-2009 02:01:02 10.9 C 8.45 g/m*3 10.9 C 0 km/h
132 06-09-2009 02:13:02 10.9 C 8.45 g/m*3 10.9 C 0 km/h
133 06-09-2009 02:25:02 10.8 C 8.4 g/m*3 10.8 C 0 km/h
134 06-09-2009 02:37:02 10.7 C 8.35 g/m*3 10.7 C 0 km/h
135 06-09-2009 02:50:04 10.6 C 8.39 g/m*3 10.6 C 0 km/h
136 06-09-2009 03:02:04 10.4 C 8.29 g/m*3 10.4 C 0 km/h
137 06-09-2009 03:14:04 10.3 C 8.33 g/m*3 10.3 C 0 km/h
138 06-09-2009 03:26:04 10.2 C 8.37 g/m*3 10.2 C 0 km/h
139 06-09-2009 03:38:02 10.1 C 8.32 g/m*3 10.1 C 0 km/h
140 06-09-2009 03:50:02 10.1 C 8.32 g/m*3 10.1 C 0 km/h
141 06-09-2009 04:02:01 9.9 C 8.4 g/m*3 9.9 C 0 km/h
142 06-09-2009 04:14:01 10 C 8.36 g/m*3 10 C 0 km/h
143 06-09-2009 04:26:01 9.9 C 8.5 g/m*3 9.9 C 0 km/h
144 06-09-2009 04:38:02 9.7 C 8.39 g/m*3 9.7 C 0 km/h
145 06-09-2009 04:50:02 10 C 8.46 g/m*3 10 C 0 km/h
146 06-09-2009 05:02:02 9.7 C 8.48 g/m*3 9.7 C 0 km/h
147 06-09-2009 05:14:02 9.5 C 8.37 g/m*3 9.5 C 0 km/h
148 06-09-2009 05:26:02 9.5 C 8.37 g/m*3 9.5 C 0 km/h
149 06-09-2009 05:38:02 9.4 C 8.32 g/m*3 9.4 C 0 km/h
150 06-09-2009 05:50:01 9.4 C 8.32 g/m*3 9.4 C 0 km/h
Sensor: Nr:Datum:Temp:Abs-Feuchte:Windchill:Wind:
Aussen-T/F 151 06-09-2009 06:02:02 9.5 C 8.37 g/m*3 9.5 C 0 km/h
152 06-09-2009 06:14:02 9.5 C 8.47 g/m*3 9.5 C 0 km/h
153 06-09-2009 06:26:01 9.3 C 8.36 g/m*3 9.3 C 0 km/h
154 06-09-2009 06:38:01 9.3 C 8.36 g/m*3 9.3 C 0 km/h
155 06-09-2009 06:50:01 9.2 C 8.3 g/m*3 9.2 C 0 km/h
156 06-09-2009 07:02:02 9.2 C 8.3 g/m*3 9.2 C 0 km/h
157 06-09-2009 07:14:02 9.1 C 8.25 g/m*3 9.1 C 0 km/h
158 06-09-2009 07:26:01 9.1 C 8.25 g/m*3 9.1 C 0 km/h
159 06-09-2009 07:38:01 9.2 C 8.3 g/m*3 9.2 C 0 km/h
160 06-09-2009 07:50:01 9.3 C 8.36 g/m*3 9.3 C 0 km/h
161 06-09-2009 08:02:02 9.4 C 8.41 g/m*3 9.4 C 0 km/h
162 06-09-2009 08:14:02 9.6 C 8.52 g/m*3 9.6 C 0 km/h
163 06-09-2009 08:26:01 10.2 C 8.76 g/m*3 10.2 C 0 km/h
164 06-09-2009 08:38:01 10.7 C 9.04 g/m*3 10.7 C 0 km/h
165 06-09-2009 08:50:01 11.1 C 9.27 g/m*3 11.1 C 0 km/h
166 06-09-2009 09:02:01 11.4 C 9.44 g/m*3 11.4 C 0 km/h
167 06-09-2009 09:14:01 11.8 C 9.47 g/m*3 11.8 C 0 km/h
168 06-09-2009 09:26:02 11.8 C 9.05 g/m*3 11.8 C 0 km/h
169 06-09-2009 09:38:01 12.3 C 8.9 g/m*3 12.3 C 0 km/h
170 06-09-2009 09:50:02 12.4 C 8.63 g/m*3 12.4 C 0 km/h
171 06-09-2009 10:02:02 12.7 C 8.57 g/m*3 12.7 C 0 km/h
172 06-09-2009 10:14:02 12.9 C 8.57 g/m*3 12.9 C 0 km/h
173 06-09-2009 10:26:02 13.1 C 8.44 g/m*3 13.1 C 0 km/h
174 06-09-2009 10:38:01 13.4 C 8.49 g/m*3 13.4 C 0 km/h
175 06-09-2009 10:50:02 13.8 C 8.58 g/m*3 13.8 C 0 km/h
Sensor: Nr:Datum:Temp:Abs-Feuchte:Windchill:Wind:
Aussen-T/F 176 06-09-2009 11:02:01 14.3 C 8.48 g/m*3 14.3 C 0 km/h
177 06-09-2009 11:14:01 14.7 C 8.31 g/m*3 14.7 C 0 km/h
178 06-09-2009 11:26:01 15 C 8.08 g/m*3 15 C 0 km/h
179 06-09-2009 11:38:02 15.3 C 8.1 g/m*3 15.3 C 0 km/h
180 06-09-2009 11:50:02 15.8 C 8.08 g/m*3 15.8 C 0 km/h
181 06-09-2009 12:02:01 16.1 C 7.95 g/m*3 16.1 C 0 km/h
182 06-09-2009 12:14:01 16.6 C 8.05 g/m*3 16.6 C 0 km/h
183 06-09-2009 12:26:02 16.8 C 7.86 g/m*3 16.8 C 0 km/h
184 06-09-2009 12:38:02 17.1 C 7.42 g/m*3 17.1 C 0 km/h
185 06-09-2009 12:50:02 17.5 C 7.6 g/m*3 17.5 C 0 km/h
186 06-09-2009 13:02:03 17.9 C 7.63 g/m*3 17.9 C 0 km/h
187 06-09-2009 13:14:03 18.3 C 7.04 g/m*3 18.3 C 0 km/h
188 06-09-2009 13:26:02 18.7 C 6.88 g/m*3 18.7 C 0 km/h
189 06-09-2009 13:38:02 19.2 C 6.93 g/m*3 19.2 C 0 km/h
190 06-09-2009 13:50:01 19.7 C 7.13 g/m*3 19.7 C 0 km/h
191 06-09-2009 14:02:03 19.7 C 7.13 g/m*3 19.7 C 0 km/h
192 06-09-2009 14:14:03 20 C 6.91 g/m*3 20 C 0 km/h
193 06-09-2009 14:26:01 20 C 7.09 g/m*3 20 C 0 km/h
194 06-09-2009 14:38:02 20.1 C 7.13 g/m*3 20.1 C 0 km/h
195 06-09-2009 14:50:02 20 C 7.26 g/m*3 20 C 0 km/h
196 06-09-2009 15:02:02 20 C 7.26 g/m*3 20 C 0 km/h
197 06-09-2009 15:14:02 22 C 7.18 g/m*3 22 C 0 km/h
198 06-09-2009 15:26:01 22.5 C 6.99 g/m*3 22.5 C 0 km/h
199 06-09-2009 15:38:02 20.7 C 7.2 g/m*3 20.7 C 0 km/h
200 06-09-2009 15:50:02 20.1 C 6.61 g/m*3 20.1 C 0 km/h
Sensor: Nr:Datum:Temp:Abs-Feuchte:Windchill:Wind:
Aussen-T/F 201 06-09-2009 16:02:01 20.3 C 6.51 g/m*3 20.3 C 0 km/h
202 06-09-2009 16:14:01 21 C 6.41 g/m*3 21 C 0 km/h
203 06-09-2009 16:26:02 22 C 6.21 g/m*3 22 C 0 km/h
204 06-09-2009 16:38:01 22.6 C 6.23 g/m*3 22.6 C 0 km/h
205 06-09-2009 16:50:01 23.1 C 5.58 g/m*3 23.1 C 0 km/h
206 06-09-2009 17:02:02 22 C 5.05 g/m*3 22 C 0 km/h
207 06-09-2009 17:14:02 21.6 C 5.12 g/m*3 21.6 C 0 km/h
208 06-09-2009 17:26:01 21.6 C 5.31 g/m*3 21.6 C 0 km/h
209 06-09-2009 17:38:02 22 C 5.24 g/m*3 22 C 0 km/h
210 06-09-2009 17:50:02 22.3 C 5.73 g/m*3 22.3 C 0 km/h
211 06-09-2009 18:02:02 21.7 C 5.72 g/m*3 21.7 C 0 km/h
212 06-09-2009 18:14:02 21.9 C 5.79 g/m*3 21.9 C 0 km/h
213 06-09-2009 18:26:01 21.3 C 5.78 g/m*3 21.3 C 0 km/h
214 06-09-2009 18:38:02 21.4 C 5.81 g/m*3 21.4 C 0 km/h
215 06-09-2009 18:50:02 21.2 C 5.74 g/m*3 21.2 C 0 km/h
216 06-09-2009 19:02:02 20.8 C 6.34 g/m*3 20.8 C 0 km/h
217 06-09-2009 19:14:02 20.1 C 6.61 g/m*3 20.1 C 0 km/h
218 06-09-2009 19:26:02 19.5 C 6.88 g/m*3 19.5 C 0 km/h
219 06-09-2009 19:38:02 18.8 C 6.93 g/m*3 18.8 C 0 km/h
220 06-09-2009 19:50:02 18 C 7.07 g/m*3 18 C 0 km/h
221 06-09-2009 20:02:02 17.3 C 6.92 g/m*3 17.3 C 0 km/h
222 06-09-2009 20:14:02 16.9 C 7.19 g/m*3 16.9 C 0 km/h
223 06-09-2009 20:26:02 16.7 C 7.25 g/m*3 16.7 C 0 km/h
224 06-09-2009 20:38:02 16.5 C 7.3 g/m*3 16.5 C 0 km/h
225 06-09-2009 20:50:02 16.2 C 7.45 g/m*3 16.2 C 0 km/h
Sensor: Nr:Datum:Temp:Abs-Feuchte:Windchill:Wind:
Aussen-T/F 226 06-09-2009 21:02:02 16.1 C 7.4 g/m*3 16.1 C 0 km/h
227 06-09-2009 21:14:02 15.9 C 7.58 g/m*3 15.9 C 0 km/h
228 06-09-2009 21:26:01 15.9 C 7.58 g/m*3 15.9 C 0 km/h
229 06-09-2009 21:39:02 15.7 C 7.63 g/m*3 15.7 C 0 km/h
230 06-09-2009 21:51:02 15.6 C 7.71 g/m*3 15.6 C 0 km/h
231 06-09-2009 22:03:03 15.3 C 7.7 g/m*3 15.3 C 0 km/h
232 06-09-2009 22:15:03 15 C 7.95 g/m*3 15 C 0 km/h
233 06-09-2009 22:27:03 14.7 C 8.06 g/m*3 14.7 C 0 km/h
234 06-09-2009 22:39:03 14.5 C 8.08 g/m*3 14.5 C 0 km/h
235 06-09-2009 22:51:03 14.3 C 8.11 g/m*3 14.3 C 0 km/h
236 06-09-2009 23:03:03 14 C 8.08 g/m*3 14 C 0 km/h
237 06-09-2009 23:15:03 13.8 C 8.22 g/m*3 13.8 C 0 km/h
238 06-09-2009 23:27:03 13.6 C 8.24 g/m*3 13.6 C 0 km/h
239 06-09-2009 23:39:03 13.4 C 8.14 g/m*3 13.4 C 0 km/h
240 06-09-2009 23:51:03 13.3 C 8.2 g/m*3 13.3 C 0 km/h
241 07-09-2009 00:03:03 13.1 C 8.22 g/m*3 13.1 C 0 km/h
242 07-09-2009 00:15:03 12.9 C 8.23 g/m*3 12.9 C 0 km/h
243 07-09-2009 00:27:03 12.7 C 8.24 g/m*3 12.7 C 0 km/h
244 07-09-2009 00:39:03 12.5 C 8.25 g/m*3 12.5 C 0 km/h
245 07-09-2009 00:51:03 12.3 C 8.25 g/m*3 12.3 C 0 km/h
246 07-09-2009 01:03:03 12.2 C 8.2 g/m*3 12.2 C 0 km/h
247 07-09-2009 01:15:03 12.1 C 8.15 g/m*3 12.1 C 0 km/h
248 07-09-2009 01:27:03 11.8 C 8.1 g/m*3 11.8 C 0 km/h
249 07-09-2009 01:39:03 11.7 C 8.26 g/m*3 11.7 C 0 km/h
250 07-09-2009 01:51:03 11.5 C 8.16 g/m*3 11.5 C 0 km/h
Sensor: Nr:Datum:Temp:Abs-Feuchte:Windchill:Wind:
Aussen-T/F 251 07-09-2009 02:03:04 11.5 C 8.26 g/m*3 11.5 C 0 km/h
252 07-09-2009 02:15:04 11.3 C 8.16 g/m*3 11.3 C 0 km/h
253 07-09-2009 02:27:04 11.2 C 8.01 g/m*3 11.2 C 0 km/h
254 07-09-2009 02:39:04 11.1 C 7.96 g/m*3 11.1 C 0 km/h
255 07-09-2009 02:51:04 11 C 8.01 g/m*3 11 C 0 km/h
256 07-09-2009 03:03:04 10.9 C 8.06 g/m*3 10.9 C 0 km/h
257 07-09-2009 03:15:04 10.7 C 8.05 g/m*3 10.7 C 0 km/h
258 07-09-2009 03:27:04 10.7 C 8.15 g/m*3 10.7 C 0 km/h
259 07-09-2009 03:39:04 10.4 C 8 g/m*3 10.4 C 0 km/h
260 07-09-2009 03:51:04 10.5 C 8.15 g/m*3 10.5 C 0 km/h
261 07-09-2009 04:03:04 10.4 C 8 g/m*3 10.4 C 0 km/h
262 07-09-2009 04:15:04 10.2 C 7.99 g/m*3 10.2 C 0 km/h
263 07-09-2009 04:27:04 10.1 C 7.94 g/m*3 10.1 C 0 km/h
264 07-09-2009 04:39:04 9.9 C 7.94 g/m*3 9.9 C 0 km/h
265 07-09-2009 04:51:04 9.8 C 7.89 g/m*3 9.8 C 0 km/h
266 07-09-2009 05:03:04 9.7 C 7.84 g/m*3 9.7 C 0 km/h
267 07-09-2009 05:15:04 9.7 C 7.84 g/m*3 9.7 C 0 km/h
268 07-09-2009 05:27:04 9.4 C 7.69 g/m*3 9.4 C 0 km/h
269 07-09-2009 05:39:04 9.3 C 7.64 g/m*3 9.3 C 0 km/h
270 07-09-2009 05:51:04 9.1 C 7.54 g/m*3 9.1 C 0 km/h
271 07-09-2009 06:03:04 9.2 C 7.68 g/m*3 9.2 C 0 km/h
272 07-09-2009 06:15:02 9.3 C 7.73 g/m*3 9.3 C 0 km/h
273 07-09-2009 06:27:02 9.6 C 7.97 g/m*3 9.6 C 0 km/h
274 07-09-2009 06:39:03 9.6 C 7.88 g/m*3 9.6 C 0 km/h
275 07-09-2009 06:51:02 9.5 C 7.83 g/m*3 9.5 C 0 km/h
Sensor: Nr:Datum:Temp:Abs-Feuchte:Windchill:Wind:
Aussen-T/F 276 07-09-2009 07:03:01 9.6 C 7.88 g/m*3 9.6 C 0 km/h
277 07-09-2009 07:15:02 9.6 C 7.88 g/m*3 9.6 C 0 km/h
278 07-09-2009 07:27:02 9.6 C 7.88 g/m*3 9.6 C 0 km/h
279 07-09-2009 07:39:02 9.3 C 7.82 g/m*3 9.3 C 0 km/h
280 07-09-2009 07:51:01 9.4 C 7.96 g/m*3 9.4 C 0 km/h
281 07-09-2009 08:03:02 9.5 C 8.01 g/m*3 9.5 C 0 km/h
282 07-09-2009 08:15:01 9.5 C 7.92 g/m*3 9.5 C 0 km/h
283 07-09-2009 08:27:01 9.7 C 8.02 g/m*3 9.7 C 0 km/h
284 07-09-2009 08:39:02 9.9 C 8.12 g/m*3 9.9 C 0 km/h
285 07-09-2009 08:51:01 10 C 7.99 g/m*3 10 C 0 km/h
286 07-09-2009 09:03:02 10.3 C 8.04 g/m*3 10.3 C 0 km/h
287 07-09-2009 09:15:01 10.6 C 8.1 g/m*3 10.6 C 0 km/h
288 07-09-2009 09:27:01 11.3 C 8.36 g/m*3 11.3 C 0 km/h
289 07-09-2009 09:39:02 11.2 C 8.11 g/m*3 11.2 C 0 km/h
290 07-09-2009 09:51:01 11.2 C 8.21 g/m*3 11.2 C 0 km/h
291 07-09-2009 10:03:02 11.7 C 8.58 g/m*3 11.7 C 0 km/h
292 07-09-2009 10:15:02 12.3 C 8.58 g/m*3 12.3 C 0 km/h
293 07-09-2009 10:27:02 13 C 8.73 g/m*3 13 C 0 km/h
294 07-09-2009 10:39:02 13.7 C 8.76 g/m*3 13.7 C 0 km/h
295 07-09-2009 10:51:01 14.3 C 8.85 g/m*3 14.3 C 0 km/h
296 07-09-2009 11:03:02 14.7 C 8.56 g/m*3 14.7 C 0 km/h
297 07-09-2009 11:15:02 15.6 C 8.78 g/m*3 15.6 C 0 km/h
298 07-09-2009 11:27:02 16.3 C 8.88 g/m*3 16.3 C 0 km/h
299 07-09-2009 11:39:01 16.7 C 8.95 g/m*3 16.7 C 0 km/h
300 07-09-2009 11:51:02 17.5 C 8.8 g/m*3 17.5 C 0 km/h
Sensor: Nr:Datum:Temp:Abs-Feuchte:Windchill:Wind:
Aussen-T/F 301 07-09-2009 12:03:01 18.5 C 8.7 g/m*3 18.5 C 0 km/h
302 07-09-2009 12:15:02 19.4 C 8.68 g/m*3 19.4 C 0 km/h
303 07-09-2009 12:27:02 19.8 C 8.2 g/m*3 19.8 C 0 km/h
304 07-09-2009 12:39:01 20.6 C 8.41 g/m*3 20.6 C 0 km/h
305 07-09-2009 12:51:02 21.3 C 8.2 g/m*3 21.3 C 0 km/h
306 07-09-2009 13:03:02 21.8 C 8.44 g/m*3 21.8 C 0 km/h
307 07-09-2009 13:15:02 22.2 C 8.05 g/m*3 22.2 C 0 km/h
308 07-09-2009 13:27:02 22.9 C 8.38 g/m*3 22.9 C 0 km/h
309 07-09-2009 13:39:03 23.3 C 8.15 g/m*3 23.3 C 0 km/h
310 07-09-2009 13:51:02 23.9 C 7.79 g/m*3 23.9 C 0 km/h
311 07-09-2009 14:03:02 24.5 C 7.83 g/m*3 24.5 C 0 km/h
312 07-09-2009 14:15:01 25.4 C 7.77 g/m*3 25.4 C 0 km/h
313 07-09-2009 14:27:01 25.9 C 7.51 g/m*3 25.9 C 0 km/h
314 07-09-2009 14:39:02 26.1 C 7.59 g/m*3 26.1 C 0 km/h
315 07-09-2009 14:51:02 27 C 7.72 g/m*3 27 C 0 km/h
316 07-09-2009 15:03:02 27.8 C 7.26 g/m*3 27.8 C 0 km/h
317 07-09-2009 15:15:01 28.2 C 6.6 g/m*3 28.2 C 0 km/h
318 07-09-2009 15:27:01 27.8 C 6.72 g/m*3 27.8 C 0 km/h
319 07-09-2009 15:39:02 27.5 C 6.88 g/m*3 27.5 C 0 km/h
320 07-09-2009 15:51:02 27.7 C 7.22 g/m*3 27.7 C 0 km/h
321 07-09-2009 16:03:02 28.7 C 6.22 g/m*3 28.7 C 0 km/h
322 07-09-2009 16:15:02 29.3 C 6.13 g/m*3 29.3 C 0 km/h
323 07-09-2009 16:27:02 28.8 C 6.25 g/m*3 28.8 C 0 km/h
324 07-09-2009 16:39:02 27.9 C 5.41 g/m*3 27.9 C 0 km/h
325 07-09-2009 16:51:02 29 C 6.89 g/m*3 29 C 0 km/h
Sensor: Nr:Datum:Temp:Abs-Feuchte:Windchill:Wind:
Aussen-T/F 326 07-09-2009 17:03:02 29.7 C 6.56 g/m*3 29.7 C 0 km/h
327 07-09-2009 17:15:02 30.3 C 6.47 g/m*3 30.3 C 0 km/h
328 07-09-2009 17:27:02 29.1 C 6.64 g/m*3 29.1 C 0 km/h
329 07-09-2009 17:39:02 29.4 C 6.75 g/m*3 29.4 C 0 km/h
330 07-09-2009 17:51:02 29.5 C 6.79 g/m*3 29.5 C 0 km/h
331 07-09-2009 18:03:02 29.1 C 6.64 g/m*3 29.1 C 0 km/h
332 07-09-2009 18:15:02 29.7 C 7.16 g/m*3 29.7 C 0 km/h
333 07-09-2009 18:27:02 29.8 C 6.9 g/m*3 29.8 C 0 km/h
334 07-09-2009 18:39:02 29.4 C 7.93 g/m*3 29.4 C 0 km/h
335 07-09-2009 18:51:02 28.9 C 8 g/m*3 28.9 C 0 km/h
336 07-09-2009 19:03:01 28.4 C 7.51 g/m*3 28.4 C 0 km/h
337 07-09-2009 19:15:02 27.4 C 8.16 g/m*3 27.4 C 0 km/h
338 07-09-2009 19:27:02 26.2 C 7.88 g/m*3 26.2 C 0 km/h
339 07-09-2009 19:39:02 24.7 C 7.92 g/m*3 24.7 C 0 km/h
340 07-09-2009 19:51:02 23.3 C 8.15 g/m*3 23.3 C 0 km/h
341 07-09-2009 20:03:03 22.7 C 8.28 g/m*3 22.7 C 0 km/h
342 07-09-2009 20:15:02 22 C 8.15 g/m*3 22 C 0 km/h
343 07-09-2009 20:27:02 21.7 C 8.39 g/m*3 21.7 C 0 km/h
344 07-09-2009 20:39:02 21.4 C 8.44 g/m*3 21.4 C 0 km/h
345 07-09-2009 20:51:02 21.2 C 8.52 g/m*3 21.2 C 0 km/h
346 07-09-2009 21:03:01 20.9 C 8.56 g/m*3 20.9 C 0 km/h
347 07-09-2009 21:15:02 20.7 C 8.46 g/m*3 20.7 C 0 km/h
348 07-09-2009 21:27:02 20.5 C 8.72 g/m*3 20.5 C 0 km/h
349 07-09-2009 21:39:01 20 C 8.81 g/m*3 20 C 0 km/h
350 07-09-2009 21:51:02 19.6 C 8.78 g/m*3 19.6 C 0 km/h
Sensor: Nr:Datum:Temp:Abs-Feuchte:Windchill:Wind:
Aussen-T/F 351 07-09-2009 22:03:01 19.5 C 8.73 g/m*3 19.5 C 0 km/h
352 07-09-2009 22:15:01 19 C 8.96 g/m*3 19 C 0 km/h
353 07-09-2009 22:27:01 18.6 C 9.07 g/m*3 18.6 C 0 km/h
354 07-09-2009 22:40:01 18.4 C 9.12 g/m*3 18.4 C 0 km/h
355 07-09-2009 22:52:01 18.2 C 9.01 g/m*3 18.2 C 0 km/h
356 07-09-2009 23:04:01 18 C 8.75 g/m*3 18 C 0 km/h
357 07-09-2009 23:16:01 17.9 C 8.86 g/m*3 17.9 C 0 km/h
358 07-09-2009 23:28:01 17.8 C 8.95 g/m*3 17.8 C 0 km/h
359 07-09-2009 23:40:01 17.4 C 8.89 g/m*3 17.4 C 0 km/h
360 07-09-2009 23:52:01 17 C 8.97 g/m*3 17 C 0 km/h
361 08-09-2009 00:04:01 16.7 C 9.1 g/m*3 16.7 C 0 km/h
362 08-09-2009 00:16:01 16.4 C 9.21 g/m*3 16.4 C 0 km/h
363 08-09-2009 00:28:02 16.2 C 9.1 g/m*3 16.2 C 0 km/h
364 08-09-2009 00:40:02 15.9 C 9.21 g/m*3 15.9 C 0 km/h
365 08-09-2009 00:52:02 15.7 C 9.23 g/m*3 15.7 C 0 km/h
366 08-09-2009 01:04:02 15.3 C 9.14 g/m*3 15.3 C 0 km/h
367 08-09-2009 01:16:02 15.2 C 9.09 g/m*3 15.2 C 0 km/h
368 08-09-2009 01:28:02 15.2 C 9.22 g/m*3 15.2 C 0 km/h
369 08-09-2009 01:40:02 15 C 9.23 g/m*3 15 C 0 km/h
370 08-09-2009 01:52:02 14.9 C 9.3 g/m*3 14.9 C 0 km/h
371 08-09-2009 02:04:02 14.6 C 9.26 g/m*3 14.6 C 0 km/h
372 08-09-2009 02:16:02 14.4 C 9.15 g/m*3 14.4 C 0 km/h
373 08-09-2009 02:28:02 14.1 C 8.98 g/m*3 14.1 C 0 km/h
374 08-09-2009 02:40:02 14.1 C 9.1 g/m*3 14.1 C 0 km/h
375 08-09-2009 02:52:02 13.9 C 9.11 g/m*3 13.9 C 0 km/h
Sensor: Nr:Datum:Temp:Abs-Feuchte:Windchill:Wind:
Aussen-T/F 376 08-09-2009 03:04:02 13.8 C 9.06 g/m*3 13.8 C 0 km/h
377 08-09-2009 03:16:02 13.5 C 9.12 g/m*3 13.5 C 0 km/h
378 08-09-2009 03:28:02 13.4 C 9.07 g/m*3 13.4 C 0 km/h
379 08-09-2009 03:40:02 13.2 C 8.96 g/m*3 13.2 C 0 km/h
380 08-09-2009 03:52:02 13.1 C 9.01 g/m*3 13.1 C 0 km/h
381 08-09-2009 04:04:02 13 C 8.96 g/m*3 13 C 0 km/h
382 08-09-2009 04:16:02 12.8 C 8.85 g/m*3 12.8 C 0 km/h
383 08-09-2009 04:28:02 12.7 C 8.79 g/m*3 12.7 C 0 km/h
384 08-09-2009 04:40:03 12.5 C 8.8 g/m*3 12.5 C 0 km/h
385 08-09-2009 04:52:03 12.4 C 8.74 g/m*3 12.4 C 0 km/h
386 08-09-2009 05:04:03 12.2 C 8.74 g/m*3 12.2 C 0 km/h
387 08-09-2009 05:16:03 12.1 C 8.69 g/m*3 12.1 C 0 km/h
388 08-09-2009 05:28:03 11.9 C 8.68 g/m*3 11.9 C 0 km/h
389 08-09-2009 05:40:03 11.8 C 8.63 g/m*3 11.8 C 0 km/h
390 08-09-2009 05:52:03 11.7 C 8.58 g/m*3 11.7 C 0 km/h
391 08-09-2009 06:04:03 11.7 C 8.68 g/m*3 11.7 C 0 km/h
392 08-09-2009 06:16:03 11.6 C 8.73 g/m*3 11.6 C 0 km/h
393 08-09-2009 06:28:03 11.5 C 8.68 g/m*3 11.5 C 0 km/h
394 08-09-2009 06:40:03 11.5 C 8.78 g/m*3 11.5 C 0 km/h
395 08-09-2009 06:52:03 11.5 C 8.68 g/m*3 11.5 C 0 km/h
396 08-09-2009 07:04:02 11.6 C 8.73 g/m*3 11.6 C 0 km/h
397 08-09-2009 07:16:02 11.5 C 8.68 g/m*3 11.5 C 0 km/h
398 08-09-2009 07:28:02 11.5 C 8.68 g/m*3 11.5 C 0 km/h
399 08-09-2009 07:40:01 11.7 C 8.79 g/m*3 11.7 C 0 km/h
400 08-09-2009 07:52:01 11.8 C 8.74 g/m*3 11.8 C 0 km/h
Sensor: Nr:Datum:Temp:Abs-Feuchte:Windchill:Wind:
Aussen-T/F 401 08-09-2009 08:04:01 12 C 8.85 g/m*3 12 C 0 km/h
402 08-09-2009 08:16:02 12.1 C 8.9 g/m*3 12.1 C 0 km/h
403 08-09-2009 08:28:02 12.2 C 8.85 g/m*3 12.2 C 0 km/h
404 08-09-2009 08:40:01 11.9 C 8.9 g/m*3 11.9 C 0 km/h
405 08-09-2009 08:52:02 11.9 C 9 g/m*3 11.9 C 0 km/h
406 08-09-2009 09:04:01 12 C 9.06 g/m*3 12 C 0 km/h
407 08-09-2009 09:16:01 12.5 C 9.35 g/m*3 12.5 C 0 km/h
408 08-09-2009 09:28:02 12.7 C 9.24 g/m*3 12.7 C 0 km/h
409 08-09-2009 09:40:01 13 C 9.3 g/m*3 13 C 0 km/h
410 08-09-2009 09:52:02 12.8 C 9.3 g/m*3 12.8 C 0 km/h
411 08-09-2009 10:04:02 13.1 C 9.47 g/m*3 13.1 C 0 km/h
412 08-09-2009 10:16:02 13.6 C 9.77 g/m*3 13.6 C 0 km/h
413 08-09-2009 10:28:02 14.2 C 9.89 g/m*3 14.2 C 0 km/h
414 08-09-2009 10:40:02 14.9 C 10.07 g/m*3 14.9 C 0 km/h
415 08-09-2009 10:52:02 15.8 C 10.36 g/m*3 15.8 C 0 km/h
416 08-09-2009 11:04:02 16.5 C 10.39 g/m*3 16.5 C 0 km/h
417 08-09-2009 11:16:01 17.3 C 10.16 g/m*3 17.3 C 0 km/h
418 08-09-2009 11:28:01 18.5 C 9.97 g/m*3 18.5 C 0 km/h
419 08-09-2009 11:40:02 19.1 C 9.84 g/m*3 19.1 C 0 km/h
420 08-09-2009 11:52:02 19.9 C 9.97 g/m*3 19.9 C 0 km/h
421 08-09-2009 12:04:02 20.4 C 10.08 g/m*3 20.4 C 0 km/h
422 08-09-2009 12:16:01 20.9 C 10.56 g/m*3 20.9 C 0 km/h
423 08-09-2009 12:28:01 21.6 C 10.43 g/m*3 21.6 C 0 km/h
424 08-09-2009 12:40:02 22.3 C 9.28 g/m*3 22.3 C 0 km/h
425 08-09-2009 12:52:02 22.9 C 10.01 g/m*3 22.9 C 0 km/h
Sensor: Nr:Datum:Temp:Abs-Feuchte:Windchill:Wind:
Aussen-T/F 426 08-09-2009 13:04:02 23.3 C 10.25 g/m*3 23.3 C 0 km/h
427 08-09-2009 13:16:01 24.2 C 9.68 g/m*3 24.2 C 0 km/h
428 08-09-2009 13:28:01 24.8 C 9.56 g/m*3 24.8 C 0 km/h
429 08-09-2009 13:40:02 25.6 C 8.57 g/m*3 25.6 C 0 km/h
430 08-09-2009 13:52:02 26.5 C 7.76 g/m*3 26.5 C 0 km/h
431 08-09-2009 14:04:02 27.5 C 9 g/m*3 27.5 C 0 km/h
432 08-09-2009 14:16:02 27.9 C 8.11 g/m*3 27.9 C 0 km/h
433 08-09-2009 14:28:02 28.8 C 7.67 g/m*3 28.8 C 0 km/h
434 08-09-2009 14:40:02 29.5 C 7.38 g/m*3 29.5 C 0 km/h
435 08-09-2009 14:52:01 29.8 C 6.6 g/m*3 29.8 C 0 km/h
436 08-09-2009 15:04:02 30.3 C 6.78 g/m*3 30.3 C 0 km/h
437 08-09-2009 15:16:02 30.6 C 6.58 g/m*3 30.6 C 0 km/h
438 08-09-2009 15:28:02 30.6 C 6.26 g/m*3 30.6 C 0 km/h
439 08-09-2009 15:40:01 31 C 6.4 g/m*3 31 C 0 km/h
440 08-09-2009 15:52:02 31.2 C 6.47 g/m*3 31.2 C 0 km/h
441 08-09-2009 16:04:01 31.4 C 6.54 g/m*3 31.4 C 0 km/h
442 08-09-2009 16:16:02 31.6 C 6.61 g/m*3 31.6 C 0 km/h
443 08-09-2009 16:28:02 31.7 C 6.64 g/m*3 31.7 C 0 km/h
444 08-09-2009 16:40:01 32 C 6.75 g/m*3 32 C 0 km/h
445 08-09-2009 16:52:02 32 C 6.75 g/m*3 32 C 0 km/h
446 08-09-2009 17:04:02 31.9 C 6.72 g/m*3 31.9 C 0 km/h
447 08-09-2009 17:16:02 31.9 C 6.72 g/m*3 31.9 C 0 km/h
448 08-09-2009 17:28:02 32 C 6.75 g/m*3 32 C 0 km/h
449 08-09-2009 17:40:03 32 C 6.75 g/m*3 32 C 0 km/h
450 08-09-2009 17:52:02 31.9 C 6.72 g/m*3 31.9 C 0 km/h
Sensor: Nr:Datum:Temp:Abs-Feuchte:Windchill:Wind:
Aussen-T/F 451 08-09-2009 18:04:02 31.9 C 6.72 g/m*3 31.9 C 0 km/h
452 08-09-2009 18:16:02 31.6 C 6.61 g/m*3 31.6 C 0 km/h
453 08-09-2009 18:28:02 31.2 C 6.47 g/m*3 31.2 C 0 km/h
454 08-09-2009 18:40:02 31 C 6.4 g/m*3 31 C 0 km/h
455 08-09-2009 18:52:01 30.5 C 6.23 g/m*3 30.5 C 0 km/h
456 08-09-2009 19:04:02 29.8 C 6.3 g/m*3 29.8 C 0 km/h
457 08-09-2009 19:16:01 28.9 C 6.57 g/m*3 28.9 C 0 km/h
458 08-09-2009 19:28:01 27.9 C 6.76 g/m*3 27.9 C 0 km/h
459 08-09-2009 19:40:02 26.9 C 6.65 g/m*3 26.9 C 0 km/h
460 08-09-2009 19:52:01 25.8 C 6.74 g/m*3 25.8 C 0 km/h
461 08-09-2009 20:04:02 24.9 C 7.1 g/m*3 24.9 C 0 km/h
462 08-09-2009 20:16:01 24.6 C 6.98 g/m*3 24.6 C 0 km/h
463 08-09-2009 20:28:01 24.2 C 7.04 g/m*3 24.2 C 0 km/h
464 08-09-2009 20:40:02 23.9 C 7.36 g/m*3 23.9 C 0 km/h
465 08-09-2009 20:52:01 23.6 C 7.44 g/m*3 23.6 C 0 km/h
466 08-09-2009 21:04:01 23.2 C 7.48 g/m*3 23.2 C 0 km/h
467 08-09-2009 21:16:02 22.6 C 7.63 g/m*3 22.6 C 0 km/h
468 08-09-2009 21:28:02 22.1 C 8 g/m*3 22.1 C 0 km/h
469 08-09-2009 21:40:02 21.5 C 8.3 g/m*3 21.5 C 0 km/h
470 08-09-2009 21:52:01 21 C 8.24 g/m*3 21 C 0 km/h
471 08-09-2009 22:04:01 20.7 C 8.28 g/m*3 20.7 C 0 km/h
472 08-09-2009 22:16:01 20.4 C 8.14 g/m*3 20.4 C 0 km/h
473 08-09-2009 22:28:01 19.8 C 8.2 g/m*3 19.8 C 0 km/h
474 08-09-2009 22:41:02 19.6 C 8.44 g/m*3 19.6 C 0 km/h
475 08-09-2009 22:53:02 19.2 C 8.74 g/m*3 19.2 C 0 km/h
Sensor: Nr:Datum:Temp:Abs-Feuchte:Windchill:Wind:
Aussen-T/F 476 08-09-2009 23:05:02 18.8 C 8.86 g/m*3 18.8 C 0 km/h
477 08-09-2009 23:17:02 18.5 C 8.54 g/m*3 18.5 C 0 km/h
478 08-09-2009 23:29:02 18.3 C 8.44 g/m*3 18.3 C 0 km/h
479 08-09-2009 23:41:02 18 C 8.29 g/m*3 18 C 0 km/h
480 08-09-2009 23:53:03 17.7 C 8.45 g/m*3 17.7 C 0 km/h
481 09-09-2009 00:05:03 17.5 C 8.35 g/m*3 17.5 C 0 km/h
482 09-09-2009 00:17:03 17.3 C 8.4 g/m*3 17.3 C 0 km/h
483 09-09-2009 00:29:03 17.1 C 8.44 g/m*3 17.1 C 0 km/h
484 09-09-2009 00:41:03 16.9 C 8.49 g/m*3 16.9 C 0 km/h
485 09-09-2009 00:53:03 16.6 C 8.33 g/m*3 16.6 C 0 km/h
486 09-09-2009 01:05:03 16.4 C 8.51 g/m*3 16.4 C 0 km/h
487 09-09-2009 01:17:03 16.2 C 8.55 g/m*3 16.2 C 0 km/h
488 09-09-2009 01:29:03 16 C 8.45 g/m*3 16 C 0 km/h
489 09-09-2009 01:41:03 15.8 C 8.48 g/m*3 15.8 C 0 km/h
490 09-09-2009 01:53:03 15.6 C 8.64 g/m*3 15.6 C 0 km/h
491 09-09-2009 02:05:03 15.2 C 8.57 g/m*3 15.2 C 0 km/h
492 09-09-2009 02:17:03 15 C 8.59 g/m*3 15 C 0 km/h
493 09-09-2009 02:29:03 14.8 C 8.61 g/m*3 14.8 C 0 km/h
494 09-09-2009 02:41:03 14.7 C 8.69 g/m*3 14.7 C 0 km/h
495 09-09-2009 02:53:03 14.6 C 8.63 g/m*3 14.6 C 0 km/h
496 09-09-2009 03:05:03 14.3 C 8.6 g/m*3 14.3 C 0 km/h
497 09-09-2009 03:17:03 14.1 C 8.62 g/m*3 14.1 C 0 km/h
498 09-09-2009 03:29:03 14.1 C 8.74 g/m*3 14.1 C 0 km/h
499 09-09-2009 03:41:03 13.9 C 8.75 g/m*3 13.9 C 0 km/h
500 09-09-2009 03:53:03 13.7 C 8.64 g/m*3 13.7 C 0 km/h
Sensor: Nr:Datum:Temp:Abs-Feuchte:Windchill:Wind:
Aussen-T/F 501 09-09-2009 04:05:04 13.5 C 8.66 g/m*3 13.5 C 0 km/h
502 09-09-2009 04:17:04 13.4 C 8.6 g/m*3 13.4 C 0 km/h
503 09-09-2009 04:29:04 13.3 C 8.55 g/m*3 13.3 C 0 km/h
504 09-09-2009 04:41:04 13.2 C 8.61 g/m*3 13.2 C 0 km/h
505 09-09-2009 04:53:04 13 C 8.62 g/m*3 13 C 0 km/h
506 09-09-2009 05:05:04 12.9 C 8.68 g/m*3 12.9 C 0 km/h
507 09-09-2009 05:17:04 12.7 C 8.57 g/m*3 12.7 C 0 km/h
508 09-09-2009 05:29:04 12.6 C 8.63 g/m*3 12.6 C 0 km/h
509 09-09-2009 05:41:04 12.4 C 8.52 g/m*3 12.4 C 0 km/h
510 09-09-2009 05:53:04 12.2 C 8.42 g/m*3 12.2 C 0 km/h
511 09-09-2009 06:05:04 12.1 C 8.36 g/m*3 12.1 C 0 km/h
512 09-09-2009 06:17:04 12 C 8.42 g/m*3 12 C 0 km/h
513 09-09-2009 06:29:04 11.8 C 8.42 g/m*3 11.8 C 0 km/h
514 09-09-2009 06:41:04 11.8 C 8.42 g/m*3 11.8 C 0 km/h
515 09-09-2009 06:53:04 11.7 C 8.47 g/m*3 11.7 C 0 km/h
516 09-09-2009 07:05:02 11.6 C 8.42 g/m*3 11.6 C 0 km/h
517 09-09-2009 07:17:01 11.5 C 8.37 g/m*3 11.5 C 0 km/h
518 09-09-2009 07:29:01 11.6 C 8.42 g/m*3 11.6 C 0 km/h
519 09-09-2009 07:41:02 11.7 C 8.47 g/m*3 11.7 C 0 km/h
520 09-09-2009 07:53:02 11.8 C 8.53 g/m*3 11.8 C 0 km/h
521 09-09-2009 08:05:02 11.9 C 8.58 g/m*3 11.9 C 0 km/h
522 09-09-2009 08:17:02 12 C 8.53 g/m*3 12 C 0 km/h
523 09-09-2009 08:29:02 12.3 C 8.69 g/m*3 12.3 C 0 km/h
524 09-09-2009 08:41:02 12.4 C 8.74 g/m*3 12.4 C 0 km/h
525 09-09-2009 08:53:01 12.6 C 8.85 g/m*3 12.6 C 0 km/h
Sensor: Nr:Datum:Temp:Abs-Feuchte:Windchill:Wind:
Aussen-T/F 526 09-09-2009 09:05:02 12.7 C 8.79 g/m*3 12.7 C 0 km/h
527 09-09-2009 09:17:02 12.8 C 8.85 g/m*3 12.8 C 0 km/h
528 09-09-2009 09:29:02 13.1 C 8.9 g/m*3 13.1 C 0 km/h
529 09-09-2009 09:41:02 13.6 C 9.18 g/m*3 13.6 C 0 km/h
530 09-09-2009 09:53:02 14.3 C 9.21 g/m*3 14.3 C 0 km/h
531 09-09-2009 10:05:02 15 C 9.1 g/m*3 15 C 0 km/h
532 09-09-2009 10:17:02 15.2 C 8.96 g/m*3 15.2 C 0 km/h
533 09-09-2009 10:29:03 15.8 C 9.02 g/m*3 15.8 C 0 km/h
534 09-09-2009 10:41:01 16.6 C 9.18 g/m*3 16.6 C 0 km/h
535 09-09-2009 10:53:02 17 C 9.12 g/m*3 17 C 0 km/h
536 09-09-2009 11:05:01 17.7 C 9.35 g/m*3 17.7 C 0 km/h
537 09-09-2009 11:17:01 18.2 C 9.17 g/m*3 18.2 C 0 km/h
538 09-09-2009 11:29:01 18.9 C 9.07 g/m*3 18.9 C 0 km/h
539 09-09-2009 11:41:02 19.4 C 8.84 g/m*3 19.4 C 0 km/h
540 09-09-2009 11:53:02 20.2 C 9.09 g/m*3 20.2 C 0 km/h
541 09-09-2009 12:05:02 20.8 C 9.23 g/m*3 20.8 C 0 km/h
542 09-09-2009 12:17:02 21.2 C 9.27 g/m*3 21.2 C 0 km/h
543 09-09-2009 12:29:02 21.8 C 9.4 g/m*3 21.8 C 0 km/h
544 09-09-2009 12:41:02 22.4 C 9.73 g/m*3 22.4 C 0 km/h
545 09-09-2009 12:53:01 22.7 C 10.1 g/m*3 22.7 C 0 km/h
546 09-09-2009 13:05:02 23.8 C 9.68 g/m*3 23.8 C 0 km/h
547 09-09-2009 13:17:01 24.5 C 9.4 g/m*3 24.5 C 0 km/h
548 09-09-2009 13:29:01 25.2 C 8.61 g/m*3 25.2 C 0 km/h
549 09-09-2009 13:41:02 26 C 8.76 g/m*3 26 C 0 km/h
550 09-09-2009 13:53:02 26.5 C 8.76 g/m*3 26.5 C 0 km/h
Sensor: Nr:Datum:Temp:Abs-Feuchte:Windchill:Wind:
Aussen-T/F 551 09-09-2009 14:05:02 27.4 C 7.1 g/m*3 27.4 C 0 km/h
552 09-09-2009 14:17:01 27.7 C 6.95 g/m*3 27.7 C 0 km/h
553 09-09-2009 14:29:01 27.6 C 7.98 g/m*3 27.6 C 0 km/h
554 09-09-2009 14:41:02 27.9 C 7.3 g/m*3 27.9 C 0 km/h
555 09-09-2009 14:53:02 28.6 C 7.03 g/m*3 28.6 C 0 km/h
556 09-09-2009 15:05:02 28.5 C 7.83 g/m*3 28.5 C 0 km/h
557 09-09-2009 15:17:02 28.8 C 7.1 g/m*3 28.8 C 0 km/h
558 09-09-2009 15:29:02 28.7 C 7.63 g/m*3 28.7 C 0 km/h
559 09-09-2009 15:41:02 28.3 C 7.74 g/m*3 28.3 C 0 km/h
560 09-09-2009 15:53:01 28.5 C 8.11 g/m*3 28.5 C 0 km/h
561 09-09-2009 16:05:02 28.8 C 7.67 g/m*3 28.8 C 0 km/h
562 09-09-2009 16:17:02 28.7 C 7.91 g/m*3 28.7 C 0 km/h
563 09-09-2009 16:29:02 29 C 7.18 g/m*3 29 C 0 km/h
564 09-09-2009 16:41:02 29.1 C 6.35 g/m*3 29.1 C 0 km/h
565 09-09-2009 16:53:02 28.5 C 7.27 g/m*3 28.5 C 0 km/h
566 09-09-2009 17:05:01 27.3 C 7.33 g/m*3 27.3 C 0 km/h
567 09-09-2009 17:17:02 27.7 C 8.02 g/m*3 27.7 C 0 km/h
568 09-09-2009 17:29:03 28.1 C 7.66 g/m*3 28.1 C 0 km/h
569 09-09-2009 17:41:01 29.3 C 7.88 g/m*3 29.3 C 0 km/h
570 09-09-2009 17:53:02 30.4 C 7.75 g/m*3 30.4 C 0 km/h
571 09-09-2009 18:05:01 30 C 7.58 g/m*3 30 C 0 km/h
572 09-09-2009 18:17:02 30 C 7.58 g/m*3 30 C 0 km/h
573 09-09-2009 18:29:02 29.7 C 7.46 g/m*3 29.7 C 0 km/h
574 09-09-2009 18:41:01 28.5 C 8.11 g/m*3 28.5 C 0 km/h
575 09-09-2009 18:53:02 27.3 C 7.85 g/m*3 27.3 C 0 km/h
Sensor: Nr:Datum:Temp:Abs-Feuchte:Windchill:Wind:
Aussen-T/F 576 09-09-2009 19:05:02 26.2 C 7.88 g/m*3 26.2 C 0 km/h
577 09-09-2009 19:17:02 25.5 C 8.29 g/m*3 25.5 C 0 km/h
578 09-09-2009 19:29:02 24.7 C 8.15 g/m*3 24.7 C 0 km/h
579 09-09-2009 19:41:02 23.9 C 8 g/m*3 23.9 C 0 km/h
580 09-09-2009 19:53:02 23.4 C 7.99 g/m*3 23.4 C 0 km/h
581 09-09-2009 20:05:02 23.1 C 7.86 g/m*3 23.1 C 0 km/h
582 09-09-2009 20:17:01 22.8 C 7.72 g/m*3 22.8 C 0 km/h
583 09-09-2009 20:29:01 22.7 C 8.08 g/m*3 22.7 C 0 km/h
584 09-09-2009 20:41:02 22.6 C 8.44 g/m*3 22.6 C 0 km/h
585 09-09-2009 20:53:02 22.3 C 8.89 g/m*3 22.3 C 0 km/h
586 09-09-2009 21:05:02 22 C 9.12 g/m*3 22 C 0 km/h
587 09-09-2009 21:17:02 22.2 C 9.62 g/m*3 22.2 C 0 km/h
588 09-09-2009 21:29:02 22.4 C 10.13 g/m*3 22.4 C 0 km/h
589 09-09-2009 21:41:01 22.7 C 10.71 g/m*3 22.7 C 0 km/h
590 09-09-2009 21:53:02 22.4 C 10.72 g/m*3 22.4 C 0 km/h
591 09-09-2009 22:05:01 22.5 C 11.19 g/m*3 22.5 C 0 km/h
592 09-09-2009 22:17:02 22.3 C 11.45 g/m*3 22.3 C 0 km/h
593 09-09-2009 22:29:02 22 C 11.84 g/m*3 22 C 0 km/h
594 09-09-2009 22:41:02 21.7 C 12.4 g/m*3 21.7 C 0 km/h
595 09-09-2009 22:53:02 21.4 C 12.37 g/m*3 21.4 C 0 km/h
596 09-09-2009 23:05:02 21.1 C 12.53 g/m*3 21.1 C 0 km/h
597 09-09-2009 23:18:02 20.8 C 12.49 g/m*3 20.8 C 0 km/h
598 09-09-2009 23:30:02 20.6 C 12.53 g/m*3 20.6 C 0 km/h
599 09-09-2009 23:42:02 20.5 C 12.46 g/m*3 20.5 C 0 km/h
600 09-09-2009 23:54:02 20.3 C 12.31 g/m*3 20.3 C 0 km/h
Sensor: Nr:Datum:Temp:Abs-Feuchte:Windchill:Wind:
Aussen-T/F 601 10-09-2009 00:06:02 20.2 C 12.41 g/m*3 20.2 C 0 km/h
602 10-09-2009 00:18:02 20.1 C 12.34 g/m*3 20.1 C 0 km/h
603 10-09-2009 00:30:02 20.1 C 12.17 g/m*3 20.1 C 0 km/h
604 10-09-2009 00:42:02 20.2 C 12.06 g/m*3 20.2 C 0 km/h
605 10-09-2009 00:54:02 20.2 C 11.89 g/m*3 20.2 C 0 km/h
606 10-09-2009 01:06:02 20.2 C 11.89 g/m*3 20.2 C 0 km/h
607 10-09-2009 01:18:02 20.2 C 11.89 g/m*3 20.2 C 0 km/h
608 10-09-2009 01:30:02 20.1 C 11.82 g/m*3 20.1 C 0 km/h
609 10-09-2009 01:42:02 20 C 11.75 g/m*3 20 C 0 km/h
610 10-09-2009 01:54:02 19.9 C 11.85 g/m*3 19.9 C 0 km/h
611 10-09-2009 02:06:02 19.9 C 11.68 g/m*3 19.9 C 0 km/h
612 10-09-2009 02:18:02 19.9 C 11.68 g/m*3 19.9 C 0 km/h
613 10-09-2009 02:30:03 19.8 C 11.61 g/m*3 19.8 C 0 km/h
614 10-09-2009 02:42:03 19.5 C 11.41 g/m*3 19.5 C 0 km/h
615 10-09-2009 02:54:03 19.5 C 11.58 g/m*3 19.5 C 0 km/h
616 10-09-2009 03:06:03 19.5 C 11.58 g/m*3 19.5 C 0 km/h
617 10-09-2009 03:18:03 19.4 C 11.51 g/m*3 19.4 C 0 km/h
618 10-09-2009 03:30:03 19.4 C 11.51 g/m*3 19.4 C 0 km/h
619 10-09-2009 03:42:03 19.2 C 11.54 g/m*3 19.2 C 0 km/h
620 10-09-2009 03:54:03 19.1 C 11.47 g/m*3 19.1 C 0 km/h
621 10-09-2009 04:06:03 19.1 C 11.47 g/m*3 19.1 C 0 km/h
622 10-09-2009 04:18:03 18.9 C 11.66 g/m*3 18.9 C 0 km/h
623 10-09-2009 04:30:03 18.8 C 11.6 g/m*3 18.8 C 0 km/h
624 10-09-2009 04:42:03 18.6 C 11.62 g/m*3 18.6 C 0 km/h
625 10-09-2009 04:54:03 18.6 C 11.62 g/m*3 18.6 C 0 km/h
Sensor: Nr:Datum:Temp:Abs-Feuchte:Windchill:Wind:
Aussen-T/F 626 10-09-2009 05:06:03 18.8 C 11.76 g/m*3 18.8 C 0 km/h
627 10-09-2009 05:18:03 18.7 C 11.53 g/m*3 18.7 C 0 km/h
628 10-09-2009 05:30:03 18.4 C 11.48 g/m*3 18.4 C 0 km/h
629 10-09-2009 05:42:03 18.2 C 11.5 g/m*3 18.2 C 0 km/h
630 10-09-2009 05:54:03 18.1 C 11.43 g/m*3 18.1 C 0 km/h
631 10-09-2009 06:06:03 18.3 C 11.41 g/m*3 18.3 C 0 km/h
632 10-09-2009 06:18:03 18.3 C 11.26 g/m*3 18.3 C 0 km/h
633 10-09-2009 06:30:03 18.2 C 11.19 g/m*3 18.2 C 0 km/h
634 10-09-2009 06:42:04 18 C 11.06 g/m*3 18 C 0 km/h
635 10-09-2009 06:54:04 17.9 C 11.15 g/m*3 17.9 C 0 km/h
636 10-09-2009 07:06:02 17.9 C 11.15 g/m*3 17.9 C 0 km/h
637 10-09-2009 07:18:02 18 C 11.06 g/m*3 18 C 0 km/h
638 10-09-2009 07:30:02 18.2 C 11.04 g/m*3 18.2 C 0 km/h
639 10-09-2009 07:42:02 18.2 C 10.88 g/m*3 18.2 C 0 km/h
640 10-09-2009 07:54:02 18.1 C 10.66 g/m*3 18.1 C 0 km/h
641 10-09-2009 08:06:02 18.1 C 10.66 g/m*3 18.1 C 0 km/h
642 10-09-2009 08:18:02 18.1 C 10.66 g/m*3 18.1 C 0 km/h
643 10-09-2009 08:30:02 18 C 10.44 g/m*3 18 C 0 km/h
644 10-09-2009 08:42:01 18.1 C 10.51 g/m*3 18.1 C 0 km/h
645 10-09-2009 08:54:02 18 C 10.29 g/m*3 18 C 0 km/h
646 10-09-2009 09:06:01 18 C 10.29 g/m*3 18 C 0 km/h
647 10-09-2009 09:18:01 18.1 C 10.35 g/m*3 18.1 C 0 km/h
648 10-09-2009 09:30:01 18.3 C 10.32 g/m*3 18.3 C 0 km/h
649 10-09-2009 09:42:02 18.5 C 10.28 g/m*3 18.5 C 0 km/h
650 10-09-2009 09:54:02 18 C 9.98 g/m*3 18 C 0 km/h
Sensor: Nr:Datum:Temp:Abs-Feuchte:Windchill:Wind:
Aussen-T/F 651 10-09-2009 10:06:02 18 C 10.14 g/m*3 18 C 0 km/h
652 10-09-2009 10:18:02 18.3 C 10.32 g/m*3 18.3 C 0 km/h
653 10-09-2009 10:30:02 18.1 C 10.04 g/m*3 18.1 C 0 km/h
654 10-09-2009 10:42:02 18.2 C 10.26 g/m*3 18.2 C 0 km/h
655 10-09-2009 10:54:02 18.2 C 10.1 g/m*3 18.2 C 0 km/h
656 10-09-2009 11:06:02 18.4 C 10.22 g/m*3 18.4 C 0 km/h
657 10-09-2009 11:18:02 18.4 C 10.22 g/m*3 18.4 C 0 km/h
658 10-09-2009 11:30:02 18.3 C 10.16 g/m*3 18.3 C 0 km/h
659 10-09-2009 11:42:02 18.6 C 10.35 g/m*3 18.6 C 0 km/h
660 10-09-2009 11:54:01 18.8 C 10.31 g/m*3 18.8 C 0 km/h
661 10-09-2009 12:06:02 18.9 C 10.37 g/m*3 18.9 C 0 km/h
662 10-09-2009 12:18:01 18.7 C 10.25 g/m*3 18.7 C 0 km/h
663 10-09-2009 12:30:01 18.9 C 10.37 g/m*3 18.9 C 0 km/h
664 10-09-2009 12:42:01 19.1 C 10.33 g/m*3 19.1 C 0 km/h
665 10-09-2009 12:54:01 18.8 C 10.31 g/m*3 18.8 C 0 km/h
666 10-09-2009 13:06:02 18.9 C 10.37 g/m*3 18.9 C 0 km/h
667 10-09-2009 13:18:02 19.1 C 10.16 g/m*3 19.1 C 0 km/h
668 10-09-2009 13:30:02 19.1 C 10.16 g/m*3 19.1 C 0 km/h
669 10-09-2009 13:42:01 19.1 C 10.33 g/m*3 19.1 C 0 km/h
670 10-09-2009 13:54:01 18.8 C 10.31 g/m*3 18.8 C 0 km/h
671 10-09-2009 14:06:01 18.5 C 10.28 g/m*3 18.5 C 0 km/h
672 10-09-2009 14:18:02 18.6 C 10.5 g/m*3 18.6 C 0 km/h
673 10-09-2009 14:30:02 18.8 C 10.47 g/m*3 18.8 C 0 km/h
674 10-09-2009 14:42:01 19 C 10.27 g/m*3 19 C 0 km/h
675 10-09-2009 14:54:03 18.8 C 10.47 g/m*3 18.8 C 0 km/h
Sensor: Nr:Datum:Temp:Abs-Feuchte:Windchill:Wind:
Aussen-T/F 676 10-09-2009 15:06:02 18.9 C 10.53 g/m*3 18.9 C 0 km/h
677 10-09-2009 15:18:02 18.7 C 10.41 g/m*3 18.7 C 0 km/h
678 10-09-2009 15:30:03 18.8 C 10.47 g/m*3 18.8 C 0 km/h
679 10-09-2009 15:42:02 18.9 C 10.53 g/m*3 18.9 C 0 km/h
680 10-09-2009 15:54:02 18.6 C 10.35 g/m*3 18.6 C 0 km/h
681 10-09-2009 16:06:01 18.6 C 10.5 g/m*3 18.6 C 0 km/h
682 10-09-2009 16:18:02 18.5 C 10.44 g/m*3 18.5 C 0 km/h
683 10-09-2009 16:30:02 18.6 C 10.5 g/m*3 18.6 C 0 km/h
684 10-09-2009 16:42:02 18.6 C 10.5 g/m*3 18.6 C 0 km/h
685 10-09-2009 16:54:02 18.7 C 10.57 g/m*3 18.7 C 0 km/h
686 10-09-2009 17:06:03 18.7 C 10.41 g/m*3 18.7 C 0 km/h
687 10-09-2009 17:18:02 18.7 C 10.41 g/m*3 18.7 C 0 km/h
688 10-09-2009 17:30:02 18.6 C 10.35 g/m*3 18.6 C 0 km/h
689 10-09-2009 17:42:02 18.5 C 10.28 g/m*3 18.5 C 0 km/h
690 10-09-2009 17:54:02 18.5 C 10.28 g/m*3 18.5 C 0 km/h
691 10-09-2009 18:06:02 18.3 C 10.16 g/m*3 18.3 C 0 km/h
692 10-09-2009 18:18:01 18.3 C 10.16 g/m*3 18.3 C 0 km/h
693 10-09-2009 18:30:01 18.1 C 10.04 g/m*3 18.1 C 0 km/h
694 10-09-2009 18:42:02 18 C 9.98 g/m*3 18 C 0 km/h
695 10-09-2009 18:54:02 18 C 9.98 g/m*3 18 C 0 km/h
696 10-09-2009 19:06:02 18 C 9.98 g/m*3 18 C 0 km/h
697 10-09-2009 19:18:01 17.9 C 9.92 g/m*3 17.9 C 0 km/h
698 10-09-2009 19:30:01 17.9 C 9.92 g/m*3 17.9 C 0 km/h
699 10-09-2009 19:42:02 17.8 C 9.87 g/m*3 17.8 C 0 km/h
700 10-09-2009 19:54:01 17.7 C 9.66 g/m*3 17.7 C 0 km/h
Sensor: Nr:Datum:Temp:Abs-Feuchte:Windchill:Wind:
Aussen-T/F 701 10-09-2009 20:06:02 17.6 C 9.6 g/m*3 17.6 C 0 km/h
702 10-09-2009 20:18:02 17.5 C 9.39 g/m*3 17.5 C 0 km/h
703 10-09-2009 20:30:02 17.4 C 9.19 g/m*3 17.4 C 0 km/h
704 10-09-2009 20:42:02 17.3 C 8.99 g/m*3 17.3 C 0 km/h
705 10-09-2009 20:54:01 17.3 C 8.69 g/m*3 17.3 C 0 km/h
706 10-09-2009 21:06:01 17.4 C 8.6 g/m*3 17.4 C 0 km/h
707 10-09-2009 21:18:02 17.4 C 8.45 g/m*3 17.4 C 0 km/h
708 10-09-2009 21:30:02 17.2 C 8.2 g/m*3 17.2 C 0 km/h
709 10-09-2009 21:42:02 17.1 C 8.15 g/m*3 17.1 C 0 km/h
710 10-09-2009 21:54:02 17 C 7.96 g/m*3 17 C 0 km/h
711 10-09-2009 22:06:03 17 C 7.96 g/m*3 17 C 0 km/h
712 10-09-2009 22:18:02 17 C 7.96 g/m*3 17 C 0 km/h
713 10-09-2009 22:30:02 16.9 C 7.91 g/m*3 16.9 C 0 km/h
714 10-09-2009 22:42:02 16.9 C 7.77 g/m*3 16.9 C 0 km/h
715 10-09-2009 22:55:03 16.9 C 7.91 g/m*3 16.9 C 0 km/h
716 10-09-2009 23:07:03 16.8 C 7.72 g/m*3 16.8 C 0 km/h
717 10-09-2009 23:19:03 16.8 C 7.58 g/m*3 16.8 C 0 km/h
718 10-09-2009 23:31:03 16.7 C 7.53 g/m*3 16.7 C 0 km/h
719 10-09-2009 23:43:03 16.7 C 7.67 g/m*3 16.7 C 0 km/h
720 10-09-2009 23:55:03 16.6 C 7.77 g/m*3 16.6 C 0 km/h
721 11-09-2009 00:07:03 16.5 C 7.72 g/m*3 16.5 C 0 km/h
722 11-09-2009 00:19:04 16.4 C 7.96 g/m*3 16.4 C 0 km/h
723 11-09-2009 00:31:04 16.4 C 7.96 g/m*3 16.4 C 0 km/h
724 11-09-2009 00:43:04 16.4 C 7.96 g/m*3 16.4 C 0 km/h
725 11-09-2009 00:55:04 16.3 C 7.77 g/m*3 16.3 C 0 km/h
Sensor: Nr:Datum:Temp:Abs-Feuchte:Windchill:Wind:
Aussen-T/F 726 11-09-2009 01:07:04 16.2 C 7.86 g/m*3 16.2 C 0 km/h
727 11-09-2009 01:19:04 16.2 C 7.86 g/m*3 16.2 C 0 km/h
728 11-09-2009 01:31:04 16.2 C 7.86 g/m*3 16.2 C 0 km/h
729 11-09-2009 01:43:04 16.1 C 7.68 g/m*3 16.1 C 0 km/h
730 11-09-2009 01:55:04 16.1 C 7.81 g/m*3 16.1 C 0 km/h
731 11-09-2009 02:07:04 16.1 C 7.81 g/m*3 16.1 C 0 km/h
732 11-09-2009 02:19:04 16 C 7.77 g/m*3 16 C 0 km/h
733 11-09-2009 02:31:04 16 C 7.77 g/m*3 16 C 0 km/h
734 11-09-2009 02:43:04 15.9 C 7.85 g/m*3 15.9 C 0 km/h
735 11-09-2009 02:55:04 15.9 C 7.85 g/m*3 15.9 C 0 km/h
736 11-09-2009 03:07:04 15.9 C 7.99 g/m*3 15.9 C 0 km/h
737 11-09-2009 03:19:04 15.9 C 7.99 g/m*3 15.9 C 0 km/h
738 11-09-2009 03:31:04 15.8 C 7.94 g/m*3 15.8 C 0 km/h
739 11-09-2009 03:43:04 15.8 C 7.94 g/m*3 15.8 C 0 km/h
740 11-09-2009 03:55:04 15.7 C 8.03 g/m*3 15.7 C 0 km/h
741 11-09-2009 04:07:05 15.6 C 7.98 g/m*3 15.6 C 0 km/h
742 11-09-2009 04:19:05 15.5 C 8.06 g/m*3 15.5 C 0 km/h
743 11-09-2009 04:31:05 15.3 C 8.1 g/m*3 15.3 C 0 km/h
744 11-09-2009 04:43:05 15.2 C 8.18 g/m*3 15.2 C 0 km/h
745 11-09-2009 04:55:05 15.1 C 8.13 g/m*3 15.1 C 0 km/h
746 11-09-2009 05:07:05 15.1 C 8.13 g/m*3 15.1 C 0 km/h
747 11-09-2009 05:19:05 15 C 8.08 g/m*3 15 C 0 km/h
748 11-09-2009 05:31:05 14.9 C 8.28 g/m*3 14.9 C 0 km/h
749 11-09-2009 05:43:05 14.8 C 8.23 g/m*3 14.8 C 0 km/h
750 11-09-2009 05:55:05 14.7 C 8.18 g/m*3 14.7 C 0 km/h
Sensor: Nr:Datum:Temp:Abs-Feuchte:Windchill:Wind:
Aussen-T/F 751 11-09-2009 06:07:05 14.6 C 8.13 g/m*3 14.6 C 0 km/h
752 11-09-2009 06:19:05 14.6 C 8.26 g/m*3 14.6 C 0 km/h
753 11-09-2009 06:31:04 14.4 C 8.16 g/m*3 14.4 C 0 km/h
754 11-09-2009 06:43:04 14 C 8.08 g/m*3 14 C 0 km/h
755 11-09-2009 06:55:02 13.9 C 8.15 g/m*3 13.9 C 0 km/h
756 11-09-2009 07:07:02 13.5 C 8.19 g/m*3 13.5 C 0 km/h
757 11-09-2009 07:19:02 13.2 C 8.15 g/m*3 13.2 C 0 km/h
758 11-09-2009 07:31:02 13 C 8.17 g/m*3 13 C 0 km/h
759 11-09-2009 07:43:02 12.9 C 8.34 g/m*3 12.9 C 0 km/h
760 11-09-2009 07:55:02 12.9 C 8.34 g/m*3 12.9 C 0 km/h
761 11-09-2009 08:07:02 13.1 C 8.33 g/m*3 13.1 C 0 km/h
762 11-09-2009 08:19:02 13.1 C 8.33 g/m*3 13.1 C 0 km/h
763 11-09-2009 08:31:01 13.3 C 8.43 g/m*3 13.3 C 0 km/h
764 11-09-2009 08:43:01 13.4 C 8.37 g/m*3 13.4 C 0 km/h
765 11-09-2009 08:55:02 13.5 C 8.3 g/m*3 13.5 C 0 km/h
766 11-09-2009 09:07:01 13.7 C 8.29 g/m*3 13.7 C 0 km/h
767 11-09-2009 09:19:02 14.2 C 8.3 g/m*3 14.2 C 0 km/h
768 11-09-2009 09:31:02 14.4 C 8.16 g/m*3 14.4 C 0 km/h
769 11-09-2009 09:43:02 14.7 C 8.18 g/m*3 14.7 C 0 km/h
770 11-09-2009 09:55:02 14.9 C 8.28 g/m*3 14.9 C 0 km/h
771 11-09-2009 10:07:02 15.3 C 8.1 g/m*3 15.3 C 0 km/h
772 11-09-2009 10:19:02 16.2 C 8.14 g/m*3 16.2 C 0 km/h
773 11-09-2009 10:31:02 16.9 C 7.91 g/m*3 16.9 C 0 km/h
774 11-09-2009 10:43:02 17.2 C 7.32 g/m*3 17.2 C 0 km/h
775 11-09-2009 10:55:02 17.6 C 7.35 g/m*3 17.6 C 0 km/h
Sensor: Nr:Datum:Temp:Abs-Feuchte:Windchill:Wind:
Aussen-T/F 776 11-09-2009 11:07:02 18 C 7.22 g/m*3 18 C 0 km/h
777 11-09-2009 11:19:03 18.2 C 7.15 g/m*3 18.2 C 0 km/h
778 11-09-2009 11:31:02 18.4 C 7.08 g/m*3 18.4 C 0 km/h
779 11-09-2009 11:43:02 19 C 7.01 g/m*3 19 C 0 km/h
780 11-09-2009 11:55:02 18.5 C 6.8 g/m*3 18.5 C 0 km/h
781 11-09-2009 12:07:02 18.3 C 6.88 g/m*3 18.3 C 0 km/h
782 11-09-2009 12:19:03 18.1 C 6.49 g/m*3 18.1 C 0 km/h
783 11-09-2009 12:31:02 18.8 C 6.6 g/m*3 18.8 C 0 km/h
784 11-09-2009 12:43:02 19.1 C 6.56 g/m*3 19.1 C 0 km/h
785 11-09-2009 12:55:03 19.6 C 6.75 g/m*3 19.6 C 0 km/h
786 11-09-2009 13:07:02 20.2 C 6.64 g/m*3 20.2 C 0 km/h
787 11-09-2009 13:19:02 20 C 6.39 g/m*3 20 C 0 km/h
788 11-09-2009 13:31:02 20.6 C 6.44 g/m*3 20.6 C 0 km/h
789 11-09-2009 13:43:02 20.8 C 6.34 g/m*3 20.8 C 0 km/h
790 11-09-2009 13:55:02 21.2 C 6.3 g/m*3 21.2 C 0 km/h
791 11-09-2009 14:07:01 22.1 C 6.05 g/m*3 22.1 C 0 km/h
792 11-09-2009 14:19:02 22.3 C 5.92 g/m*3 22.3 C 0 km/h
793 11-09-2009 14:31:02 22.9 C 5.72 g/m*3 22.9 C 0 km/h
794 11-09-2009 14:43:02 22.5 C 5.79 g/m*3 22.5 C 0 km/h
795 11-09-2009 14:55:02 22.7 C 5.66 g/m*3 22.7 C 0 km/h
796 11-09-2009 15:07:02 23.7 C 5.78 g/m*3 23.7 C 0 km/h
797 11-09-2009 15:19:02 24.1 C 5.69 g/m*3 24.1 C 0 km/h
798 11-09-2009 15:31:02 23.6 C 5.53 g/m*3 23.6 C 0 km/h
799 11-09-2009 15:43:02 23.5 C 5.5 g/m*3 23.5 C 0 km/h
800 11-09-2009 15:55:02 24.3 C 5.53 g/m*3 24.3 C 0 km/h
Sensor: Nr:Datum:Temp:Abs-Feuchte:Windchill:Wind:
Aussen-T/F 801 11-09-2009 16:07:02 24.2 C 5.5 g/m*3 24.2 C 0 km/h
802 11-09-2009 16:19:01 24.2 C 5.5 g/m*3 24.2 C 0 km/h
803 11-09-2009 16:31:02 23.8 C 5.81 g/m*3 23.8 C 0 km/h
804 11-09-2009 16:43:03 24.5 C 5.82 g/m*3 24.5 C 0 km/h
805 11-09-2009 16:55:02 24.4 C 5.56 g/m*3 24.4 C 0 km/h
806 11-09-2009 17:07:02 23.2 C 5.61 g/m*3 23.2 C 0 km/h
807 11-09-2009 17:19:01 22.9 C 5.93 g/m*3 22.9 C 0 km/h
808 11-09-2009 17:31:02 22.6 C 5.62 g/m*3 22.6 C 0 km/h
809 11-09-2009 17:43:02 23.1 C 5.79 g/m*3 23.1 C 0 km/h
810 11-09-2009 17:55:02 23.7 C 5.78 g/m*3 23.7 C 0 km/h
811 11-09-2009 18:07:02 23.8 C 5.81 g/m*3 23.8 C 0 km/h
812 11-09-2009 18:19:02 23.5 C 5.5 g/m*3 23.5 C 0 km/h
813 11-09-2009 18:31:02 23.2 C 5.61 g/m*3 23.2 C 0 km/h
814 11-09-2009 18:43:02 22.7 C 5.66 g/m*3 22.7 C 0 km/h
815 11-09-2009 18:55:01 22.3 C 5.53 g/m*3 22.3 C 0 km/h
816 11-09-2009 19:07:02 21.8 C 5.76 g/m*3 21.8 C 0 km/h
817 11-09-2009 19:19:02 20.6 C 5.73 g/m*3 20.6 C 0 km/h
818 11-09-2009 19:31:02 20.1 C 5.91 g/m*3 20.1 C 0 km/h
819 11-09-2009 19:43:02 19.7 C 5.94 g/m*3 19.7 C 0 km/h
820 11-09-2009 19:55:02 19.1 C 6.07 g/m*3 19.1 C 0 km/h
821 11-09-2009 20:07:02 18.5 C 6.17 g/m*3 18.5 C 0 km/h
822 11-09-2009 20:19:02 18 C 6.14 g/m*3 18 C 0 km/h
823 11-09-2009 20:31:01 17.6 C 6.15 g/m*3 17.6 C 0 km/h
824 11-09-2009 20:43:01 17.2 C 6.3 g/m*3 17.2 C 0 km/h
825 11-09-2009 20:55:02 16.7 C 6.4 g/m*3 16.7 C 0 km/h
Sensor: Nr:Datum:Temp:Abs-Feuchte:Windchill:Wind:
Aussen-T/F 826 11-09-2009 21:07:01 16.4 C 6.28 g/m*3 16.4 C 0 km/h
827 11-09-2009 21:19:02 16.2 C 6.34 g/m*3 16.2 C 0 km/h
828 11-09-2009 21:31:02 16 C 6.4 g/m*3 16 C 0 km/h
829 11-09-2009 21:43:02 15.7 C 6.42 g/m*3 15.7 C 0 km/h
830 11-09-2009 21:55:02 15.5 C 6.48 g/m*3 15.5 C 0 km/h
831 11-09-2009 22:07:02 15.3 C 6.53 g/m*3 15.3 C 0 km/h
832 11-09-2009 22:19:02 15 C 6.41 g/m*3 15 C 0 km/h
833 11-09-2009 22:31:02 14.9 C 6.5 g/m*3 14.9 C 0 km/h
834 11-09-2009 22:43:02 14.7 C 6.67 g/m*3 14.7 C 0 km/h
835 11-09-2009 22:56:03 14.7 C 6.67 g/m*3 14.7 C 0 km/h
836 11-09-2009 23:08:03 14.7 C 6.8 g/m*3 14.7 C 0 km/h
837 11-09-2009 23:20:03 14.7 C 6.67 g/m*3 14.7 C 0 km/h
838 11-09-2009 23:32:04 14.7 C 6.8 g/m*3 14.7 C 0 km/h
839 11-09-2009 23:44:04 14.6 C 6.76 g/m*3 14.6 C 0 km/h
840 11-09-2009 23:56:04 14.2 C 6.72 g/m*3 14.2 C 0 km/h
841 12-09-2009 00:08:04 14.1 C 6.67 g/m*3 14.1 C 0 km/h
842 12-09-2009 00:20:04 14.3 C 6.76 g/m*3 14.3 C 0 km/h
843 12-09-2009 00:32:04 14.2 C 6.84 g/m*3 14.2 C 0 km/h
844 12-09-2009 00:44:04 14.2 C 6.84 g/m*3 14.2 C 0 km/h
845 12-09-2009 00:56:04 14.1 C 6.8 g/m*3 14.1 C 0 km/h
846 12-09-2009 01:08:04 14 C 6.88 g/m*3 14 C 0 km/h
847 12-09-2009 01:20:04 13.9 C 6.95 g/m*3 13.9 C 0 km/h
848 12-09-2009 01:32:04 13.8 C 7.03 g/m*3 13.8 C 0 km/h
849 12-09-2009 01:44:04 13.6 C 6.94 g/m*3 13.6 C 0 km/h
850 12-09-2009 01:56:04 13.5 C 7.02 g/m*3 13.5 C 0 km/h
Sensor: Nr:Datum:Temp:Abs-Feuchte:Windchill:Wind:
Aussen-T/F 851 12-09-2009 02:08:04 13.5 C 7.02 g/m*3 13.5 C 0 km/h
852 12-09-2009 02:20:04 13.4 C 6.97 g/m*3 13.4 C 0 km/h
853 12-09-2009 02:32:04 13.4 C 7.09 g/m*3 13.4 C 0 km/h
854 12-09-2009 02:44:04 13.4 C 7.09 g/m*3 13.4 C 0 km/h
855 12-09-2009 02:56:04 13.5 C 7.25 g/m*3 13.5 C 0 km/h
856 12-09-2009 03:08:04 13.4 C 7.21 g/m*3 13.4 C 0 km/h
857 12-09-2009 03:20:04 13.4 C 7.21 g/m*3 13.4 C 0 km/h
858 12-09-2009 03:32:05 13.4 C 7.44 g/m*3 13.4 C 0 km/h
859 12-09-2009 03:44:05 13.4 C 7.44 g/m*3 13.4 C 0 km/h
860 12-09-2009 03:56:05 13.4 C 7.44 g/m*3 13.4 C 0 km/h
861 12-09-2009 04:08:05 13.4 C 7.56 g/m*3 13.4 C 0 km/h
862 12-09-2009 04:20:05 13.4 C 7.56 g/m*3 13.4 C 0 km/h
863 12-09-2009 04:32:05 13.4 C 7.67 g/m*3 13.4 C 0 km/h
864 12-09-2009 04:44:05 13.3 C 7.63 g/m*3 13.3 C 0 km/h
865 12-09-2009 04:56:05 13.3 C 7.63 g/m*3 13.3 C 0 km/h
866 12-09-2009 05:08:05 13.2 C 7.69 g/m*3 13.2 C 0 km/h
867 12-09-2009 05:20:05 13.1 C 7.65 g/m*3 13.1 C 0 km/h
868 12-09-2009 05:32:05 13 C 7.71 g/m*3 13 C 0 km/h
869 12-09-2009 05:44:05 13.1 C 7.76 g/m*3 13.1 C 0 km/h
870 12-09-2009 05:56:05 13.1 C 7.76 g/m*3 13.1 C 0 km/h
871 12-09-2009 06:08:05 12.9 C 7.89 g/m*3 12.9 C 0 km/h
872 12-09-2009 06:20:05 12.7 C 7.9 g/m*3 12.7 C 0 km/h
873 12-09-2009 06:32:05 12.5 C 8.03 g/m*3 12.5 C 0 km/h
874 12-09-2009 06:44:05 12.4 C 7.98 g/m*3 12.4 C 0 km/h
875 12-09-2009 06:56:05 12.4 C 8.09 g/m*3 12.4 C 0 km/h
Sensor: Nr:Datum:Temp:Abs-Feuchte:Windchill:Wind:
Aussen-T/F 876 12-09-2009 07:08:05 12.3 C 8.04 g/m*3 12.3 C 0 km/h
877 12-09-2009 07:20:06 12.2 C 8.09 g/m*3 12.2 C 0 km/h
878 12-09-2009 07:32:06 12.2 C 8.2 g/m*3 12.2 C 0 km/h
879 12-09-2009 07:44:06 12.2 C 8.31 g/m*3 12.2 C 0 km/h
880 12-09-2009 07:56:02 12.2 C 8.31 g/m*3 12.2 C 0 km/h
881 12-09-2009 08:08:02 12.2 C 8.31 g/m*3 12.2 C 0 km/h
882 12-09-2009 08:20:02 12.2 C 8.31 g/m*3 12.2 C 0 km/h
883 12-09-2009 08:32:01 12.2 C 8.31 g/m*3 12.2 C 0 km/h
884 12-09-2009 08:44:01 12.2 C 8.31 g/m*3 12.2 C 0 km/h
885 12-09-2009 08:56:02 12.4 C 8.41 g/m*3 12.4 C 0 km/h
886 12-09-2009 09:08:01 12.8 C 8.51 g/m*3 12.8 C 0 km/h
887 12-09-2009 09:20:02 13 C 8.39 g/m*3 13 C 0 km/h
888 12-09-2009 09:32:02 13.3 C 8.55 g/m*3 13.3 C 0 km/h
889 12-09-2009 09:44:02 14.5 C 8.33 g/m*3 14.5 C 0 km/h
890 12-09-2009 09:56:02 15.4 C 8.15 g/m*3 15.4 C 0 km/h
891 12-09-2009 10:08:03 15.8 C 7.94 g/m*3 15.8 C 0 km/h
892 12-09-2009 10:20:02 15.9 C 7.85 g/m*3 15.9 C 0 km/h
893 12-09-2009 10:32:02 16 C 7.77 g/m*3 16 C 0 km/h
894 12-09-2009 10:44:02 16 C 7.77 g/m*3 16 C 0 km/h
895 12-09-2009 10:56:01 16.8 C 7.86 g/m*3 16.8 C 0 km/h
896 12-09-2009 11:08:02 17.3 C 7.51 g/m*3 17.3 C 0 km/h
897 12-09-2009 11:20:01 17.1 C 7.28 g/m*3 17.1 C 0 km/h
898 12-09-2009 11:32:02 17.5 C 7.45 g/m*3 17.5 C 0 km/h
899 12-09-2009 11:44:02 17.9 C 7.33 g/m*3 17.9 C 0 km/h
900 12-09-2009 11:56:01 18.6 C 7.32 g/m*3 18.6 C 0 km/h
Sensor: Nr:Datum:Temp:Abs-Feuchte:Windchill:Wind:
Aussen-T/F 901 12-09-2009 12:08:02 19.2 C 7.09 g/m*3 19.2 C 0 km/h
902 12-09-2009 12:20:01 18.6 C 7 g/m*3 18.6 C 0 km/h
903 12-09-2009 12:32:02 19 C 7.01 g/m*3 19 C 0 km/h
904 12-09-2009 12:44:02 19.4 C 7.01 g/m*3 19.4 C 0 km/h
905 12-09-2009 12:56:01 19.7 C 7.3 g/m*3 19.7 C 0 km/h
906 12-09-2009 13:08:02 19.7 C 6.79 g/m*3 19.7 C 0 km/h
907 12-09-2009 13:20:02 19.6 C 6.58 g/m*3 19.6 C 0 km/h
908 12-09-2009 13:32:02 20.3 C 6.68 g/m*3 20.3 C 0 km/h
909 12-09-2009 13:44:02 20.9 C 6.56 g/m*3 20.9 C 0 km/h
910 12-09-2009 13:56:01 21.5 C 6.6 g/m*3 21.5 C 0 km/h
911 12-09-2009 14:08:02 21 C 6.05 g/m*3 21 C 0 km/h
912 12-09-2009 14:20:02 20.8 C 6.34 g/m*3 20.8 C 0 km/h
913 12-09-2009 14:32:01 20.6 C 6.44 g/m*3 20.6 C 0 km/h
914 12-09-2009 14:44:01 21.7 C 6.1 g/m*3 21.7 C 0 km/h
915 12-09-2009 14:56:02 22 C 6.02 g/m*3 22 C 0 km/h
916 12-09-2009 15:08:02 22.3 C 5.92 g/m*3 22.3 C 0 km/h
917 12-09-2009 15:20:02 23.3 C 5.85 g/m*3 23.3 C 0 km/h
918 12-09-2009 15:32:02 21.8 C 5.95 g/m*3 21.8 C 0 km/h
919 12-09-2009 15:44:02 23.5 C 5.71 g/m*3 23.5 C 0 km/h
920 12-09-2009 15:56:02 23.2 C 5.61 g/m*3 23.2 C 0 km/h
921 12-09-2009 16:08:02 21.6 C 5.88 g/m*3 21.6 C 0 km/h
922 12-09-2009 16:20:02 22 C 5.43 g/m*3 22 C 0 km/h
923 12-09-2009 16:32:01 24.3 C 5.75 g/m*3 24.3 C 0 km/h
924 12-09-2009 16:44:01 23.4 C 5.47 g/m*3 23.4 C 0 km/h
925 12-09-2009 16:56:02 24.8 C 5.46 g/m*3 24.8 C 0 km/h
Sensor: Nr:Datum:Temp:Abs-Feuchte:Windchill:Wind:
Aussen-T/F 926 12-09-2009 17:08:01 23.4 C 5.26 g/m*3 23.4 C 0 km/h
927 12-09-2009 17:20:02 24.1 C 5.03 g/m*3 24.1 C 0 km/h
928 12-09-2009 17:32:01 24.5 C 5.15 g/m*3 24.5 C 0 km/h
929 12-09-2009 17:44:01 24.7 C 4.75 g/m*3 24.7 C 0 km/h
930 12-09-2009 17:56:02 25.2 C 4.89 g/m*3 25.2 C 0 km/h
931 12-09-2009 18:08:02 24.9 C 5.04 g/m*3 24.9 C 0 km/h
932 12-09-2009 18:20:02 24.4 C 4.67 g/m*3 24.4 C 0 km/h
933 12-09-2009 18:32:03 23.4 C 5.26 g/m*3 23.4 C 0 km/h
934 12-09-2009 18:44:03 22 C 5.43 g/m*3 22 C 0 km/h
935 12-09-2009 18:56:02 20.8 C 5.98 g/m*3 20.8 C 0 km/h
936 12-09-2009 19:08:02 20.4 C 6.19 g/m*3 20.4 C 0 km/h
937 12-09-2009 19:20:02 20 C 6.05 g/m*3 20 C 0 km/h
938 12-09-2009 19:32:02 20 C 6.05 g/m*3 20 C 0 km/h
939 12-09-2009 19:44:02 19.5 C 6.04 g/m*3 19.5 C 0 km/h
940 12-09-2009 19:56:02 19.3 C 5.97 g/m*3 19.3 C 0 km/h
941 12-09-2009 20:08:02 18.9 C 5.99 g/m*3 18.9 C 0 km/h
942 12-09-2009 20:20:02 18.7 C 6.08 g/m*3 18.7 C 0 km/h
943 12-09-2009 20:32:02 18.3 C 6.25 g/m*3 18.3 C 0 km/h
944 12-09-2009 20:44:02 18 C 6.3 g/m*3 18 C 0 km/h
945 12-09-2009 20:56:01 17.7 C 6.49 g/m*3 17.7 C 0 km/h
946 12-09-2009 21:08:01 17.5 C 6.41 g/m*3 17.5 C 0 km/h
947 12-09-2009 21:20:01 17.4 C 6.67 g/m*3 17.4 C 0 km/h
948 12-09-2009 21:32:02 17.1 C 6.55 g/m*3 17.1 C 0 km/h
949 12-09-2009 21:44:02 17 C 6.51 g/m*3 17 C 0 km/h
950 12-09-2009 21:56:02 16.8 C 6.72 g/m*3 16.8 C 0 km/h
Sensor: Nr:Datum:Temp:Abs-Feuchte:Windchill:Wind:
Aussen-T/F 951 12-09-2009 22:08:02 16.7 C 6.68 g/m*3 16.7 C 0 km/h
952 12-09-2009 22:20:01 16.7 C 6.68 g/m*3 16.7 C 0 km/h
953 12-09-2009 22:32:02 16.6 C 6.78 g/m*3 16.6 C 0 km/h
954 12-09-2009 22:44:02 16.5 C 6.88 g/m*3 16.5 C 0 km/h
955 12-09-2009 22:56:01 16.4 C 6.84 g/m*3 16.4 C 0 km/h
956 12-09-2009 23:08:02 16.2 C 6.9 g/m*3 16.2 C 0 km/h
957 12-09-2009 23:20:02 16 C 6.95 g/m*3 16 C 0 km/h
958 12-09-2009 23:32:02 15.8 C 7 g/m*3 15.8 C 0 km/h
959 12-09-2009 23:44:02 15.5 C 7.14 g/m*3 15.5 C 0 km/h
960 12-09-2009 23:56:02 15 C 7.05 g/m*3 15 C 0 km/h
961 13-09-2009 00:09:03 14.7 C 7.18 g/m*3 14.7 C 0 km/h
962 13-09-2009 00:21:03 14.6 C 7.51 g/m*3 14.6 C 0 km/h
963 13-09-2009 00:33:03 14.3 C 7.49 g/m*3 14.3 C 0 km/h
964 13-09-2009 00:45:03 14.2 C 7.57 g/m*3 14.2 C 0 km/h
965 13-09-2009 00:57:03 14 C 7.48 g/m*3 14 C 0 km/h
966 13-09-2009 01:09:03 13.7 C 7.58 g/m*3 13.7 C 0 km/h
967 13-09-2009 01:21:04 13.7 C 7.7 g/m*3 13.7 C 0 km/h
968 13-09-2009 01:33:04 13.4 C 7.79 g/m*3 13.4 C 0 km/h
969 13-09-2009 01:45:04 13.2 C 7.81 g/m*3 13.2 C 0 km/h
970 13-09-2009 01:57:04 13.1 C 7.87 g/m*3 13.1 C 0 km/h
971 13-09-2009 02:09:04 13.1 C 7.99 g/m*3 13.1 C 0 km/h
972 13-09-2009 02:21:04 13.1 C 7.99 g/m*3 13.1 C 0 km/h
973 13-09-2009 02:33:04 13.1 C 7.99 g/m*3 13.1 C 0 km/h
974 13-09-2009 02:45:04 13.1 C 7.99 g/m*3 13.1 C 0 km/h
975 13-09-2009 02:57:04 12.8 C 8.06 g/m*3 12.8 C 0 km/h
Sensor: Nr:Datum:Temp:Abs-Feuchte:Windchill:Wind:
Aussen-T/F 976 13-09-2009 03:09:04 12.6 C 8.08 g/m*3 12.6 C 0 km/h
977 13-09-2009 03:21:04 12.4 C 8.09 g/m*3 12.4 C 0 km/h
978 13-09-2009 03:33:04 12.3 C 8.04 g/m*3 12.3 C 0 km/h
979 13-09-2009 03:45:04 12.4 C 8.19 g/m*3 12.4 C 0 km/h
980 13-09-2009 03:57:04 12.7 C 8.35 g/m*3 12.7 C 0 km/h
981 13-09-2009 04:09:04 12.8 C 8.4 g/m*3 12.8 C 0 km/h
982 13-09-2009 04:21:04 13 C 8.39 g/m*3 13 C 0 km/h
983 13-09-2009 04:33:04 12.7 C 8.35 g/m*3 12.7 C 0 km/h
984 13-09-2009 04:45:04 13 C 8.73 g/m*3 13 C 0 km/h
985 13-09-2009 04:57:04 13.1 C 8.67 g/m*3 13.1 C 0 km/h
986 13-09-2009 05:09:05 13.2 C 8.73 g/m*3 13.2 C 0 km/h
987 13-09-2009 05:21:05 13.4 C 8.83 g/m*3 13.4 C 0 km/h
988 13-09-2009 05:33:05 13.4 C 8.72 g/m*3 13.4 C 0 km/h
989 13-09-2009 05:45:05 13.5 C 8.77 g/m*3 13.5 C 0 km/h
990 13-09-2009 05:57:05 13.5 C 8.77 g/m*3 13.5 C 0 km/h
991 13-09-2009 06:09:05 13.6 C 8.83 g/m*3 13.6 C 0 km/h
992 13-09-2009 06:21:05 13.7 C 8.88 g/m*3 13.7 C 0 km/h
993 13-09-2009 06:33:05 13.7 C 8.88 g/m*3 13.7 C 0 km/h
994 13-09-2009 06:45:05 13.7 C 8.88 g/m*3 13.7 C 0 km/h
995 13-09-2009 06:57:05 13.7 C 8.76 g/m*3 13.7 C 0 km/h
996 13-09-2009 07:09:05 13.6 C 8.71 g/m*3 13.6 C 0 km/h
997 13-09-2009 07:21:05 13.1 C 8.56 g/m*3 13.1 C 0 km/h
998 13-09-2009 07:33:05 12.8 C 8.62 g/m*3 12.8 C 0 km/h
999 13-09-2009 07:45:01 12.7 C 8.57 g/m*3 12.7 C 0 km/h
1000 13-09-2009 07:57:01 12.7 C 8.57 g/m*3 12.7 C 0 km/h
Sensor: Nr:Datum:Temp:Abs-Feuchte:Windchill:Wind:
Aussen-T/F 1001 13-09-2009 08:09:02 13 C 8.51 g/m*3 13 C 0 km/h
1002 13-09-2009 08:21:01 13.2 C 8.5 g/m*3 13.2 C 0 km/h
1003 13-09-2009 08:33:01 13.1 C 8.33 g/m*3 13.1 C 0 km/h
1004 13-09-2009 08:45:01 12.9 C 8.45 g/m*3 12.9 C 0 km/h
1005 13-09-2009 08:57:01 13.1 C 8.56 g/m*3 13.1 C 0 km/h
1006 13-09-2009 09:09:02 13.9 C 8.51 g/m*3 13.9 C 0 km/h
1007 13-09-2009 09:21:01 14.2 C 8.18 g/m*3 14.2 C 0 km/h
1008 13-09-2009 09:33:01 14.4 C 8.03 g/m*3 14.4 C 0 km/h
1009 13-09-2009 09:45:01 14.3 C 7.99 g/m*3 14.3 C 0 km/h
1010 13-09-2009 09:57:01 14.5 C 8.08 g/m*3 14.5 C 0 km/h
1011 13-09-2009 10:09:02 14.7 C 8.18 g/m*3 14.7 C 0 km/h
1012 13-09-2009 10:21:02 15 C 7.95 g/m*3 15 C 0 km/h
1013 13-09-2009 10:33:01 14.7 C 7.68 g/m*3 14.7 C 0 km/h
1014 13-09-2009 10:45:02 15 C 7.82 g/m*3 15 C 0 km/h
1015 13-09-2009 10:57:02 15.2 C 7.79 g/m*3 15.2 C 0 km/h
1016 13-09-2009 11:09:01 15 C 7.82 g/m*3 15 C 0 km/h
1017 13-09-2009 11:21:02 14.4 C 8.16 g/m*3 14.4 C 0 km/h
1018 13-09-2009 11:33:01 13.8 C 8.58 g/m*3 13.8 C 0 km/h
1019 13-09-2009 11:45:02 13.7 C 9.12 g/m*3 13.7 C 0 km/h
1020 13-09-2009 11:57:02 13.6 C 9.06 g/m*3 13.6 C 0 km/h
1021 13-09-2009 12:09:02 14.3 C 9.09 g/m*3 14.3 C 0 km/h
1022 13-09-2009 12:21:02 15.2 C 8.7 g/m*3 15.2 C 0 km/h
1023 13-09-2009 12:33:02 15.6 C 8.64 g/m*3 15.6 C 0 km/h
1024 13-09-2009 12:45:02 15.5 C 8.46 g/m*3 15.5 C 0 km/h
1025 13-09-2009 12:57:02 15.8 C 8.48 g/m*3 15.8 C 0 km/h
Sensor: Nr:Datum:Temp:Abs-Feuchte:Windchill:Wind:
Aussen-T/F 1026 13-09-2009 13:09:01 15 C 8.21 g/m*3 15 C 0 km/h
1027 13-09-2009 13:21:02 14.7 C 9.07 g/m*3 14.7 C 0 km/h
1028 13-09-2009 13:33:02 15 C 8.85 g/m*3 15 C 0 km/h
1029 13-09-2009 13:45:02 15.7 C 8.7 g/m*3 15.7 C 0 km/h
1030 13-09-2009 13:57:02 16.2 C 8.27 g/m*3 16.2 C 0 km/h
1031 13-09-2009 14:09:03 16.8 C 8.44 g/m*3 16.8 C 0 km/h
1032 13-09-2009 14:21:02 17.3 C 7.96 g/m*3 17.3 C 0 km/h
1033 13-09-2009 14:33:02 17.4 C 7.56 g/m*3 17.4 C 0 km/h
1034 13-09-2009 14:45:01 17.6 C 7.5 g/m*3 17.6 C 0 km/h
1035 13-09-2009 14:57:01 17.4 C 7.26 g/m*3 17.4 C 0 km/h
1036 13-09-2009 15:09:02 17.7 C 7.24 g/m*3 17.7 C 0 km/h
1037 13-09-2009 15:21:01 17 C 7.23 g/m*3 17 C 0 km/h
1038 13-09-2009 15:33:02 16.3 C 7.49 g/m*3 16.3 C 0 km/h
1039 13-09-2009 15:45:02 15.5 C 8.06 g/m*3 15.5 C 0 km/h
1040 13-09-2009 15:57:02 15.7 C 8.03 g/m*3 15.7 C 0 km/h
1041 13-09-2009 16:09:02 16.4 C 7.68 g/m*3 16.4 C 0 km/h
1042 13-09-2009 16:21:01 16.9 C 7.48 g/m*3 16.9 C 0 km/h
1043 13-09-2009 16:33:02 17 C 7.52 g/m*3 17 C 0 km/h
1044 13-09-2009 16:45:02 16.8 C 7.29 g/m*3 16.8 C 0 km/h
1045 13-09-2009 16:57:02 17.2 C 7.32 g/m*3 17.2 C 0 km/h
1046 13-09-2009 17:09:02 18.2 C 7.31 g/m*3 18.2 C 0 km/h
1047 13-09-2009 17:21:01 17.8 C 7.13 g/m*3 17.8 C 0 km/h
1048 13-09-2009 17:33:02 17.4 C 7.26 g/m*3 17.4 C 0 km/h
1049 13-09-2009 17:45:01 17.3 C 7.22 g/m*3 17.3 C 0 km/h
1050 13-09-2009 17:57:01 16.7 C 7.25 g/m*3 16.7 C 0 km/h
Sensor: Nr:Datum:Temp:Abs-Feuchte:Windchill:Wind:
Aussen-T/F 1051 13-09-2009 18:09:02 16.4 C 7.54 g/m*3 16.4 C 0 km/h
1052 13-09-2009 18:21:02 16.4 C 7.4 g/m*3 16.4 C 0 km/h
1053 13-09-2009 18:33:01 16.2 C 7.58 g/m*3 16.2 C 0 km/h
1054 13-09-2009 18:45:02 14.7 C 8.44 g/m*3 14.7 C 0 km/h
1055 13-09-2009 18:57:02 14.2 C 8.91 g/m*3 14.2 C 0 km/h
1056 13-09-2009 19:09:02 13.9 C 9.47 g/m*3 13.9 C 0 km/h
1057 13-09-2009 19:21:02 13.6 C 9.77 g/m*3 13.6 C 0 km/h
1058 13-09-2009 19:33:01 13.5 C 9.94 g/m*3 13.5 C 0 km/h
1059 13-09-2009 19:45:02 13.4 C 10 g/m*3 13.4 C 0 km/h
1060 13-09-2009 19:57:02 13.1 C 9.93 g/m*3 13.1 C 0 km/h
1061 13-09-2009 20:09:01 13 C 9.87 g/m*3 13 C 0 km/h
1062 13-09-2009 20:21:02 13.1 C 10.04 g/m*3 13.1 C 0 km/h
1063 13-09-2009 20:33:01 13 C 10.09 g/m*3 13 C 0 km/h
1064 13-09-2009 20:45:03 12.9 C 10.03 g/m*3 12.9 C 0 km/h
1065 13-09-2009 20:57:03 12.8 C 9.97 g/m*3 12.8 C 0 km/h
1066 13-09-2009 21:09:02 12.5 C 9.78 g/m*3 12.5 C 0 km/h
1067 13-09-2009 21:21:03 12.6 C 9.96 g/m*3 12.6 C 0 km/h
1068 13-09-2009 21:33:03 12.8 C 10.08 g/m*3 12.8 C 0 km/h
1069 13-09-2009 21:45:02 12.9 C 10.26 g/m*3 12.9 C 0 km/h
1070 13-09-2009 21:57:02 13.1 C 10.27 g/m*3 13.1 C 0 km/h
1071 13-09-2009 22:09:02 13.2 C 10.33 g/m*3 13.2 C 0 km/h
1072 13-09-2009 22:21:02 13.3 C 10.4 g/m*3 13.3 C 0 km/h
1073 13-09-2009 22:33:03 13.3 C 10.28 g/m*3 13.3 C 0 km/h
1074 13-09-2009 22:45:02 13.3 C 10.28 g/m*3 13.3 C 0 km/h
1075 13-09-2009 22:57:02 13.3 C 10.28 g/m*3 13.3 C 0 km/h
Sensor: Nr:Datum:Temp:Abs-Feuchte:Windchill:Wind:
Aussen-T/F 1076 13-09-2009 23:09:02 12.6 C 9.96 g/m*3 12.6 C 0 km/h
1077 13-09-2009 23:21:02 12.2 C 9.71 g/m*3 12.2 C 0 km/h
1078 13-09-2009 23:34:03 11.8 C 9.58 g/m*3 11.8 C 0 km/h
1079 13-09-2009 23:46:03 11.9 C 9.74 g/m*3 11.9 C 0 km/h
1080 13-09-2009 23:58:03 12.1 C 9.87 g/m*3 12.1 C 0 km/h
1081 14-09-2009 00:10:03 12.1 C 9.87 g/m*3 12.1 C 0 km/h
1082 14-09-2009 00:22:03 12.2 C 10.04 g/m*3 12.2 C 0 km/h
1083 14-09-2009 00:34:03 12 C 9.91 g/m*3 12 C 0 km/h
1084 14-09-2009 00:46:03 11.9 C 9.85 g/m*3 11.9 C 0 km/h
1085 14-09-2009 00:58:03 11.5 C 9.61 g/m*3 11.5 C 0 km/h
1086 14-09-2009 01:10:03 11.3 C 9.49 g/m*3 11.3 C 0 km/h
1087 14-09-2009 01:22:03 11.3 C 9.59 g/m*3 11.3 C 0 km/h
1088 14-09-2009 01:34:03 11.2 C 9.53 g/m*3 11.2 C 0 km/h
1089 14-09-2009 01:46:03 11.3 C 9.59 g/m*3 11.3 C 0 km/h
1090 14-09-2009 01:58:03 11.3 C 9.59 g/m*3 11.3 C 0 km/h
1091 14-09-2009 02:10:03 11.2 C 9.53 g/m*3 11.2 C 0 km/h
1092 14-09-2009 02:22:03 11.2 C 9.63 g/m*3 11.2 C 0 km/h
1093 14-09-2009 02:34:03 11 C 9.51 g/m*3 11 C 0 km/h
1094 14-09-2009 02:46:03 10.9 C 9.45 g/m*3 10.9 C 0 km/h
1095 14-09-2009 02:58:03 10.8 C 9.39 g/m*3 10.8 C 0 km/h
1096 14-09-2009 03:10:03 10.7 C 9.33 g/m*3 10.7 C 0 km/h
1097 14-09-2009 03:22:04 10.7 C 9.33 g/m*3 10.7 C 0 km/h
1098 14-09-2009 03:34:04 10.8 C 9.39 g/m*3 10.8 C 0 km/h
1099 14-09-2009 03:46:04 10.7 C 9.33 g/m*3 10.7 C 0 km/h
1100 14-09-2009 03:58:04 10.8 C 9.39 g/m*3 10.8 C 0 km/h
Sensor: Nr:Datum:Temp:Abs-Feuchte:Windchill:Wind:
Aussen-T/F 1101 14-09-2009 04:10:04 11 C 9.51 g/m*3 11 C 0 km/h
1102 14-09-2009 04:22:04 11.1 C 9.57 g/m*3 11.1 C 0 km/h
1103 14-09-2009 04:34:04 11.1 C 9.57 g/m*3 11.1 C 0 km/h
1104 14-09-2009 04:46:04 11.1 C 9.57 g/m*3 11.1 C 0 km/h
1105 14-09-2009 04:58:04 10.9 C 9.45 g/m*3 10.9 C 0 km/h
1106 14-09-2009 05:10:04 10.7 C 9.33 g/m*3 10.7 C 0 km/h
1107 14-09-2009 05:22:04 10.7 C 9.33 g/m*3 10.7 C 0 km/h
1108 14-09-2009 05:34:04 10.9 C 9.45 g/m*3 10.9 C 0 km/h
1109 14-09-2009 05:46:04 10.9 C 9.45 g/m*3 10.9 C 0 km/h
1110 14-09-2009 05:58:04 10.9 C 9.45 g/m*3 10.9 C 0 km/h
1111 14-09-2009 06:10:04 10.9 C 9.45 g/m*3 10.9 C 0 km/h
1112 14-09-2009 06:22:04 10.9 C 9.45 g/m*3 10.9 C 0 km/h
1113 14-09-2009 06:34:04 10.9 C 9.45 g/m*3 10.9 C 0 km/h
1114 14-09-2009 06:46:04 11 C 9.51 g/m*3 11 C 0 km/h
1115 14-09-2009 06:58:04 11 C 9.51 g/m*3 11 C 0 km/h
1116 14-09-2009 07:10:05 11 C 9.51 g/m*3 11 C 0 km/h
1117 14-09-2009 07:22:05 11 C 9.51 g/m*3 11 C 0 km/h
1118 14-09-2009 07:34:03 11.1 C 9.57 g/m*3 11.1 C 0 km/h
1119 14-09-2009 07:46:02 11.1 C 9.57 g/m*3 11.1 C 0 km/h
1120 14-09-2009 07:58:03 11.1 C 9.57 g/m*3 11.1 C 0 km/h
1121 14-09-2009 08:10:01 11.3 C 9.69 g/m*3 11.3 C 0 km/h
1122 14-09-2009 08:22:02 11.5 C 9.81 g/m*3 11.5 C 0 km/h
1123 14-09-2009 08:34:02 11.7 C 9.94 g/m*3 11.7 C 0 km/h
1124 14-09-2009 08:46:02 11.8 C 10 g/m*3 11.8 C 0 km/h
1125 14-09-2009 08:58:02 12.2 C 10.25 g/m*3 12.2 C 0 km/h
Sensor: Nr:Datum:Temp:Abs-Feuchte:Windchill:Wind:
Aussen-T/F 1126 14-09-2009 09:10:02 12.2 C 10.25 g/m*3 12.2 C 0 km/h
1127 14-09-2009 09:22:02 12.3 C 10.32 g/m*3 12.3 C 0 km/h
1128 14-09-2009 09:34:02 12.4 C 10.38 g/m*3 12.4 C 0 km/h
1129 14-09-2009 09:46:01 12.4 C 10.38 g/m*3 12.4 C 0 km/h
1130 14-09-2009 09:58:01 12.3 C 10.32 g/m*3 12.3 C 0 km/h
1131 14-09-2009 10:10:02 12.3 C 10.21 g/m*3 12.3 C 0 km/h
1132 14-09-2009 10:22:01 12.1 C 10.08 g/m*3 12.1 C 0 km/h
1133 14-09-2009 10:34:01 12.1 C 9.97 g/m*3 12.1 C 0 km/h
1134 14-09-2009 10:46:01 12.2 C 10.04 g/m*3 12.2 C 0 km/h
1135 14-09-2009 10:58:01 12.3 C 10.1 g/m*3 12.3 C 0 km/h
1136 14-09-2009 11:10:01 12.4 C 10.16 g/m*3 12.4 C 0 km/h
1137 14-09-2009 11:22:01 12.6 C 10.29 g/m*3 12.6 C 0 km/h
1138 14-09-2009 11:34:01 12.6 C 10.29 g/m*3 12.6 C 0 km/h
1139 14-09-2009 11:46:01 12.5 C 10.22 g/m*3 12.5 C 0 km/h
1140 14-09-2009 11:58:01 12.4 C 10.27 g/m*3 12.4 C 0 km/h
1141 14-09-2009 12:10:01 12.5 C 10.33 g/m*3 12.5 C 0 km/h
1142 14-09-2009 12:22:02 13.5 C 10.99 g/m*3 13.5 C 0 km/h
1143 14-09-2009 12:34:01 13.9 C 11.27 g/m*3 13.9 C 0 km/h
1144 14-09-2009 12:46:03 14.3 C 11.43 g/m*3 14.3 C 0 km/h
1145 14-09-2009 12:58:03 14.4 C 11.37 g/m*3 14.4 C 0 km/h
1146 14-09-2009 13:10:02 13.9 C 10.91 g/m*3 13.9 C 0 km/h
1147 14-09-2009 13:22:02 13.8 C 10.84 g/m*3 13.8 C 0 km/h
1148 14-09-2009 13:34:02 13.3 C 10.51 g/m*3 13.3 C 0 km/h
1149 14-09-2009 13:46:02 13.4 C 10.69 g/m*3 13.4 C 0 km/h
1150 14-09-2009 13:58:02 13.2 C 10.56 g/m*3 13.2 C 0 km/h
Sensor: Nr:Datum:Temp:Abs-Feuchte:Windchill:Wind:
Aussen-T/F 1151 14-09-2009 14:10:02 13 C 10.55 g/m*3 13 C 0 km/h
1152 14-09-2009 14:22:02 13.1 C 10.61 g/m*3 13.1 C 0 km/h
1153 14-09-2009 14:34:01 13.4 C 10.93 g/m*3 13.4 C 0 km/h
1154 14-09-2009 14:46:02 13.4 C 10.93 g/m*3 13.4 C 0 km/h
1155 14-09-2009 14:58:02 13.8 C 11.2 g/m*3 13.8 C 0 km/h
1156 14-09-2009 15:10:01 13.9 C 11.27 g/m*3 13.9 C 0 km/h
1157 14-09-2009 15:22:01 14.5 C 11.57 g/m*3 14.5 C 0 km/h
1158 14-09-2009 15:34:02 14.4 C 11.5 g/m*3 14.4 C 0 km/h
1159 14-09-2009 15:46:02 15.2 C 11.94 g/m*3 15.2 C 0 km/h
1160 14-09-2009 15:58:02 15.5 C 12.16 g/m*3 15.5 C 0 km/h
1161 14-09-2009 16:10:02 15 C 11.54 g/m*3 15 C 0 km/h
1162 14-09-2009 16:22:02 14.7 C 11.46 g/m*3 14.7 C 0 km/h
1163 14-09-2009 16:34:02 13.8 C 10.72 g/m*3 13.8 C 0 km/h
1164 14-09-2009 16:46:01 13.4 C 10.46 g/m*3 13.4 C 0 km/h
1165 14-09-2009 16:58:01 13.6 C 10.59 g/m*3 13.6 C 0 km/h
1166 14-09-2009 17:10:02 13.7 C 10.66 g/m*3 13.7 C 0 km/h
1167 14-09-2009 17:22:01 13.5 C 10.41 g/m*3 13.5 C 0 km/h
1168 14-09-2009 17:34:02 13.6 C 10.59 g/m*3 13.6 C 0 km/h
1169 14-09-2009 17:46:02 13.7 C 10.66 g/m*3 13.7 C 0 km/h
1170 14-09-2009 17:58:03 13.8 C 10.84 g/m*3 13.8 C 0 km/h
1171 14-09-2009 18:10:02 13.6 C 10.71 g/m*3 13.6 C 0 km/h
1172 14-09-2009 18:22:02 13.2 C 10.45 g/m*3 13.2 C 0 km/h
1173 14-09-2009 18:34:02 13 C 10.32 g/m*3 13 C 0 km/h
1174 14-09-2009 18:46:02 12.6 C 10.18 g/m*3 12.6 C 0 km/h
1175 14-09-2009 18:58:02 12.2 C 9.93 g/m*3 12.2 C 0 km/h
Sensor: Nr:Datum:Temp:Abs-Feuchte:Windchill:Wind:
Aussen-T/F 1176 14-09-2009 19:10:01 12.1 C 9.87 g/m*3 12.1 C 0 km/h
1177 14-09-2009 19:22:02 12 C 9.91 g/m*3 12 C 0 km/h
1178 14-09-2009 19:34:01 11.9 C 9.96 g/m*3 11.9 C 0 km/h
1179 14-09-2009 19:46:01 11.8 C 9.89 g/m*3 11.8 C 0 km/h
1180 14-09-2009 19:58:01 11.7 C 9.94 g/m*3 11.7 C 0 km/h
1181 14-09-2009 20:10:02 11.7 C 9.94 g/m*3 11.7 C 0 km/h
1182 14-09-2009 20:22:02 11.8 C 10 g/m*3 11.8 C 0 km/h
1183 14-09-2009 20:34:02 11.8 C 10 g/m*3 11.8 C 0 km/h
1184 14-09-2009 20:46:02 11.6 C 9.87 g/m*3 11.6 C 0 km/h
1185 14-09-2009 20:58:02 11.7 C 9.94 g/m*3 11.7 C 0 km/h
1186 14-09-2009 21:10:02 11.8 C 10 g/m*3 11.8 C 0 km/h
1187 14-09-2009 21:22:02 11.9 C 10.06 g/m*3 11.9 C 0 km/h
1188 14-09-2009 21:34:02 11.9 C 10.06 g/m*3 11.9 C 0 km/h
1189 14-09-2009 21:46:02 11.9 C 10.06 g/m*3 11.9 C 0 km/h
1190 14-09-2009 21:58:02 11.9 C 10.06 g/m*3 11.9 C 0 km/h
1191 14-09-2009 22:10:02 11.8 C 10 g/m*3 11.8 C 0 km/h
1192 14-09-2009 22:22:03 11.7 C 9.94 g/m*3 11.7 C 0 km/h
1193 14-09-2009 22:34:02 11.7 C 9.94 g/m*3 11.7 C 0 km/h
1194 14-09-2009 22:46:02 11.7 C 9.94 g/m*3 11.7 C 0 km/h
1195 14-09-2009 22:58:02 11.6 C 9.87 g/m*3 11.6 C 0 km/h
1196 14-09-2009 23:11:03 11.5 C 9.81 g/m*3 11.5 C 0 km/h
1197 14-09-2009 23:23:03 11.4 C 9.75 g/m*3 11.4 C 0 km/h
1198 14-09-2009 23:35:03 11.4 C 9.75 g/m*3 11.4 C 0 km/h
1199 14-09-2009 23:47:03 11.5 C 9.81 g/m*3 11.5 C 0 km/h
1200 14-09-2009 23:59:03 11.5 C 9.81 g/m*3 11.5 C 0 km/h
Sensor: Nr:Datum:Temp:Abs-Feuchte:Windchill:Wind:
Aussen-T/F 1201 15-09-2009 00:11:03 11.6 C 9.87 g/m*3 11.6 C 0 km/h
1202 15-09-2009 00:23:03 11.4 C 9.75 g/m*3 11.4 C 0 km/h
1203 15-09-2009 00:35:03 11.4 C 9.75 g/m*3 11.4 C 0 km/h
1204 15-09-2009 00:47:03 11.3 C 9.69 g/m*3 11.3 C 0 km/h
1205 15-09-2009 00:59:03 11.3 C 9.69 g/m*3 11.3 C 0 km/h
1206 15-09-2009 01:11:03 11.2 C 9.63 g/m*3 11.2 C 0 km/h
1207 15-09-2009 01:23:04 11.1 C 9.57 g/m*3 11.1 C 0 km/h
1208 15-09-2009 01:35:04 11.1 C 9.57 g/m*3 11.1 C 0 km/h
1209 15-09-2009 01:47:04 11.1 C 9.57 g/m*3 11.1 C 0 km/h
1210 15-09-2009 01:59:04 11.1 C 9.57 g/m*3 11.1 C 0 km/h
1211 15-09-2009 02:11:04 11.1 C 9.57 g/m*3 11.1 C 0 km/h
1212 15-09-2009 02:23:04 11.2 C 9.63 g/m*3 11.2 C 0 km/h
1213 15-09-2009 02:35:04 11.2 C 9.63 g/m*3 11.2 C 0 km/h
1214 15-09-2009 02:47:04 11.2 C 9.63 g/m*3 11.2 C 0 km/h
1215 15-09-2009 02:59:04 11.1 C 9.57 g/m*3 11.1 C 0 km/h
1216 15-09-2009 03:11:04 11.2 C 9.63 g/m*3 11.2 C 0 km/h
1217 15-09-2009 03:23:04 11.1 C 9.57 g/m*3 11.1 C 0 km/h
1218 15-09-2009 03:35:04 11.1 C 9.57 g/m*3 11.1 C 0 km/h
1219 15-09-2009 03:47:04 11.1 C 9.57 g/m*3 11.1 C 0 km/h
1220 15-09-2009 03:59:04 11.1 C 9.57 g/m*3 11.1 C 0 km/h
1221 15-09-2009 04:11:04 11.1 C 9.57 g/m*3 11.1 C 0 km/h
1222 15-09-2009 04:23:04 11.1 C 9.57 g/m*3 11.1 C 0 km/h
1223 15-09-2009 04:35:04 11.2 C 9.63 g/m*3 11.2 C 0 km/h
1224 15-09-2009 04:47:04 11.2 C 9.63 g/m*3 11.2 C 0 km/h
1225 15-09-2009 04:59:04 11.3 C 9.69 g/m*3 11.3 C 0 km/h
Sensor: Nr:Datum:Temp:Abs-Feuchte:Windchill:Wind:
Aussen-T/F 1226 15-09-2009 05:11:04 11.3 C 9.69 g/m*3 11.3 C 0 km/h
1227 15-09-2009 05:23:04 11.4 C 9.75 g/m*3 11.4 C 0 km/h
1228 15-09-2009 05:35:05 11.4 C 9.75 g/m*3 11.4 C 0 km/h
1229 15-09-2009 05:47:05 11.4 C 9.75 g/m*3 11.4 C 0 km/h
1230 15-09-2009 05:59:05 11.3 C 9.69 g/m*3 11.3 C 0 km/h
1231 15-09-2009 06:11:05 11.3 C 9.69 g/m*3 11.3 C 0 km/h
1232 15-09-2009 06:23:05 11.4 C 9.75 g/m*3 11.4 C 0 km/h
1233 15-09-2009 06:35:05 11.4 C 9.75 g/m*3 11.4 C 0 km/h
1234 15-09-2009 06:47:05 11.4 C 9.75 g/m*3 11.4 C 0 km/h
1235 15-09-2009 06:59:05 11.5 C 9.81 g/m*3 11.5 C 0 km/h
1236 15-09-2009 07:11:05 11.5 C 9.81 g/m*3 11.5 C 0 km/h
1237 15-09-2009 07:23:05 11.5 C 9.81 g/m*3 11.5 C 0 km/h
1238 15-09-2009 07:35:05 11.6 C 9.87 g/m*3 11.6 C 0 km/h
1239 15-09-2009 07:47:03 11.6 C 9.87 g/m*3 11.6 C 0 km/h
1240 15-09-2009 07:59:03 11.7 C 9.94 g/m*3 11.7 C 0 km/h
1241 15-09-2009 08:11:02 11.9 C 10.06 g/m*3 11.9 C 0 km/h
1242 15-09-2009 08:23:02 12 C 10.12 g/m*3 12 C 0 km/h
1243 15-09-2009 08:35:03 11.9 C 10.06 g/m*3 11.9 C 0 km/h
1244 15-09-2009 08:47:02 12.3 C 10.32 g/m*3 12.3 C 0 km/h
1245 15-09-2009 08:59:03 12.6 C 10.51 g/m*3 12.6 C 0 km/h
1246 15-09-2009 09:11:01 12.8 C 10.64 g/m*3 12.8 C 0 km/h
1247 15-09-2009 09:23:02 13.1 C 10.84 g/m*3 13.1 C 0 km/h
1248 15-09-2009 09:35:02 13.5 C 11.11 g/m*3 13.5 C 0 km/h
1249 15-09-2009 09:47:01 13.3 C 10.98 g/m*3 13.3 C 0 km/h
1250 15-09-2009 09:59:01 13.7 C 11.25 g/m*3 13.7 C 0 km/h
Sensor: Nr:Datum:Temp:Abs-Feuchte:Windchill:Wind:
Aussen-T/F 1251 15-09-2009 10:11:02 13.8 C 11.32 g/m*3 13.8 C 0 km/h
1252 15-09-2009 10:23:01 14.2 C 11.6 g/m*3 14.2 C 0 km/h
1253 15-09-2009 10:35:02 14.2 C 11.36 g/m*3 14.2 C 0 km/h
1254 15-09-2009 10:47:01 14.1 C 11.04 g/m*3 14.1 C 0 km/h
1255 15-09-2009 10:59:01 14.4 C 11.13 g/m*3 14.4 C 0 km/h
1256 15-09-2009 11:11:02 15.1 C 11.35 g/m*3 15.1 C 0 km/h
1257 15-09-2009 11:23:01 15 C 10.39 g/m*3 15 C 0 km/h
1258 15-09-2009 11:35:02 15.4 C 10.51 g/m*3 15.4 C 0 km/h
1259 15-09-2009 11:47:01 15.8 C 10.63 g/m*3 15.8 C 0 km/h
1260 15-09-2009 11:59:01 16 C 10.22 g/m*3 16 C 0 km/h
1261 15-09-2009 12:11:02 16.3 C 10.41 g/m*3 16.3 C 0 km/h
1262 15-09-2009 12:23:01 16.5 C 10.25 g/m*3 16.5 C 0 km/h
1263 15-09-2009 12:35:02 16.6 C 10.17 g/m*3 16.6 C 0 km/h
1264 15-09-2009 12:47:01 16.3 C 10.13 g/m*3 16.3 C 0 km/h
1265 15-09-2009 12:59:01 16.2 C 10.2 g/m*3 16.2 C 0 km/h
1266 15-09-2009 13:11:02 15.9 C 10.29 g/m*3 15.9 C 0 km/h
1267 15-09-2009 13:23:02 15.9 C 10.7 g/m*3 15.9 C 0 km/h
1268 15-09-2009 13:35:01 16 C 10.76 g/m*3 16 C 0 km/h
1269 15-09-2009 13:47:02 16.2 C 11.03 g/m*3 16.2 C 0 km/h
1270 15-09-2009 13:59:02 16.5 C 11.09 g/m*3 16.5 C 0 km/h
1271 15-09-2009 14:11:01 16.5 C 10.67 g/m*3 16.5 C 0 km/h
1272 15-09-2009 14:23:02 16.3 C 10.68 g/m*3 16.3 C 0 km/h
1273 15-09-2009 14:35:01 16.1 C 10.69 g/m*3 16.1 C 0 km/h
1274 15-09-2009 14:47:02 15.8 C 10.9 g/m*3 15.8 C 0 km/h
1275 15-09-2009 14:59:02 15.5 C 10.84 g/m*3 15.5 C 0 km/h
Sensor: Nr:Datum:Temp:Abs-Feuchte:Windchill:Wind:
Aussen-T/F 1276 15-09-2009 15:11:02 15.2 C 11.03 g/m*3 15.2 C 0 km/h
1277 15-09-2009 15:23:02 15.3 C 11.23 g/m*3 15.3 C 0 km/h
1278 15-09-2009 15:35:03 15.4 C 11.3 g/m*3 15.4 C 0 km/h
1279 15-09-2009 15:47:02 15.3 C 11.36 g/m*3 15.3 C 0 km/h
1280 15-09-2009 15:59:02 15.2 C 11.29 g/m*3 15.2 C 0 km/h
1281 15-09-2009 16:11:02 15.1 C 11.35 g/m*3 15.1 C 0 km/h
1282 15-09-2009 16:23:01 15 C 11.41 g/m*3 15 C 0 km/h
1283 15-09-2009 16:35:02 15 C 11.41 g/m*3 15 C 0 km/h
1284 15-09-2009 16:47:02 15 C 11.54 g/m*3 15 C 0 km/h
1285 15-09-2009 16:59:02 15 C 11.54 g/m*3 15 C 0 km/h
1286 15-09-2009 17:11:02 15 C 11.54 g/m*3 15 C 0 km/h
1287 15-09-2009 17:23:02 15 C 11.54 g/m*3 15 C 0 km/h
1288 15-09-2009 17:35:02 15.2 C 11.81 g/m*3 15.2 C 0 km/h
1289 15-09-2009 17:47:02 15.4 C 11.96 g/m*3 15.4 C 0 km/h
1290 15-09-2009 17:59:02 15.7 C 12.18 g/m*3 15.7 C 0 km/h
1291 15-09-2009 18:11:02 15.7 C 12.18 g/m*3 15.7 C 0 km/h
1292 15-09-2009 18:23:02 15.8 C 12.25 g/m*3 15.8 C 0 km/h
1293 15-09-2009 18:35:02 15.9 C 12.32 g/m*3 15.9 C 0 km/h
1294 15-09-2009 18:47:02 15.9 C 12.32 g/m*3 15.9 C 0 km/h
1295 15-09-2009 18:59:02 15.8 C 12.25 g/m*3 15.8 C 0 km/h
1296 15-09-2009 19:11:02 15.7 C 12.18 g/m*3 15.7 C 0 km/h
1297 15-09-2009 19:23:03 15.6 C 12.1 g/m*3 15.6 C 0 km/h
1298 15-09-2009 19:35:02 15.4 C 11.96 g/m*3 15.4 C 0 km/h
1299 15-09-2009 19:47:02 15.3 C 11.88 g/m*3 15.3 C 0 km/h
1300 15-09-2009 19:59:02 15.2 C 11.81 g/m*3 15.2 C 0 km/h
Sensor: Nr:Datum:Temp:Abs-Feuchte:Windchill:Wind:
Aussen-T/F 1301 15-09-2009 20:11:02 15.2 C 11.81 g/m*3 15.2 C 0 km/h
1302 15-09-2009 20:23:02 15.2 C 11.94 g/m*3 15.2 C 0 km/h
1303 15-09-2009 20:35:02 15.2 C 11.94 g/m*3 15.2 C 0 km/h
1304 15-09-2009 20:47:02 15.1 C 11.87 g/m*3 15.1 C 0 km/h
1305 15-09-2009 20:59:02 15.1 C 11.87 g/m*3 15.1 C 0 km/h
1306 15-09-2009 21:11:01 15.1 C 11.87 g/m*3 15.1 C 0 km/h
1307 15-09-2009 21:23:02 15.1 C 11.87 g/m*3 15.1 C 0 km/h
1308 15-09-2009 21:35:02 15 C 11.8 g/m*3 15 C 0 km/h
1309 15-09-2009 21:47:02 15 C 11.8 g/m*3 15 C 0 km/h
1310 15-09-2009 21:59:03 15 C 11.8 g/m*3 15 C 0 km/h
1311 15-09-2009 22:11:01 14.9 C 11.85 g/m*3 14.9 C 0 km/h
1312 15-09-2009 22:23:01 14.8 C 11.78 g/m*3 14.8 C 0 km/h
1313 15-09-2009 22:35:02 14.8 C 11.78 g/m*3 14.8 C 0 km/h
1314 15-09-2009 22:47:02 14.8 C 11.78 g/m*3 14.8 C 0 km/h
1315 15-09-2009 22:59:02 14.7 C 11.71 g/m*3 14.7 C 0 km/h
1316 15-09-2009 23:11:01 14.7 C 11.71 g/m*3 14.7 C 0 km/h
1317 15-09-2009 23:23:02 14.7 C 11.71 g/m*3 14.7 C 0 km/h
1318 15-09-2009 23:36:02 14.6 C 11.64 g/m*3 14.6 C 0 km/h
1319 15-09-2009 23:48:02 14.6 C 11.64 g/m*3 14.6 C 0 km/h
1320 16-09-2009 00:00:02 14.6 C 11.64 g/m*3 14.6 C 0 km/h
1321 16-09-2009 00:12:02 14.6 C 11.64 g/m*3 14.6 C 0 km/h
1322 16-09-2009 00:24:02 14.6 C 11.64 g/m*3 14.6 C 0 km/h
1323 16-09-2009 00:36:02 14.6 C 11.64 g/m*3 14.6 C 0 km/h
1324 16-09-2009 00:48:02 14.6 C 11.64 g/m*3 14.6 C 0 km/h
1325 16-09-2009 01:00:02 14.6 C 11.64 g/m*3 14.6 C 0 km/h
Sensor: Nr:Datum:Temp:Abs-Feuchte:Windchill:Wind:
Aussen-T/F 1326 16-09-2009 01:12:02 14.6 C 11.64 g/m*3 14.6 C 0 km/h
1327 16-09-2009 01:24:02 14.6 C 11.64 g/m*3 14.6 C 0 km/h
1328 16-09-2009 01:36:02 14.6 C 11.64 g/m*3 14.6 C 0 km/h
1329 16-09-2009 01:48:02 14.6 C 11.51 g/m*3 14.6 C 0 km/h
1330 16-09-2009 02:00:02 14.4 C 11.37 g/m*3 14.4 C 0 km/h
1331 16-09-2009 02:12:02 14.4 C 11.37 g/m*3 14.4 C 0 km/h
1332 16-09-2009 02:24:02 14.2 C 11.23 g/m*3 14.2 C 0 km/h
1333 16-09-2009 02:36:02 14.6 C 11.51 g/m*3 14.6 C 0 km/h
1334 16-09-2009 02:48:02 14.4 C 11.37 g/m*3 14.4 C 0 km/h
1335 16-09-2009 03:00:02 14.4 C 11.37 g/m*3 14.4 C 0 km/h
1336 16-09-2009 03:12:02 14.4 C 11.37 g/m*3 14.4 C 0 km/h
1337 16-09-2009 03:24:02 14.4 C 11.37 g/m*3 14.4 C 0 km/h
1338 16-09-2009 03:36:03 14.4 C 11.37 g/m*3 14.4 C 0 km/h
1339 16-09-2009 03:48:03 14.4 C 11.37 g/m*3 14.4 C 0 km/h
1340 16-09-2009 04:00:03 14.3 C 11.3 g/m*3 14.3 C 0 km/h
1341 16-09-2009 04:12:03 14.3 C 11.3 g/m*3 14.3 C 0 km/h
1342 16-09-2009 04:24:03 14.1 C 11.04 g/m*3 14.1 C 0 km/h
1343 16-09-2009 04:36:03 14.4 C 11.25 g/m*3 14.4 C 0 km/h
1344 16-09-2009 04:48:03 14.4 C 11.13 g/m*3 14.4 C 0 km/h
1345 16-09-2009 05:00:03 14.3 C 11.06 g/m*3 14.3 C 0 km/h
1346 16-09-2009 05:12:03 14.3 C 11.06 g/m*3 14.3 C 0 km/h
1347 16-09-2009 05:24:03 14.3 C 11.06 g/m*3 14.3 C 0 km/h
1348 16-09-2009 05:36:03 14.3 C 11.06 g/m*3 14.3 C 0 km/h
1349 16-09-2009 05:48:03 14.2 C 10.99 g/m*3 14.2 C 0 km/h
1350 16-09-2009 06:00:03 14.3 C 11.06 g/m*3 14.3 C 0 km/h
Sensor: Nr:Datum:Temp:Abs-Feuchte:Windchill:Wind:
Aussen-T/F 1351 16-09-2009 06:12:03 14.3 C 11.06 g/m*3 14.3 C 0 km/h
1352 16-09-2009 06:24:03 14.3 C 10.93 g/m*3 14.3 C 0 km/h
1353 16-09-2009 06:36:03 14.3 C 10.93 g/m*3 14.3 C 0 km/h
1354 16-09-2009 06:48:03 14.3 C 10.93 g/m*3 14.3 C 0 km/h
1355 16-09-2009 07:00:03 14.3 C 10.93 g/m*3 14.3 C 0 km/h
1356 16-09-2009 07:12:03 14.4 C 11 g/m*3 14.4 C 0 km/h
1357 16-09-2009 07:24:03 14.4 C 11 g/m*3 14.4 C 0 km/h
1358 16-09-2009 07:36:03 14.5 C 11.07 g/m*3 14.5 C 0 km/h
1359 16-09-2009 07:48:04 14.5 C 11.07 g/m*3 14.5 C 0 km/h
1360 16-09-2009 08:00:04 14.5 C 10.94 g/m*3 14.5 C 0 km/h
1361 16-09-2009 08:12:04 14.5 C 10.94 g/m*3 14.5 C 0 km/h
1362 16-09-2009 08:24:04 14.6 C 11.01 g/m*3 14.6 C 0 km/h
1363 16-09-2009 08:36:04 14.8 C 11.15 g/m*3 14.8 C 0 km/h
1364 16-09-2009 08:48:04 14.8 C 11.15 g/m*3 14.8 C 0 km/h
1365 16-09-2009 09:00:04 14.8 C 11.15 g/m*3 14.8 C 0 km/h
1366 16-09-2009 09:12:02 15 C 11.16 g/m*3 15 C 0 km/h
1367 16-09-2009 09:24:02 15.1 C 11.22 g/m*3 15.1 C 0 km/h
1368 16-09-2009 09:36:02 15.2 C 11.29 g/m*3 15.2 C 0 km/h
1369 16-09-2009 09:48:01 15.4 C 11.3 g/m*3 15.4 C 0 km/h
1370 16-09-2009 10:00:01 15.6 C 11.44 g/m*3 15.6 C 0 km/h
1371 16-09-2009 10:12:02 15.7 C 11.37 g/m*3 15.7 C 0 km/h
1372 16-09-2009 10:24:01 15.9 C 11.51 g/m*3 15.9 C 0 km/h
1373 16-09-2009 10:36:02 16 C 11.44 g/m*3 16 C 0 km/h
1374 16-09-2009 10:48:01 16.2 C 11.58 g/m*3 16.2 C 0 km/h
1375 16-09-2009 11:00:01 16.4 C 11.72 g/m*3 16.4 C 0 km/h
Sensor: Nr:Datum:Temp:Abs-Feuchte:Windchill:Wind:
Aussen-T/F 1376 16-09-2009 11:12:02 16.5 C 11.65 g/m*3 16.5 C 0 km/h
1377 16-09-2009 11:24:02 16.8 C 11.87 g/m*3 16.8 C 0 km/h
1378 16-09-2009 11:36:02 17 C 11.87 g/m*3 17 C 0 km/h
1379 16-09-2009 11:48:02 17.1 C 11.94 g/m*3 17.1 C 0 km/h
1380 16-09-2009 12:00:02 17.3 C 11.93 g/m*3 17.3 C 0 km/h
1381 16-09-2009 12:12:01 17.5 C 11.78 g/m*3 17.5 C 0 km/h
1382 16-09-2009 12:24:02 17.7 C 11.92 g/m*3 17.7 C 0 km/h
1383 16-09-2009 12:36:01 18.1 C 11.9 g/m*3 18.1 C 0 km/h
1384 16-09-2009 12:48:02 18.3 C 11.88 g/m*3 18.3 C 0 km/h
1385 16-09-2009 13:00:02 18.7 C 12.01 g/m*3 18.7 C 0 km/h
1386 16-09-2009 13:12:01 19.1 C 11.8 g/m*3 19.1 C 0 km/h
1387 16-09-2009 13:24:01 19.5 C 11.24 g/m*3 19.5 C 0 km/h
1388 16-09-2009 13:36:02 20 C 10.89 g/m*3 20 C 0 km/h
1389 16-09-2009 13:48:02 19.9 C 10.82 g/m*3 19.9 C 0 km/h
1390 16-09-2009 14:00:02 19.6 C 10.8 g/m*3 19.6 C 0 km/h
1391 16-09-2009 14:12:01 19.6 C 10.8 g/m*3 19.6 C 0 km/h
1392 16-09-2009 14:24:02 20 C 10.71 g/m*3 20 C 0 km/h
1393 16-09-2009 14:36:02 20.4 C 10.44 g/m*3 20.4 C 0 km/h
1394 16-09-2009 14:48:02 20.4 C 10.44 g/m*3 20.4 C 0 km/h
1395 16-09-2009 15:00:02 20 C 10.54 g/m*3 20 C 0 km/h
1396 16-09-2009 15:12:03 20.2 C 10.84 g/m*3 20.2 C 0 km/h
1397 16-09-2009 15:24:02 20.3 C 10.73 g/m*3 20.3 C 0 km/h
1398 16-09-2009 15:36:02 20.1 C 10.78 g/m*3 20.1 C 0 km/h
1399 16-09-2009 15:48:01 20 C 10.89 g/m*3 20 C 0 km/h
1400 16-09-2009 16:00:01 19.8 C 11.44 g/m*3 19.8 C 0 km/h
Sensor: Nr:Datum:Temp:Abs-Feuchte:Windchill:Wind:
Aussen-T/F 1401 16-09-2009 16:12:02 19.6 C 11.48 g/m*3 19.6 C 0 km/h
1402 16-09-2009 16:24:01 19.7 C 11.38 g/m*3 19.7 C 0 km/h
1403 16-09-2009 16:36:01 19.7 C 11.38 g/m*3 19.7 C 0 km/h
1404 16-09-2009 16:48:01 19.7 C 11.38 g/m*3 19.7 C 0 km/h
1405 16-09-2009 17:00:01 19.6 C 11.48 g/m*3 19.6 C 0 km/h
1406 16-09-2009 17:12:01 19.7 C 11.38 g/m*3 19.7 C 0 km/h
1407 16-09-2009 17:24:02 19.7 C 11.21 g/m*3 19.7 C 0 km/h
1408 16-09-2009 17:36:01 19.6 C 11.31 g/m*3 19.6 C 0 km/h
1409 16-09-2009 17:48:02 19.5 C 11.08 g/m*3 19.5 C 0 km/h
1410 16-09-2009 18:00:02 19.4 C 11.35 g/m*3 19.4 C 0 km/h
1411 16-09-2009 18:12:02 19.5 C 11.41 g/m*3 19.5 C 0 km/h
1412 16-09-2009 18:24:02 19.4 C 11.35 g/m*3 19.4 C 0 km/h
1413 16-09-2009 18:36:03 19.3 C 11.28 g/m*3 19.3 C 0 km/h
1414 16-09-2009 18:48:03 19.1 C 11.47 g/m*3 19.1 C 0 km/h
1415 16-09-2009 19:00:03 18.8 C 11.6 g/m*3 18.8 C 0 km/h
1416 16-09-2009 19:12:02 18.7 C 11.69 g/m*3 18.7 C 0 km/h
1417 16-09-2009 19:24:02 18.3 C 11.57 g/m*3 18.3 C 0 km/h
1418 16-09-2009 19:36:02 18.1 C 11.59 g/m*3 18.1 C 0 km/h
1419 16-09-2009 19:48:02 18.1 C 11.59 g/m*3 18.1 C 0 km/h
1420 16-09-2009 20:00:02 17.9 C 11.91 g/m*3 17.9 C 0 km/h
1421 16-09-2009 20:12:02 18 C 11.83 g/m*3 18 C 0 km/h
1422 16-09-2009 20:24:02 17.8 C 11.84 g/m*3 17.8 C 0 km/h
1423 16-09-2009 20:36:01 17.3 C 11.79 g/m*3 17.3 C 0 km/h
1424 16-09-2009 20:48:02 17 C 11.72 g/m*3 17 C 0 km/h
1425 16-09-2009 21:00:02 16.9 C 11.94 g/m*3 16.9 C 0 km/h
Sensor: Nr:Datum:Temp:Abs-Feuchte:Windchill:Wind:
Aussen-T/F 1426 16-09-2009 21:12:02 17.2 C 12.15 g/m*3 17.2 C 0 km/h
1427 16-09-2009 21:24:01 17.3 C 12.08 g/m*3 17.3 C 0 km/h
1428 16-09-2009 21:36:01 17.4 C 12.15 g/m*3 17.4 C 0 km/h
1429 16-09-2009 21:48:01 17.4 C 12.15 g/m*3 17.4 C 0 km/h
1430 16-09-2009 22:00:01 17.4 C 12 g/m*3 17.4 C 0 km/h
1431 16-09-2009 22:12:01 17.3 C 11.79 g/m*3 17.3 C 0 km/h
1432 16-09-2009 22:24:01 17.3 C 11.79 g/m*3 17.3 C 0 km/h
1433 16-09-2009 22:36:02 17.3 C 11.79 g/m*3 17.3 C 0 km/h
1434 16-09-2009 22:48:02 17.3 C 11.64 g/m*3 17.3 C 0 km/h
1435 16-09-2009 23:00:02 17.3 C 11.49 g/m*3 17.3 C 0 km/h
1436 16-09-2009 23:12:03 17.2 C 11.42 g/m*3 17.2 C 0 km/h
1437 16-09-2009 23:24:02 17.1 C 11.5 g/m*3 17.1 C 0 km/h
1438 16-09-2009 23:36:02 17.2 C 11.57 g/m*3 17.2 C 0 km/h
1439 16-09-2009 23:48:01 17 C 11.43 g/m*3 17 C 0 km/h
1440 17-09-2009 00:00:01 16.7 C 11.37 g/m*3 16.7 C 0 km/h
1441 17-09-2009 00:12:02 16.7 C 11.51 g/m*3 16.7 C 0 km/h
1442 17-09-2009 00:24:01 16.6 C 11.44 g/m*3 16.6 C 0 km/h
1443 17-09-2009 00:36:02 16.6 C 11.44 g/m*3 16.6 C 0 km/h
1444 17-09-2009 00:48:01 16.6 C 11.44 g/m*3 16.6 C 0 km/h
1445 17-09-2009 01:00:01 16.6 C 11.44 g/m*3 16.6 C 0 km/h
1446 17-09-2009 01:12:02 16.6 C 11.44 g/m*3 16.6 C 0 km/h
1447 17-09-2009 01:24:01 16.7 C 11.37 g/m*3 16.7 C 0 km/h
1448 17-09-2009 01:36:02 16.7 C 11.23 g/m*3 16.7 C 0 km/h
1449 17-09-2009 01:48:01 16.5 C 11.23 g/m*3 16.5 C 0 km/h
1450 17-09-2009 02:00:01 16.5 C 11.23 g/m*3 16.5 C 0 km/h
Sensor: Nr:Datum:Temp:Abs-Feuchte:Windchill:Wind:
Aussen-T/F 1451 17-09-2009 02:12:02 16.6 C 11.16 g/m*3 16.6 C 0 km/h
1452 17-09-2009 02:24:02 16.6 C 11.16 g/m*3 16.6 C 0 km/h
1453 17-09-2009 02:36:02 16.6 C 11.02 g/m*3 16.6 C 0 km/h
1454 17-09-2009 02:48:02 16.6 C 11.02 g/m*3 16.6 C 0 km/h
1455 17-09-2009 03:00:02 16.6 C 11.02 g/m*3 16.6 C 0 km/h
1456 17-09-2009 03:12:01 16.5 C 11.09 g/m*3 16.5 C 0 km/h
1457 17-09-2009 03:24:01 16.5 C 11.09 g/m*3 16.5 C 0 km/h
1458 17-09-2009 03:36:01 16.5 C 10.95 g/m*3 16.5 C 0 km/h
1459 17-09-2009 03:48:01 16.5 C 10.95 g/m*3 16.5 C 0 km/h
1460 17-09-2009 04:00:01 16.4 C 10.89 g/m*3 16.4 C 0 km/h
1461 17-09-2009 04:12:01 16.4 C 10.89 g/m*3 16.4 C 0 km/h
1462 17-09-2009 04:24:01 16.4 C 10.89 g/m*3 16.4 C 0 km/h
1463 17-09-2009 04:36:01 16.3 C 10.68 g/m*3 16.3 C 0 km/h
1464 17-09-2009 04:48:01 16.3 C 10.41 g/m*3 16.3 C 0 km/h
1465 17-09-2009 05:00:01 16.2 C 10.34 g/m*3 16.2 C 0 km/h
1466 17-09-2009 05:12:01 16 C 10.08 g/m*3 16 C 0 km/h
1467 17-09-2009 05:24:02 16 C 10.08 g/m*3 16 C 0 km/h
1468 17-09-2009 05:36:01 15.9 C 10.16 g/m*3 15.9 C 0 km/h
1469 17-09-2009 05:48:02 15.8 C 10.1 g/m*3 15.8 C 0 km/h
1470 17-09-2009 06:00:02 15.8 C 10.1 g/m*3 15.8 C 0 km/h
1471 17-09-2009 06:12:01 15.6 C 9.97 g/m*3 15.6 C 0 km/h
1472 17-09-2009 06:24:02 15.4 C 9.85 g/m*3 15.4 C 0 km/h
1473 17-09-2009 06:36:01 15.4 C 9.85 g/m*3 15.4 C 0 km/h
1474 17-09-2009 06:48:02 15.4 C 9.72 g/m*3 15.4 C 0 km/h
1475 17-09-2009 07:00:02 15.3 C 9.79 g/m*3 15.3 C 0 km/h
Sensor: Nr:Datum:Temp:Abs-Feuchte:Windchill:Wind:
Aussen-T/F 1476 17-09-2009 07:12:01 15.3 C 9.79 g/m*3 15.3 C 0 km/h
1477 17-09-2009 07:24:01 15.3 C 9.66 g/m*3 15.3 C 0 km/h
1478 17-09-2009 07:36:02 15.2 C 9.61 g/m*3 15.2 C 0 km/h
1479 17-09-2009 07:48:01 15.2 C 9.48 g/m*3 15.2 C 0 km/h
1480 17-09-2009 08:00:01 15.2 C 9.35 g/m*3 15.2 C 0 km/h
1481 17-09-2009 08:12:01 15.1 C 9.42 g/m*3 15.1 C 0 km/h
1482 17-09-2009 08:24:01 15.2 C 9.48 g/m*3 15.2 C 0 km/h
1483 17-09-2009 08:36:02 15.3 C 9.27 g/m*3 15.3 C 0 km/h
1484 17-09-2009 08:48:01 15.2 C 9.09 g/m*3 15.2 C 0 km/h
1485 17-09-2009 09:00:01 15.4 C 9.07 g/m*3 15.4 C 0 km/h
1486 17-09-2009 09:12:02 15.5 C 8.99 g/m*3 15.5 C 0 km/h
1487 17-09-2009 09:24:01 15.7 C 9.1 g/m*3 15.7 C 0 km/h
1488 17-09-2009 09:36:01 15.9 C 9.07 g/m*3 15.9 C 0 km/h
1489 17-09-2009 09:48:01 16.1 C 8.77 g/m*3 16.1 C 0 km/h
1490 17-09-2009 10:00:01 16.2 C 8.69 g/m*3 16.2 C 0 km/h
1491 17-09-2009 10:12:02 16.4 C 8.79 g/m*3 16.4 C 0 km/h
1492 17-09-2009 10:24:01 16.6 C 8.76 g/m*3 16.6 C 0 km/h
1493 17-09-2009 10:36:01 17 C 8.54 g/m*3 17 C 0 km/h
1494 17-09-2009 10:48:01 17.3 C 8.84 g/m*3 17.3 C 0 km/h
1495 17-09-2009 11:00:01 17 C 8.68 g/m*3 17 C 0 km/h
1496 17-09-2009 11:12:01 17.3 C 8.69 g/m*3 17.3 C 0 km/h
1497 17-09-2009 11:24:01 17.4 C 8.6 g/m*3 17.4 C 0 km/h
1498 17-09-2009 11:36:01 17.7 C 8.75 g/m*3 17.7 C 0 km/h
1499 17-09-2009 11:48:01 18.1 C 8.65 g/m*3 18.1 C 0 km/h
1500 17-09-2009 12:00:01 18.2 C 8.7 g/m*3 18.2 C 0 km/h
Sensor: Nr:Datum:Temp:Abs-Feuchte:Windchill:Wind:
Aussen-T/F 1501 17-09-2009 12:12:01 18.7 C 8.81 g/m*3 18.7 C 0 km/h
1502 17-09-2009 12:24:02 18.8 C 9.02 g/m*3 18.8 C 0 km/h
1503 17-09-2009 12:36:01 19.3 C 8.96 g/m*3 19.3 C 0 km/h
1504 17-09-2009 12:48:02 20.4 C 8.67 g/m*3 20.4 C 0 km/h
1505 17-09-2009 13:00:02 20.9 C 9.11 g/m*3 20.9 C 0 km/h
1506 17-09-2009 13:12:01 20.8 C 8.87 g/m*3 20.8 C 0 km/h
1507 17-09-2009 13:24:02 21 C 8.43 g/m*3 21 C 0 km/h
1508 17-09-2009 13:36:01 21.6 C 8.53 g/m*3 21.6 C 0 km/h
1509 17-09-2009 13:48:02 22 C 8.73 g/m*3 22 C 0 km/h
1510 17-09-2009 14:00:02 22.9 C 8.38 g/m*3 22.9 C 0 km/h
1511 17-09-2009 14:12:01 23.8 C 7.96 g/m*3 23.8 C 0 km/h
1512 17-09-2009 14:24:01 23.3 C 8.36 g/m*3 23.3 C 0 km/h
1513 17-09-2009 14:36:02 23.1 C 8.68 g/m*3 23.1 C 0 km/h
1514 17-09-2009 14:48:01 23.2 C 8.52 g/m*3 23.2 C 0 km/h
1515 17-09-2009 15:00:01 23 C 9.25 g/m*3 23 C 0 km/h
1516 17-09-2009 15:12:01 22.7 C 9.09 g/m*3 22.7 C 0 km/h
1517 17-09-2009 15:24:01 23.2 C 8.94 g/m*3 23.2 C 0 km/h
1518 17-09-2009 15:36:02 23.7 C 9.2 g/m*3 23.7 C 0 km/h
1519 17-09-2009 15:48:01 23.2 C 8.94 g/m*3 23.2 C 0 km/h
1520 17-09-2009 16:00:01 24.2 C 9.24 g/m*3 24.2 C 0 km/h
1521 17-09-2009 16:12:02 25.1 C 8.33 g/m*3 25.1 C 0 km/h
1522 17-09-2009 16:24:01 25.6 C 9.05 g/m*3 25.6 C 0 km/h
1523 17-09-2009 16:36:01 26.3 C 8.66 g/m*3 26.3 C 0 km/h
1524 17-09-2009 16:48:01 26.7 C 8.35 g/m*3 26.7 C 0 km/h
1525 17-09-2009 17:00:01 26.4 C 7.97 g/m*3 26.4 C 0 km/h
Sensor: Nr:Datum:Temp:Abs-Feuchte:Windchill:Wind:
Aussen-T/F 1526 17-09-2009 17:12:02 26.1 C 8.81 g/m*3 26.1 C 0 km/h
1527 17-09-2009 17:24:01 24.5 C 9.4 g/m*3 24.5 C 0 km/h
1528 17-09-2009 17:36:01 24.2 C 9.46 g/m*3 24.2 C 0 km/h
1529 17-09-2009 17:48:01 24.5 C 9.4 g/m*3 24.5 C 0 km/h
1530 17-09-2009 18:00:01 24.8 C 9.56 g/m*3 24.8 C 0 km/h
1531 17-09-2009 18:12:01 24.4 C 9.35 g/m*3 24.4 C 0 km/h
1532 17-09-2009 18:24:02 23.1 C 9.72 g/m*3 23.1 C 0 km/h
1533 17-09-2009 18:36:01 22.1 C 9.76 g/m*3 22.1 C 0 km/h
1534 17-09-2009 18:48:01 21.3 C 10.07 g/m*3 21.3 C 0 km/h
1535 17-09-2009 19:00:01 20.5 C 10.14 g/m*3 20.5 C 0 km/h
1536 17-09-2009 19:12:01 19.8 C 10.08 g/m*3 19.8 C 0 km/h
1537 17-09-2009 19:24:02 19.4 C 10.01 g/m*3 19.4 C 0 km/h
1538 17-09-2009 19:36:01 18.9 C 10.04 g/m*3 18.9 C 0 km/h
1539 17-09-2009 19:48:02 18.6 C 10.03 g/m*3 18.6 C 0 km/h
1540 17-09-2009 20:00:02 18.2 C 9.95 g/m*3 18.2 C 0 km/h
1541 17-09-2009 20:12:01 17.9 C 10.08 g/m*3 17.9 C 0 km/h
1542 17-09-2009 20:24:02 17.6 C 10.05 g/m*3 17.6 C 0 km/h
1543 17-09-2009 20:36:01 17.3 C 10.02 g/m*3 17.3 C 0 km/h
1544 17-09-2009 20:48:02 17.1 C 9.9 g/m*3 17.1 C 0 km/h
1545 17-09-2009 21:00:02 16.8 C 9.87 g/m*3 16.8 C 0 km/h
1546 17-09-2009 21:12:01 16.9 C 10.21 g/m*3 16.9 C 0 km/h
1547 17-09-2009 21:24:02 17 C 9.98 g/m*3 17 C 0 km/h
1548 17-09-2009 21:36:01 16.9 C 10.21 g/m*3 16.9 C 0 km/h
1549 17-09-2009 21:48:02 17 C 10.27 g/m*3 17 C 0 km/h
1550 17-09-2009 22:00:02 17.3 C 10.31 g/m*3 17.3 C 0 km/h
Sensor: Nr:Datum:Temp:Abs-Feuchte:Windchill:Wind:
Aussen-T/F 1551 17-09-2009 22:12:01 17.2 C 10.25 g/m*3 17.2 C 0 km/h
1552 17-09-2009 22:24:01 17.2 C 9.96 g/m*3 17.2 C 0 km/h
1553 17-09-2009 22:37:02 17.1 C 9.75 g/m*3 17.1 C 0 km/h
1554 17-09-2009 22:49:03 17.2 C 9.81 g/m*3 17.2 C 0 km/h
1555 17-09-2009 23:01:03 17 C 9.12 g/m*3 17 C 0 km/h
1556 17-09-2009 23:13:03 17 C 8.83 g/m*3 17 C 0 km/h
1557 17-09-2009 23:25:03 17.1 C 9.32 g/m*3 17.1 C 0 km/h
1558 17-09-2009 23:37:03 17 C 8.97 g/m*3 17 C 0 km/h
1559 17-09-2009 23:49:03 17 C 9.12 g/m*3 17 C 0 km/h
1560 18-09-2009 00:01:03 16.8 C 9.15 g/m*3 16.8 C 0 km/h
1561 18-09-2009 00:13:03 16.5 C 9.13 g/m*3 16.5 C 0 km/h
1562 18-09-2009 00:25:03 16.3 C 9.02 g/m*3 16.3 C 0 km/h
1563 18-09-2009 00:37:03 16.2 C 8.96 g/m*3 16.2 C 0 km/h
1564 18-09-2009 00:49:03 16.1 C 8.91 g/m*3 16.1 C 0 km/h
1565 18-09-2009 01:01:03 16 C 8.99 g/m*3 16 C 0 km/h
1566 18-09-2009 01:13:03 16 C 8.86 g/m*3 16 C 0 km/h
1567 18-09-2009 01:25:03 16.2 C 8.96 g/m*3 16.2 C 0 km/h
1568 18-09-2009 01:37:03 16.2 C 8.83 g/m*3 16.2 C 0 km/h
1569 18-09-2009 01:49:03 16.2 C 8.96 g/m*3 16.2 C 0 km/h
1570 18-09-2009 02:01:03 15.9 C 8.94 g/m*3 15.9 C 0 km/h
1571 18-09-2009 02:13:03 15.4 C 8.8 g/m*3 15.4 C 0 km/h
1572 18-09-2009 02:25:03 15 C 8.72 g/m*3 15 C 0 km/h
1573 18-09-2009 02:37:03 14.5 C 8.71 g/m*3 14.5 C 0 km/h
1574 18-09-2009 02:49:04 14.3 C 8.85 g/m*3 14.3 C 0 km/h
1575 18-09-2009 03:01:04 14 C 8.68 g/m*3 14 C 0 km/h
Sensor: Nr:Datum:Temp:Abs-Feuchte:Windchill:Wind:
Aussen-T/F 1576 18-09-2009 03:13:04 13.7 C 8.76 g/m*3 13.7 C 0 km/h
1577 18-09-2009 03:25:04 13.6 C 8.83 g/m*3 13.6 C 0 km/h
1578 18-09-2009 03:37:04 13.6 C 8.94 g/m*3 13.6 C 0 km/h
1579 18-09-2009 03:49:04 13.4 C 8.83 g/m*3 13.4 C 0 km/h
1580 18-09-2009 04:01:04 13.2 C 8.73 g/m*3 13.2 C 0 km/h
1581 18-09-2009 04:13:04 13 C 8.73 g/m*3 13 C 0 km/h
1582 18-09-2009 04:25:04 13 C 8.85 g/m*3 13 C 0 km/h
1583 18-09-2009 04:37:04 13.1 C 8.9 g/m*3 13.1 C 0 km/h
1584 18-09-2009 04:49:04 13.3 C 9.13 g/m*3 13.3 C 0 km/h
1585 18-09-2009 05:01:04 13.5 C 9.24 g/m*3 13.5 C 0 km/h
1586 18-09-2009 05:13:04 13.5 C 9.24 g/m*3 13.5 C 0 km/h
1587 18-09-2009 05:25:04 13.3 C 9.13 g/m*3 13.3 C 0 km/h
1588 18-09-2009 05:37:04 13 C 9.07 g/m*3 13 C 0 km/h
1589 18-09-2009 05:49:04 12.7 C 9.02 g/m*3 12.7 C 0 km/h
1590 18-09-2009 06:01:04 12.5 C 9.02 g/m*3 12.5 C 0 km/h
1591 18-09-2009 06:13:04 12.5 C 9.02 g/m*3 12.5 C 0 km/h
1592 18-09-2009 06:25:05 12.6 C 9.18 g/m*3 12.6 C 0 km/h
1593 18-09-2009 06:37:05 12.7 C 9.24 g/m*3 12.7 C 0 km/h
1594 18-09-2009 06:49:05 12.8 C 9.18 g/m*3 12.8 C 0 km/h
1595 18-09-2009 07:01:02 12.7 C 9.13 g/m*3 12.7 C 0 km/h
1596 18-09-2009 07:13:02 12.8 C 9.3 g/m*3 12.8 C 0 km/h
1597 18-09-2009 07:25:02 12.9 C 9.35 g/m*3 12.9 C 0 km/h
1598 18-09-2009 07:37:02 13 C 9.41 g/m*3 13 C 0 km/h
1599 18-09-2009 07:49:02 13.3 C 9.47 g/m*3 13.3 C 0 km/h
1600 18-09-2009 08:01:02 13.4 C 9.53 g/m*3 13.4 C 0 km/h
Sensor: Nr:Datum:Temp:Abs-Feuchte:Windchill:Wind:
Aussen-T/F 1601 18-09-2009 08:13:02 13.3 C 9.36 g/m*3 13.3 C 0 km/h
1602 18-09-2009 08:25:02 13.4 C 9.42 g/m*3 13.4 C 0 km/h
1603 18-09-2009 08:37:02 13.5 C 9.47 g/m*3 13.5 C 0 km/h
1604 18-09-2009 08:49:02 13.7 C 9.47 g/m*3 13.7 C 0 km/h
1605 18-09-2009 09:01:02 13.6 C 9.3 g/m*3 13.6 C 0 km/h
1606 18-09-2009 09:13:02 13.8 C 9.53 g/m*3 13.8 C 0 km/h
1607 18-09-2009 09:25:03 14 C 9.53 g/m*3 14 C 0 km/h
1608 18-09-2009 09:37:02 14 C 9.29 g/m*3 14 C 0 km/h
1609 18-09-2009 09:49:03 14 C 9.29 g/m*3 14 C 0 km/h
1610 18-09-2009 10:01:02 14.4 C 9.39 g/m*3 14.4 C 0 km/h
1611 18-09-2009 10:13:02 14.7 C 9.32 g/m*3 14.7 C 0 km/h
1612 18-09-2009 10:25:02 15 C 9.23 g/m*3 15 C 0 km/h
1613 18-09-2009 10:37:02 15.8 C 9.29 g/m*3 15.8 C 0 km/h
1614 18-09-2009 10:49:02 16.4 C 9.49 g/m*3 16.4 C 0 km/h
1615 18-09-2009 11:01:02 17 C 9.55 g/m*3 17 C 0 km/h
1616 18-09-2009 11:13:02 17.5 C 9.69 g/m*3 17.5 C 0 km/h
1617 18-09-2009 11:25:02 17.7 C 9.66 g/m*3 17.7 C 0 km/h
1618 18-09-2009 11:37:01 18.6 C 9.39 g/m*3 18.6 C 0 km/h
1619 18-09-2009 11:49:02 19.1 C 8.85 g/m*3 19.1 C 0 km/h
1620 18-09-2009 12:01:01 19.5 C 8.73 g/m*3 19.5 C 0 km/h
1621 18-09-2009 12:13:01 19.7 C 8.83 g/m*3 19.7 C 0 km/h
1622 18-09-2009 12:25:01 20 C 8.81 g/m*3 20 C 0 km/h
1623 18-09-2009 12:37:02 20.3 C 8.97 g/m*3 20.3 C 0 km/h
1624 18-09-2009 12:49:02 20.6 C 9.13 g/m*3 20.6 C 0 km/h
1625 18-09-2009 13:01:02 21 C 9.16 g/m*3 21 C 0 km/h
Sensor: Nr:Datum:Temp:Abs-Feuchte:Windchill:Wind:
Aussen-T/F 1626 18-09-2009 13:13:02 21.5 C 9.24 g/m*3 21.5 C 0 km/h
1627 18-09-2009 13:25:02 21.9 C 9.26 g/m*3 21.9 C 0 km/h
1628 18-09-2009 13:37:02 22.7 C 9.29 g/m*3 22.7 C 0 km/h
1629 18-09-2009 13:49:01 23 C 8.84 g/m*3 23 C 0 km/h
1630 18-09-2009 14:01:02 23.6 C 8.93 g/m*3 23.6 C 0 km/h
1631 18-09-2009 14:13:02 24.1 C 8.75 g/m*3 24.1 C 0 km/h
1632 18-09-2009 14:25:01 24.7 C 9.05 g/m*3 24.7 C 0 km/h
1633 18-09-2009 14:37:01 24.4 C 8.46 g/m*3 24.4 C 0 km/h
1634 18-09-2009 14:49:01 23.7 C 8.98 g/m*3 23.7 C 0 km/h
1635 18-09-2009 15:01:02 23.6 C 9.15 g/m*3 23.6 C 0 km/h
1636 18-09-2009 15:13:02 23.9 C 9.3 g/m*3 23.9 C 0 km/h
1637 18-09-2009 15:25:02 24.9 C 8.7 g/m*3 24.9 C 0 km/h
1638 18-09-2009 15:37:01 25.8 C 8.91 g/m*3 25.8 C 0 km/h
1639 18-09-2009 15:49:01 25.5 C 9.47 g/m*3 25.5 C 0 km/h
1640 18-09-2009 16:01:01 25 C 9.44 g/m*3 25 C 0 km/h
1641 18-09-2009 16:13:01 24 C 10.01 g/m*3 24 C 0 km/h
1642 18-09-2009 16:25:02 23.4 C 10.72 g/m*3 23.4 C 0 km/h
1643 18-09-2009 16:37:01 23.3 C 10.66 g/m*3 23.3 C 0 km/h
1644 18-09-2009 16:49:02 23.1 C 10.54 g/m*3 23.1 C 0 km/h
1645 18-09-2009 17:01:01 23.2 C 11.02 g/m*3 23.2 C 0 km/h
1646 18-09-2009 17:13:01 22.9 C 11.24 g/m*3 22.9 C 0 km/h
1647 18-09-2009 17:25:02 24.5 C 10.97 g/m*3 24.5 C 0 km/h
1648 18-09-2009 17:37:01 25.7 C 10.53 g/m*3 25.7 C 0 km/h
1649 18-09-2009 17:49:02 26.7 C 9.87 g/m*3 26.7 C 0 km/h
1650 18-09-2009 18:01:02 26.6 C 9.57 g/m*3 26.6 C 0 km/h
Sensor: Nr:Datum:Temp:Abs-Feuchte:Windchill:Wind:
Aussen-T/F 1651 18-09-2009 18:13:02 26.3 C 9.16 g/m*3 26.3 C 0 km/h
1652 18-09-2009 18:25:02 25.7 C 9.58 g/m*3 25.7 C 0 km/h
1653 18-09-2009 18:37:02 24.4 C 10.01 g/m*3 24.4 C 0 km/h
1654 18-09-2009 18:49:02 23.2 C 10.19 g/m*3 23.2 C 0 km/h
1655 18-09-2009 19:01:02 22.4 C 10.72 g/m*3 22.4 C 0 km/h
1656 18-09-2009 19:13:02 21.7 C 10.68 g/m*3 21.7 C 0 km/h
1657 18-09-2009 19:25:01 21.1 C 10.69 g/m*3 21.1 C 0 km/h
1658 18-09-2009 19:37:02 20.8 C 10.68 g/m*3 20.8 C 0 km/h
1659 18-09-2009 19:49:02 20.4 C 10.79 g/m*3 20.4 C 0 km/h
1660 18-09-2009 20:01:02 20.1 C 10.78 g/m*3 20.1 C 0 km/h
1661 18-09-2009 20:13:02 20 C 10.71 g/m*3 20 C 0 km/h
1662 18-09-2009 20:25:02 19.9 C 10.82 g/m*3 19.9 C 0 km/h
1663 18-09-2009 20:37:02 20 C 10.89 g/m*3 20 C 0 km/h
1664 18-09-2009 20:49:02 20.1 C 10.95 g/m*3 20.1 C 0 km/h
1665 18-09-2009 21:01:02 20 C 11.06 g/m*3 20 C 0 km/h
1666 18-09-2009 21:13:02 19.9 C 11.17 g/m*3 19.9 C 0 km/h
1667 18-09-2009 21:25:02 19.8 C 11.27 g/m*3 19.8 C 0 km/h
1668 18-09-2009 21:37:02 19.6 C 11.14 g/m*3 19.6 C 0 km/h
1669 18-09-2009 21:49:01 19.5 C 10.91 g/m*3 19.5 C 0 km/h
1670 18-09-2009 22:01:01 19.5 C 10.74 g/m*3 19.5 C 0 km/h
1671 18-09-2009 22:13:01 19.5 C 10.74 g/m*3 19.5 C 0 km/h
1672 18-09-2009 22:25:01 19.5 C 10.57 g/m*3 19.5 C 0 km/h
1673 18-09-2009 22:37:02 19.6 C 10.47 g/m*3 19.6 C 0 km/h
1674 18-09-2009 22:50:01 19.6 C 10.64 g/m*3 19.6 C 0 km/h
1675 18-09-2009 23:02:01 19.6 C 10.47 g/m*3 19.6 C 0 km/h
Sensor: Nr:Datum:Temp:Abs-Feuchte:Windchill:Wind:
Aussen-T/F 1676 18-09-2009 23:14:01 19.6 C 10.47 g/m*3 19.6 C 0 km/h
1677 18-09-2009 23:26:01 19.5 C 10.41 g/m*3 19.5 C 0 km/h
1678 18-09-2009 23:38:02 19.5 C 10.24 g/m*3 19.5 C 0 km/h
1679 18-09-2009 23:50:02 19.5 C 10.24 g/m*3 19.5 C 0 km/h
1680 19-09-2009 00:02:02 19.5 C 10.24 g/m*3 19.5 C 0 km/h
1681 19-09-2009 00:14:02 19.4 C 10.18 g/m*3 19.4 C 0 km/h
1682 19-09-2009 00:26:02 19.3 C 10.28 g/m*3 19.3 C 0 km/h
1683 19-09-2009 00:38:02 19.2 C 10.39 g/m*3 19.2 C 0 km/h
1684 19-09-2009 00:50:02 18.9 C 10.69 g/m*3 18.9 C 0 km/h
1685 19-09-2009 01:02:02 18.7 C 10.73 g/m*3 18.7 C 0 km/h
1686 19-09-2009 01:14:02 18.7 C 10.73 g/m*3 18.7 C 0 km/h
1687 19-09-2009 01:26:02 18.6 C 10.82 g/m*3 18.6 C 0 km/h
1688 19-09-2009 01:38:02 18.5 C 10.92 g/m*3 18.5 C 0 km/h
1689 19-09-2009 01:50:02 18.4 C 10.85 g/m*3 18.4 C 0 km/h
1690 19-09-2009 02:02:02 18.3 C 10.79 g/m*3 18.3 C 0 km/h
1691 19-09-2009 02:14:02 18.1 C 10.66 g/m*3 18.1 C 0 km/h
1692 19-09-2009 02:26:02 18.1 C 10.82 g/m*3 18.1 C 0 km/h
1693 19-09-2009 02:38:02 18.1 C 10.97 g/m*3 18.1 C 0 km/h
1694 19-09-2009 02:50:02 18.1 C 10.97 g/m*3 18.1 C 0 km/h
1695 19-09-2009 03:02:02 17.9 C 10.99 g/m*3 17.9 C 0 km/h
1696 19-09-2009 03:14:02 17.9 C 10.99 g/m*3 17.9 C 0 km/h
1697 19-09-2009 03:26:03 17.9 C 10.69 g/m*3 17.9 C 0 km/h
1698 19-09-2009 03:38:03 17.9 C 10.69 g/m*3 17.9 C 0 km/h
1699 19-09-2009 03:50:03 17.9 C 10.54 g/m*3 17.9 C 0 km/h
1700 19-09-2009 04:02:03 17.9 C 10.54 g/m*3 17.9 C 0 km/h
Sensor: Nr:Datum:Temp:Abs-Feuchte:Windchill:Wind:
Aussen-T/F 1701 19-09-2009 04:14:03 17.9 C 10.54 g/m*3 17.9 C 0 km/h
1702 19-09-2009 04:26:03 18 C 10.44 g/m*3 18 C 0 km/h
1703 19-09-2009 04:38:03 17.9 C 10.54 g/m*3 17.9 C 0 km/h
1704 19-09-2009 04:50:03 18 C 10.44 g/m*3 18 C 0 km/h
1705 19-09-2009 05:02:03 18 C 10.29 g/m*3 18 C 0 km/h
1706 19-09-2009 05:14:03 18 C 10.6 g/m*3 18 C 0 km/h
1707 19-09-2009 05:26:03 17.9 C 10.69 g/m*3 17.9 C 0 km/h
1708 19-09-2009 05:38:03 17.9 C 10.69 g/m*3 17.9 C 0 km/h
1709 19-09-2009 05:50:03 17.8 C 10.78 g/m*3 17.8 C 0 km/h
1710 19-09-2009 06:02:03 17.7 C 10.71 g/m*3 17.7 C 0 km/h
1711 19-09-2009 06:14:03 17.5 C 10.73 g/m*3 17.5 C 0 km/h
1712 19-09-2009 06:26:03 17.4 C 10.52 g/m*3 17.4 C 0 km/h
1713 19-09-2009 06:38:03 17.3 C 10.61 g/m*3 17.3 C 0 km/h
1714 19-09-2009 06:50:03 17.1 C 10.48 g/m*3 17.1 C 0 km/h
1715 19-09-2009 07:02:03 16.9 C 10.5 g/m*3 16.9 C 0 km/h
1716 19-09-2009 07:14:03 16.6 C 10.45 g/m*3 16.6 C 0 km/h
1717 19-09-2009 07:26:04 16.6 C 10.45 g/m*3 16.6 C 0 km/h
1718 19-09-2009 07:38:04 16.6 C 10.45 g/m*3 16.6 C 0 km/h
1719 19-09-2009 07:50:04 16.6 C 10.45 g/m*3 16.6 C 0 km/h
1720 19-09-2009 08:02:01 16.8 C 10.58 g/m*3 16.8 C 0 km/h
1721 19-09-2009 08:14:01 17 C 10.56 g/m*3 17 C 0 km/h
1722 19-09-2009 08:26:02 17.2 C 10.69 g/m*3 17.2 C 0 km/h
1723 19-09-2009 08:38:01 17.5 C 10.73 g/m*3 17.5 C 0 km/h
1724 19-09-2009 08:50:02 17.8 C 10.93 g/m*3 17.8 C 0 km/h
1725 19-09-2009 09:02:02 17.9 C 10.69 g/m*3 17.9 C 0 km/h
Sensor: Nr:Datum:Temp:Abs-Feuchte:Windchill:Wind:
Aussen-T/F 1726 19-09-2009 09:14:02 18 C 10.29 g/m*3 18 C 0 km/h
1727 19-09-2009 09:26:02 18.2 C 10.26 g/m*3 18.2 C 0 km/h
1728 19-09-2009 09:38:03 18.4 C 10.07 g/m*3 18.4 C 0 km/h
1729 19-09-2009 09:50:02 18.6 C 10.03 g/m*3 18.6 C 0 km/h
1730 19-09-2009 10:02:01 18.8 C 9.99 g/m*3 18.8 C 0 km/h
1731 19-09-2009 10:14:01 19.1 C 9.67 g/m*3 19.1 C 0 km/h
1732 19-09-2009 10:26:02 19.4 C 9.51 g/m*3 19.4 C 0 km/h
1733 19-09-2009 10:38:02 20 C 9.33 g/m*3 20 C 0 km/h
1734 19-09-2009 10:50:02 20.3 C 9.5 g/m*3 20.3 C 0 km/h
1735 19-09-2009 11:02:03 20.2 C 9.62 g/m*3 20.2 C 0 km/h
1736 19-09-2009 11:14:03 21.1 C 9.58 g/m*3 21.1 C 0 km/h
1737 19-09-2009 11:26:02 22.2 C 9.42 g/m*3 22.2 C 0 km/h
1738 19-09-2009 11:38:02 22 C 9.12 g/m*3 22 C 0 km/h
1739 19-09-2009 11:50:01 22.3 C 9.68 g/m*3 22.3 C 0 km/h
1740 19-09-2009 12:02:02 22.8 C 9.55 g/m*3 22.8 C 0 km/h
1741 19-09-2009 12:14:02 22.7 C 9.5 g/m*3 22.7 C 0 km/h
1742 19-09-2009 12:26:01 22.7 C 9.9 g/m*3 22.7 C 0 km/h
1743 19-09-2009 12:38:02 22.9 C 9.81 g/m*3 22.9 C 0 km/h
1744 19-09-2009 12:50:01 23.4 C 9.46 g/m*3 23.4 C 0 km/h
1745 19-09-2009 13:02:02 23.8 C 9.9 g/m*3 23.8 C 0 km/h
1746 19-09-2009 13:14:02 24 C 10.01 g/m*3 24 C 0 km/h
1747 19-09-2009 13:26:01 24.3 C 9.96 g/m*3 24.3 C 0 km/h
1748 19-09-2009 13:38:02 24.7 C 10.19 g/m*3 24.7 C 0 km/h
1749 19-09-2009 13:50:01 25 C 9.44 g/m*3 25 C 0 km/h
1750 19-09-2009 14:02:02 25.5 C 9.47 g/m*3 25.5 C 0 km/h
Sensor: Nr:Datum:Temp:Abs-Feuchte:Windchill:Wind:
Aussen-T/F 1751 19-09-2009 14:14:02 26.1 C 9.55 g/m*3 26.1 C 0 km/h
1752 19-09-2009 14:26:02 26.2 C 9.35 g/m*3 26.2 C 0 km/h
1753 19-09-2009 14:38:02 26.7 C 9.37 g/m*3 26.7 C 0 km/h
1754 19-09-2009 14:50:01 26.2 C 10.34 g/m*3 26.2 C 0 km/h
1755 19-09-2009 15:02:02 27 C 9.26 g/m*3 27 C 0 km/h
1756 19-09-2009 15:14:02 27.6 C 9.31 g/m*3 27.6 C 0 km/h
1757 19-09-2009 15:26:02 27.5 C 9.79 g/m*3 27.5 C 0 km/h
1758 19-09-2009 15:38:01 28.5 C 9.22 g/m*3 28.5 C 0 km/h
1759 19-09-2009 15:50:02 28.5 C 9.22 g/m*3 28.5 C 0 km/h
1760 19-09-2009 16:02:01 27.9 C 10.01 g/m*3 27.9 C 0 km/h
1761 19-09-2009 16:14:01 27.3 C 10.47 g/m*3 27.3 C 0 km/h
1762 19-09-2009 16:26:02 26.6 C 10.82 g/m*3 26.6 C 0 km/h
1763 19-09-2009 16:38:01 25.8 C 11.32 g/m*3 25.8 C 0 km/h
1764 19-09-2009 16:50:02 25.5 C 10.89 g/m*3 25.5 C 0 km/h
1765 19-09-2009 17:02:02 26.4 C 10.7 g/m*3 26.4 C 0 km/h
1766 19-09-2009 17:14:02 28 C 9.52 g/m*3 28 C 0 km/h
1767 19-09-2009 17:26:02 27.7 C 9.9 g/m*3 27.7 C 0 km/h
1768 19-09-2009 17:38:03 26.5 C 10.26 g/m*3 26.5 C 0 km/h
1769 19-09-2009 17:50:02 25.6 C 10.71 g/m*3 25.6 C 0 km/h
1770 19-09-2009 18:02:01 24.8 C 11.15 g/m*3 24.8 C 0 km/h
1771 19-09-2009 18:14:01 24.2 C 11.44 g/m*3 24.2 C 0 km/h
1772 19-09-2009 18:26:02 23.8 C 11.62 g/m*3 23.8 C 0 km/h
1773 19-09-2009 18:38:02 23.4 C 11.57 g/m*3 23.4 C 0 km/h
1774 19-09-2009 18:50:02 22.9 C 11.65 g/m*3 22.9 C 0 km/h
1775 19-09-2009 19:02:03 22.5 C 11.58 g/m*3 22.5 C 0 km/h
Sensor: Nr:Datum:Temp:Abs-Feuchte:Windchill:Wind:
Aussen-T/F 1776 19-09-2009 19:14:03 22.4 C 11.52 g/m*3 22.4 C 0 km/h
1777 19-09-2009 19:26:02 22.2 C 11.39 g/m*3 22.2 C 0 km/h
1778 19-09-2009 19:38:02 21.8 C 11.51 g/m*3 21.8 C 0 km/h
1779 19-09-2009 19:50:01 21.7 C 11.64 g/m*3 21.7 C 0 km/h
1780 19-09-2009 20:02:02 21.6 C 11.76 g/m*3 21.6 C 0 km/h
1781 19-09-2009 20:14:02 21.6 C 11.76 g/m*3 21.6 C 0 km/h
1782 19-09-2009 20:26:01 21.6 C 11.76 g/m*3 21.6 C 0 km/h
1783 19-09-2009 20:38:02 21.2 C 12.42 g/m*3 21.2 C 0 km/h
1784 19-09-2009 20:50:01 19.7 C 13.41 g/m*3 19.7 C 0 km/h
1785 19-09-2009 21:02:01 19.2 C 13.85 g/m*3 19.2 C 0 km/h
1786 19-09-2009 21:14:01 19.3 C 13.93 g/m*3 19.3 C 0 km/h
1787 19-09-2009 21:26:02 19.2 C 13.85 g/m*3 19.2 C 0 km/h
1788 19-09-2009 21:38:02 19 C 13.53 g/m*3 19 C 0 km/h
1789 19-09-2009 21:50:02 19.2 C 13.36 g/m*3 19.2 C 0 km/h
1790 19-09-2009 22:02:02 19.4 C 13.01 g/m*3 19.4 C 0 km/h
1791 19-09-2009 22:14:02 19.5 C 12.92 g/m*3 19.5 C 0 km/h
1792 19-09-2009 22:26:02 19.3 C 12.94 g/m*3 19.3 C 0 km/h
1793 19-09-2009 22:38:02 19.3 C 12.94 g/m*3 19.3 C 0 km/h
1794 19-09-2009 22:51:02 19 C 12.71 g/m*3 19 C 0 km/h
1795 19-09-2009 23:03:03 18.7 C 12.81 g/m*3 18.7 C 0 km/h
1796 19-09-2009 23:15:03 18.4 C 12.58 g/m*3 18.4 C 0 km/h
1797 19-09-2009 23:27:03 18.2 C 12.59 g/m*3 18.2 C 0 km/h
1798 19-09-2009 23:39:03 18.1 C 12.52 g/m*3 18.1 C 0 km/h
1799 19-09-2009 23:51:03 17.9 C 12.52 g/m*3 17.9 C 0 km/h
1800 20-09-2009 00:03:03 17.7 C 12.52 g/m*3 17.7 C 0 km/h
Sensor: Nr:Datum:Temp:Abs-Feuchte:Windchill:Wind:
Aussen-T/F 1801 20-09-2009 00:15:03 17.6 C 12.45 g/m*3 17.6 C 0 km/h
1802 20-09-2009 00:27:03 17.5 C 12.37 g/m*3 17.5 C 0 km/h
1803 20-09-2009 00:39:03 17.4 C 12.45 g/m*3 17.4 C 0 km/h
1804 20-09-2009 00:51:03 17.3 C 12.37 g/m*3 17.3 C 0 km/h
1805 20-09-2009 01:03:03 17.2 C 12.3 g/m*3 17.2 C 0 km/h
1806 20-09-2009 01:15:03 17.1 C 12.23 g/m*3 17.1 C 0 km/h
1807 20-09-2009 01:27:03 17.2 C 12.45 g/m*3 17.2 C 0 km/h
1808 20-09-2009 01:39:03 17.1 C 12.37 g/m*3 17.1 C 0 km/h
1809 20-09-2009 01:51:03 17.2 C 12.45 g/m*3 17.2 C 0 km/h
1810 20-09-2009 02:03:03 17.4 C 12.6 g/m*3 17.4 C 0 km/h
1811 20-09-2009 02:15:03 17.3 C 12.37 g/m*3 17.3 C 0 km/h
1812 20-09-2009 02:27:03 17.1 C 12.23 g/m*3 17.1 C 0 km/h
1813 20-09-2009 02:39:03 17.2 C 12.3 g/m*3 17.2 C 0 km/h
1814 20-09-2009 02:51:04 17.2 C 12.3 g/m*3 17.2 C 0 km/h
1815 20-09-2009 03:03:04 16.9 C 12.23 g/m*3 16.9 C 0 km/h
1816 20-09-2009 03:15:04 16.6 C 12.15 g/m*3 16.6 C 0 km/h
1817 20-09-2009 03:27:04 16.6 C 12.29 g/m*3 16.6 C 0 km/h
1818 20-09-2009 03:39:04 16.6 C 12.29 g/m*3 16.6 C 0 km/h
1819 20-09-2009 03:51:04 16.7 C 12.36 g/m*3 16.7 C 0 km/h
1820 20-09-2009 04:03:04 16.7 C 12.36 g/m*3 16.7 C 0 km/h
1821 20-09-2009 04:15:04 16.4 C 12 g/m*3 16.4 C 0 km/h
1822 20-09-2009 04:27:04 16.4 C 12 g/m*3 16.4 C 0 km/h
1823 20-09-2009 04:39:04 16.3 C 12.07 g/m*3 16.3 C 0 km/h
1824 20-09-2009 04:51:04 16.2 C 11.86 g/m*3 16.2 C 0 km/h
1825 20-09-2009 05:03:04 16 C 11.72 g/m*3 16 C 0 km/h
Sensor: Nr:Datum:Temp:Abs-Feuchte:Windchill:Wind:
Aussen-T/F 1826 20-09-2009 05:15:04 15.8 C 11.85 g/m*3 15.8 C 0 km/h
1827 20-09-2009 05:27:04 15.6 C 11.7 g/m*3 15.6 C 0 km/h
1828 20-09-2009 05:39:04 15.4 C 11.69 g/m*3 15.4 C 0 km/h
1829 20-09-2009 05:51:04 15.3 C 11.62 g/m*3 15.3 C 0 km/h
1830 20-09-2009 06:03:04 15.3 C 11.75 g/m*3 15.3 C 0 km/h
1831 20-09-2009 06:15:04 15.4 C 11.96 g/m*3 15.4 C 0 km/h
1832 20-09-2009 06:27:04 15.2 C 11.68 g/m*3 15.2 C 0 km/h
1833 20-09-2009 06:39:05 15.2 C 11.81 g/m*3 15.2 C 0 km/h
1834 20-09-2009 06:51:05 15.4 C 11.96 g/m*3 15.4 C 0 km/h
1835 20-09-2009 07:03:05 15.3 C 11.88 g/m*3 15.3 C 0 km/h
1836 20-09-2009 07:15:05 15.2 C 11.81 g/m*3 15.2 C 0 km/h
1837 20-09-2009 07:27:05 15.2 C 11.81 g/m*3 15.2 C 0 km/h
1838 20-09-2009 07:39:05 15.4 C 11.96 g/m*3 15.4 C 0 km/h
1839 20-09-2009 07:51:05 15.4 C 11.96 g/m*3 15.4 C 0 km/h
1840 20-09-2009 08:03:05 15.6 C 12.1 g/m*3 15.6 C 0 km/h
1841 20-09-2009 08:15:05 15.8 C 12.25 g/m*3 15.8 C 0 km/h
1842 20-09-2009 08:27:05 15.9 C 12.19 g/m*3 15.9 C 0 km/h
1843 20-09-2009 08:39:02 15.8 C 12.11 g/m*3 15.8 C 0 km/h
1844 20-09-2009 08:51:02 15.9 C 12.05 g/m*3 15.9 C 0 km/h
1845 20-09-2009 09:03:02 16.1 C 12.06 g/m*3 16.1 C 0 km/h
1846 20-09-2009 09:15:02 16.3 C 12.21 g/m*3 16.3 C 0 km/h
1847 20-09-2009 09:27:03 16.5 C 12.22 g/m*3 16.5 C 0 km/h
1848 20-09-2009 09:39:02 16.6 C 12.15 g/m*3 16.6 C 0 km/h
1849 20-09-2009 09:51:02 16.9 C 12.23 g/m*3 16.9 C 0 km/h
1850 20-09-2009 10:03:01 17.4 C 12.3 g/m*3 17.4 C 0 km/h
Sensor: Nr:Datum:Temp:Abs-Feuchte:Windchill:Wind:
Aussen-T/F 1851 20-09-2009 10:15:02 17.7 C 12.22 g/m*3 17.7 C 0 km/h
1852 20-09-2009 10:27:02 18.3 C 12.35 g/m*3 18.3 C 0 km/h
1853 20-09-2009 10:39:01 18.5 C 12.18 g/m*3 18.5 C 0 km/h
1854 20-09-2009 10:51:02 18.8 C 12.24 g/m*3 18.8 C 0 km/h
1855 20-09-2009 11:03:02 18.9 C 12.15 g/m*3 18.9 C 0 km/h
1856 20-09-2009 11:15:02 19.4 C 12.01 g/m*3 19.4 C 0 km/h
1857 20-09-2009 11:27:02 20.2 C 12.06 g/m*3 20.2 C 0 km/h
1858 20-09-2009 11:39:02 20.8 C 11.95 g/m*3 20.8 C 0 km/h
1859 20-09-2009 11:51:02 21.3 C 11.74 g/m*3 21.3 C 0 km/h
1860 20-09-2009 12:03:02 22 C 11.84 g/m*3 22 C 0 km/h
1861 20-09-2009 12:15:01 22 C 11.84 g/m*3 22 C 0 km/h
1862 20-09-2009 12:27:01 22.5 C 12.18 g/m*3 22.5 C 0 km/h
1863 20-09-2009 12:39:02 23.5 C 12.27 g/m*3 23.5 C 0 km/h
1864 20-09-2009 12:51:02 23.8 C 11.83 g/m*3 23.8 C 0 km/h
1865 20-09-2009 13:03:02 24.1 C 11.38 g/m*3 24.1 C 0 km/h
1866 20-09-2009 13:15:02 24.3 C 11.29 g/m*3 24.3 C 0 km/h
1867 20-09-2009 13:27:02 24.6 C 11.25 g/m*3 24.6 C 0 km/h
1868 20-09-2009 13:39:02 25.4 C 11.06 g/m*3 25.4 C 0 km/h
1869 20-09-2009 13:51:02 26.3 C 10.64 g/m*3 26.3 C 0 km/h
1870 20-09-2009 14:03:02 26.4 C 10.21 g/m*3 26.4 C 0 km/h
1871 20-09-2009 14:15:02 25.9 C 10.41 g/m*3 25.9 C 0 km/h
1872 20-09-2009 14:27:02 26.2 C 9.85 g/m*3 26.2 C 0 km/h
1873 20-09-2009 14:39:02 26 C 9.74 g/m*3 26 C 0 km/h
1874 20-09-2009 14:51:02 25.7 C 10.29 g/m*3 25.7 C 0 km/h
1875 20-09-2009 15:03:02 25.5 C 9.94 g/m*3 25.5 C 0 km/h
Sensor: Nr:Datum:Temp:Abs-Feuchte:Windchill:Wind:
Aussen-T/F 1876 20-09-2009 15:15:03 25.2 C 10.48 g/m*3 25.2 C 0 km/h
1877 20-09-2009 15:27:03 26.9 C 9.73 g/m*3 26.9 C 0 km/h
1878 20-09-2009 15:39:02 27.6 C 9.84 g/m*3 27.6 C 0 km/h
1879 20-09-2009 15:51:02 27.3 C 9.16 g/m*3 27.3 C 0 km/h
1880 20-09-2009 16:03:02 27 C 8.75 g/m*3 27 C 0 km/h
1881 20-09-2009 16:15:02 27.4 C 8.95 g/m*3 27.4 C 0 km/h
1882 20-09-2009 16:27:02 27.3 C 8.9 g/m*3 27.3 C 0 km/h
1883 20-09-2009 16:39:02 26.8 C 9.16 g/m*3 26.8 C 0 km/h
1884 20-09-2009 16:51:02 26.7 C 8.61 g/m*3 26.7 C 0 km/h
1885 20-09-2009 17:03:02 26.9 C 8.45 g/m*3 26.9 C 0 km/h
1886 20-09-2009 17:15:02 26.5 C 8.76 g/m*3 26.5 C 0 km/h
1887 20-09-2009 17:27:02 26.1 C 9.06 g/m*3 26.1 C 0 km/h
1888 20-09-2009 17:39:02 26.4 C 9.21 g/m*3 26.4 C 0 km/h
1889 20-09-2009 17:51:02 25.8 C 9.15 g/m*3 25.8 C 0 km/h
1890 20-09-2009 18:03:01 24.7 C 9.51 g/m*3 24.7 C 0 km/h
1891 20-09-2009 18:15:02 24 C 9.57 g/m*3 24 C 0 km/h
1892 20-09-2009 18:27:02 23.7 C 9.84 g/m*3 23.7 C 0 km/h
1893 20-09-2009 18:39:01 23.7 C 10.48 g/m*3 23.7 C 0 km/h
1894 20-09-2009 18:51:02 23.3 C 10.45 g/m*3 23.3 C 0 km/h
1895 20-09-2009 19:03:01 22.7 C 10.71 g/m*3 22.7 C 0 km/h
1896 20-09-2009 19:15:01 22.1 C 10.74 g/m*3 22.1 C 0 km/h
1897 20-09-2009 19:27:01 21.7 C 11.06 g/m*3 21.7 C 0 km/h
1898 20-09-2009 19:39:02 21.2 C 11.12 g/m*3 21.2 C 0 km/h
1899 20-09-2009 19:51:02 20.9 C 10.93 g/m*3 20.9 C 0 km/h
1900 20-09-2009 20:03:02 20.7 C 10.98 g/m*3 20.7 C 0 km/h
Sensor: Nr:Datum:Temp:Abs-Feuchte:Windchill:Wind:
Aussen-T/F 1901 20-09-2009 20:15:02 20.4 C 10.97 g/m*3 20.4 C 0 km/h
1902 20-09-2009 20:27:02 20.1 C 10.95 g/m*3 20.1 C 0 km/h
1903 20-09-2009 20:39:02 19.9 C 11.34 g/m*3 19.9 C 0 km/h
1904 20-09-2009 20:51:01 19.9 C 11.34 g/m*3 19.9 C 0 km/h
1905 20-09-2009 21:03:02 20 C 11.23 g/m*3 20 C 0 km/h
1906 20-09-2009 21:15:01 20.1 C 11.3 g/m*3 20.1 C 0 km/h
1907 20-09-2009 21:27:01 19.7 C 11.55 g/m*3 19.7 C 0 km/h
1908 20-09-2009 21:39:02 19.3 C 11.44 g/m*3 19.3 C 0 km/h
1909 20-09-2009 21:51:02 19.1 C 11.31 g/m*3 19.1 C 0 km/h
1910 20-09-2009 22:03:01 18.8 C 11.6 g/m*3 18.8 C 0 km/h
1911 20-09-2009 22:15:02 18.5 C 11.55 g/m*3 18.5 C 0 km/h
1912 20-09-2009 22:27:02 18.5 C 11.55 g/m*3 18.5 C 0 km/h
1913 20-09-2009 22:39:02 18.4 C 11.48 g/m*3 18.4 C 0 km/h
1914 20-09-2009 22:51:01 18.5 C 11.71 g/m*3 18.5 C 0 km/h
1915 20-09-2009 23:03:02 18.7 C 11.85 g/m*3 18.7 C 0 km/h
1916 20-09-2009 23:15:01 18.9 C 11.83 g/m*3 18.9 C 0 km/h
1917 20-09-2009 23:27:01 19 C 11.73 g/m*3 19 C 0 km/h
1918 20-09-2009 23:39:02 19 C 11.73 g/m*3 19 C 0 km/h
1919 20-09-2009 23:51:02 19.1 C 11.97 g/m*3 19.1 C 0 km/h
1920 21-09-2009 00:03:02 18.7 C 11.85 g/m*3 18.7 C 0 km/h
1921 21-09-2009 00:15:02 18.5 C 12.02 g/m*3 18.5 C 0 km/h
1922 21-09-2009 00:27:02 18.3 C 12.04 g/m*3 18.3 C 0 km/h
1923 21-09-2009 00:39:02 18.1 C 12.05 g/m*3 18.1 C 0 km/h
1924 21-09-2009 00:51:01 18 C 12.13 g/m*3 18 C 0 km/h
1925 21-09-2009 01:03:02 17.8 C 12.14 g/m*3 17.8 C 0 km/h
Sensor: Nr:Datum:Temp:Abs-Feuchte:Windchill:Wind:
Aussen-T/F 1926 21-09-2009 01:15:02 17.8 C 12.29 g/m*3 17.8 C 0 km/h
1927 21-09-2009 01:27:02 17.7 C 12.22 g/m*3 17.7 C 0 km/h
1928 21-09-2009 01:39:01 17.6 C 12.3 g/m*3 17.6 C 0 km/h
1929 21-09-2009 01:51:02 17.5 C 12.23 g/m*3 17.5 C 0 km/h
1930 21-09-2009 02:03:01 17.5 C 12.23 g/m*3 17.5 C 0 km/h
1931 21-09-2009 02:15:02 17.5 C 12.23 g/m*3 17.5 C 0 km/h
1932 21-09-2009 02:27:02 17.5 C 12.23 g/m*3 17.5 C 0 km/h
1933 21-09-2009 02:39:01 17.4 C 12.15 g/m*3 17.4 C 0 km/h
1934 21-09-2009 02:52:04 17.5 C 12.37 g/m*3 17.5 C 0 km/h
1935 21-09-2009 03:04:04 17.5 C 12.37 g/m*3 17.5 C 0 km/h
1936 21-09-2009 03:16:03 17.6 C 12.3 g/m*3 17.6 C 0 km/h
1937 21-09-2009 03:28:03 17.7 C 12.37 g/m*3 17.7 C 0 km/h
1938 21-09-2009 03:40:01 17.8 C 12.29 g/m*3 17.8 C 0 km/h
1939 21-09-2009 03:52:01 17.9 C 12.37 g/m*3 17.9 C 0 km/h
1940 21-09-2009 04:04:01 17.9 C 12.21 g/m*3 17.9 C 0 km/h
1941 21-09-2009 04:16:02 17.9 C 12.21 g/m*3 17.9 C 0 km/h
1942 21-09-2009 04:28:02 17.9 C 12.21 g/m*3 17.9 C 0 km/h
1943 21-09-2009 04:40:01 17.9 C 12.21 g/m*3 17.9 C 0 km/h
1944 21-09-2009 04:52:03 17.7 C 12.22 g/m*3 17.7 C 0 km/h
1945 21-09-2009 05:04:02 17.7 C 12.07 g/m*3 17.7 C 0 km/h
1946 21-09-2009 05:16:02 17.7 C 12.07 g/m*3 17.7 C 0 km/h
1947 21-09-2009 05:28:02 17.6 C 12 g/m*3 17.6 C 0 km/h
1948 21-09-2009 05:40:02 17.5 C 11.93 g/m*3 17.5 C 0 km/h
1949 21-09-2009 05:52:02 17.4 C 11.86 g/m*3 17.4 C 0 km/h
1950 21-09-2009 06:04:02 17.4 C 11.86 g/m*3 17.4 C 0 km/h
Sensor: Nr:Datum:Temp:Abs-Feuchte:Windchill:Wind:
Aussen-T/F 1951 21-09-2009 06:16:02 17.4 C 11.86 g/m*3 17.4 C 0 km/h
1952 21-09-2009 06:28:03 17.5 C 11.78 g/m*3 17.5 C 0 km/h
1953 21-09-2009 06:40:01 17.3 C 11.79 g/m*3 17.3 C 0 km/h
1954 21-09-2009 06:52:02 17.5 C 11.93 g/m*3 17.5 C 0 km/h
1955 21-09-2009 07:04:01 17.3 C 11.64 g/m*3 17.3 C 0 km/h
1956 21-09-2009 07:16:01 17.4 C 11.71 g/m*3 17.4 C 0 km/h
1957 21-09-2009 07:28:01 17.3 C 11.79 g/m*3 17.3 C 0 km/h
1958 21-09-2009 07:40:02 17.4 C 11.86 g/m*3 17.4 C 0 km/h
1959 21-09-2009 07:52:02 17.3 C 11.79 g/m*3 17.3 C 0 km/h
1960 21-09-2009 08:04:02 17.4 C 11.71 g/m*3 17.4 C 0 km/h
1961 21-09-2009 08:16:02 17.2 C 11.57 g/m*3 17.2 C 0 km/h
1962 21-09-2009 08:28:02 16.9 C 11.65 g/m*3 16.9 C 0 km/h
1963 21-09-2009 08:40:02 16.8 C 11.58 g/m*3 16.8 C 0 km/h
1964 21-09-2009 08:52:02 17 C 11.58 g/m*3 17 C 0 km/h
1965 21-09-2009 09:04:03 17.3 C 11.64 g/m*3 17.3 C 0 km/h
1966 21-09-2009 09:16:02 17.1 C 11.35 g/m*3 17.1 C 0 km/h
1967 21-09-2009 09:28:02 17.1 C 11.35 g/m*3 17.1 C 0 km/h
1968 21-09-2009 09:40:02 17 C 11.29 g/m*3 17 C 0 km/h
1969 21-09-2009 09:52:01 17.1 C 11.35 g/m*3 17.1 C 0 km/h
1970 21-09-2009 10:04:02 17.7 C 11.16 g/m*3 17.7 C 0 km/h
1971 21-09-2009 10:16:01 18.5 C 11.39 g/m*3 18.5 C 0 km/h
1972 21-09-2009 10:28:01 19.5 C 11.08 g/m*3 19.5 C 0 km/h
1973 21-09-2009 10:40:01 19.8 C 10.93 g/m*3 19.8 C 0 km/h
1974 21-09-2009 10:52:01 20.3 C 10.9 g/m*3 20.3 C 0 km/h
1975 21-09-2009 11:04:02 20 C 10.37 g/m*3 20 C 0 km/h
Sensor: Nr:Datum:Temp:Abs-Feuchte:Windchill:Wind:
Aussen-T/F 1976 21-09-2009 11:16:01 19.7 C 10.36 g/m*3 19.7 C 0 km/h
1977 21-09-2009 11:28:01 19.6 C 10.47 g/m*3 19.6 C 0 km/h
1978 21-09-2009 11:40:01 19.6 C 10.47 g/m*3 19.6 C 0 km/h
1979 21-09-2009 11:52:01 19.3 C 10.28 g/m*3 19.3 C 0 km/h
1980 21-09-2009 12:04:02 19.2 C 10.39 g/m*3 19.2 C 0 km/h
1981 21-09-2009 12:16:01 19.7 C 10.53 g/m*3 19.7 C 0 km/h
1982 21-09-2009 12:28:01 21.2 C 10.56 g/m*3 21.2 C 0 km/h
1983 21-09-2009 12:40:01 21.6 C 10.43 g/m*3 21.6 C 0 km/h
1984 21-09-2009 12:52:01 21.2 C 10.19 g/m*3 21.2 C 0 km/h
1985 21-09-2009 13:04:02 21.3 C 10.07 g/m*3 21.3 C 0 km/h
1986 21-09-2009 13:16:02 20.8 C 10.14 g/m*3 20.8 C 0 km/h
1987 21-09-2009 13:28:02 20.8 C 9.96 g/m*3 20.8 C 0 km/h
1988 21-09-2009 13:40:01 20.5 C 9.79 g/m*3 20.5 C 0 km/h
1989 21-09-2009 13:52:01 20.1 C 9.56 g/m*3 20.1 C 0 km/h
1990 21-09-2009 14:04:01 20.5 C 9.61 g/m*3 20.5 C 0 km/h
1991 21-09-2009 14:16:02 20.4 C 9.2 g/m*3 20.4 C 0 km/h
1992 21-09-2009 14:28:02 20.6 C 9.31 g/m*3 20.6 C 0 km/h
1993 21-09-2009 14:40:01 21.3 C 9.32 g/m*3 21.3 C 0 km/h
1994 21-09-2009 14:52:01 22.3 C 9.48 g/m*3 22.3 C 0 km/h
1995 21-09-2009 15:04:01 22.8 C 9.14 g/m*3 22.8 C 0 km/h
1996 21-09-2009 15:16:02 23.4 C 9.25 g/m*3 23.4 C 0 km/h
1997 21-09-2009 15:28:02 23.8 C 9.03 g/m*3 23.8 C 0 km/h
1998 21-09-2009 15:40:01 23.6 C 8.93 g/m*3 23.6 C 0 km/h
1999 21-09-2009 15:52:01 24 C 8.92 g/m*3 24 C 0 km/h
2000 21-09-2009 16:04:01 24.5 C 8.95 g/m*3 24.5 C 0 km/h
Sensor: Nr:Datum:Temp:Abs-Feuchte:Windchill:Wind:
Aussen-T/F 2001 21-09-2009 16:16:02 25 C 8.52 g/m*3 25 C 0 km/h
2002 21-09-2009 16:28:02 24.5 C 8.5 g/m*3 24.5 C 0 km/h
2003 21-09-2009 16:40:01 22.8 C 8.74 g/m*3 22.8 C 0 km/h
2004 21-09-2009 16:52:03 22.7 C 8.89 g/m*3 22.7 C 0 km/h
2005 21-09-2009 17:04:02 22.4 C 9.14 g/m*3 22.4 C 0 km/h
2006 21-09-2009 17:16:02 22.6 C 8.84 g/m*3 22.6 C 0 km/h
2007 21-09-2009 17:28:02 22.7 C 8.89 g/m*3 22.7 C 0 km/h
2008 21-09-2009 17:40:02 22.8 C 8.53 g/m*3 22.8 C 0 km/h
2009 21-09-2009 17:52:02 22.5 C 8.39 g/m*3 22.5 C 0 km/h
2010 21-09-2009 18:04:02 22.5 C 8.59 g/m*3 22.5 C 0 km/h
2011 21-09-2009 18:16:02 21.8 C 8.44 g/m*3 21.8 C 0 km/h
2012 21-09-2009 18:28:03 21.2 C 8.52 g/m*3 21.2 C 0 km/h
2013 21-09-2009 18:40:01 21 C 8.61 g/m*3 21 C 0 km/h
2014 21-09-2009 18:52:02 20.8 C 8.69 g/m*3 20.8 C 0 km/h
2015 21-09-2009 19:04:01 20.4 C 8.67 g/m*3 20.4 C 0 km/h
2016 21-09-2009 19:16:02 20 C 8.99 g/m*3 20 C 0 km/h
2017 21-09-2009 19:28:02 19.4 C 9.34 g/m*3 19.4 C 0 km/h
2018 21-09-2009 19:40:02 19.1 C 9.18 g/m*3 19.1 C 0 km/h
2019 21-09-2009 19:52:02 18.5 C 9.33 g/m*3 18.5 C 0 km/h
2020 21-09-2009 20:04:02 18.3 C 9.38 g/m*3 18.3 C 0 km/h
2021 21-09-2009 20:16:02 18 C 9.22 g/m*3 18 C 0 km/h
2022 21-09-2009 20:28:02 17.8 C 9.11 g/m*3 17.8 C 0 km/h
2023 21-09-2009 20:40:03 17.5 C 9.24 g/m*3 17.5 C 0 km/h
2024 21-09-2009 20:52:02 17.2 C 9.23 g/m*3 17.2 C 0 km/h
2025 21-09-2009 21:05:02 17 C 9.26 g/m*3 17 C 0 km/h
Sensor: Nr:Datum:Temp:Abs-Feuchte:Windchill:Wind:
Aussen-T/F 2026 21-09-2009 21:17:02 16.8 C 9.44 g/m*3 16.8 C 0 km/h
2027 21-09-2009 21:29:02 16.7 C 9.52 g/m*3 16.7 C 0 km/h
2028 21-09-2009 21:41:02 16.5 C 9.55 g/m*3 16.5 C 0 km/h
2029 21-09-2009 21:53:02 16.2 C 9.65 g/m*3 16.2 C 0 km/h
2030 21-09-2009 22:05:02 16.1 C 9.6 g/m*3 16.1 C 0 km/h
2031 21-09-2009 22:17:02 15.9 C 9.75 g/m*3 15.9 C 0 km/h
2032 21-09-2009 22:29:02 15.7 C 9.77 g/m*3 15.7 C 0 km/h
2033 21-09-2009 22:41:02 15.5 C 9.65 g/m*3 15.5 C 0 km/h
2034 21-09-2009 22:53:02 15.4 C 9.72 g/m*3 15.4 C 0 km/h
2035 21-09-2009 23:05:02 15.2 C 9.61 g/m*3 15.2 C 0 km/h
2036 21-09-2009 23:17:02 15.1 C 9.55 g/m*3 15.1 C 0 km/h
2037 21-09-2009 23:29:02 14.8 C 9.75 g/m*3 14.8 C 0 km/h
2038 21-09-2009 23:41:02 14.7 C 9.69 g/m*3 14.7 C 0 km/h
2039 21-09-2009 23:53:02 14.5 C 9.7 g/m*3 14.5 C 0 km/h
2040 22-09-2009 00:05:03 14.5 C 9.7 g/m*3 14.5 C 0 km/h
2041 22-09-2009 00:17:03 14.2 C 9.52 g/m*3 14.2 C 0 km/h
2042 22-09-2009 00:29:03 14 C 9.53 g/m*3 14 C 0 km/h
2043 22-09-2009 00:41:03 14 C 9.41 g/m*3 14 C 0 km/h
2044 22-09-2009 00:53:03 13.9 C 9.47 g/m*3 13.9 C 0 km/h
2045 22-09-2009 01:05:03 13.8 C 9.53 g/m*3 13.8 C 0 km/h
2046 22-09-2009 01:17:03 13.7 C 9.71 g/m*3 13.7 C 0 km/h
2047 22-09-2009 01:29:03 13.5 C 9.59 g/m*3 13.5 C 0 km/h
2048 22-09-2009 01:41:03 13.4 C 9.53 g/m*3 13.4 C 0 km/h
2049 22-09-2009 01:53:03 13.3 C 9.59 g/m*3 13.3 C 0 km/h
2050 22-09-2009 02:05:03 13.1 C 9.47 g/m*3 13.1 C 0 km/h
Sensor: Nr:Datum:Temp:Abs-Feuchte:Windchill:Wind:
Aussen-T/F 2051 22-09-2009 02:17:03 13.1 C 9.47 g/m*3 13.1 C 0 km/h
2052 22-09-2009 02:29:03 13 C 9.41 g/m*3 13 C 0 km/h
2053 22-09-2009 02:41:03 12.8 C 9.52 g/m*3 12.8 C 0 km/h
2054 22-09-2009 02:53:03 12.7 C 9.35 g/m*3 12.7 C 0 km/h
2055 22-09-2009 03:05:03 12.6 C 9.4 g/m*3 12.6 C 0 km/h
2056 22-09-2009 03:17:03 12.4 C 9.29 g/m*3 12.4 C 0 km/h
2057 22-09-2009 03:29:03 12.4 C 9.29 g/m*3 12.4 C 0 km/h
2058 22-09-2009 03:41:03 12.3 C 9.34 g/m*3 12.3 C 0 km/h
2059 22-09-2009 03:53:04 12.2 C 9.28 g/m*3 12.2 C 0 km/h
2060 22-09-2009 04:05:04 12.1 C 9.22 g/m*3 12.1 C 0 km/h
2061 22-09-2009 04:17:04 12.1 C 9.22 g/m*3 12.1 C 0 km/h
2062 22-09-2009 04:29:04 11.8 C 9.05 g/m*3 11.8 C 0 km/h
2063 22-09-2009 04:41:04 11.7 C 9.1 g/m*3 11.7 C 0 km/h
2064 22-09-2009 04:53:04 11.6 C 9.04 g/m*3 11.6 C 0 km/h
2065 22-09-2009 05:05:04 11.6 C 9.15 g/m*3 11.6 C 0 km/h
2066 22-09-2009 05:17:04 11.6 C 9.25 g/m*3 11.6 C 0 km/h
2067 22-09-2009 05:29:04 11.6 C 9.25 g/m*3 11.6 C 0 km/h
2068 22-09-2009 05:41:04 11.7 C 9.2 g/m*3 11.7 C 0 km/h
2069 22-09-2009 05:53:04 11.6 C 9.15 g/m*3 11.6 C 0 km/h
2070 22-09-2009 06:05:04 11.5 C 9.09 g/m*3 11.5 C 0 km/h
2071 22-09-2009 06:17:02 11.4 C 9.03 g/m*3 11.4 C 0 km/h
2072 22-09-2009 06:29:02 11.2 C 8.92 g/m*3 11.2 C 0 km/h
2073 22-09-2009 06:41:02 11.1 C 8.86 g/m*3 11.1 C 0 km/h
2074 22-09-2009 06:53:01 11.1 C 8.86 g/m*3 11.1 C 0 km/h
2075 22-09-2009 07:05:02 11.2 C 8.92 g/m*3 11.2 C 0 km/h
Sensor: Nr:Datum:Temp:Abs-Feuchte:Windchill:Wind:
Aussen-T/F 2076 22-09-2009 07:17:01 11.4 C 9.03 g/m*3 11.4 C 0 km/h
2077 22-09-2009 07:29:01 11.4 C 9.03 g/m*3 11.4 C 0 km/h
2078 22-09-2009 07:41:02 11.2 C 8.92 g/m*3 11.2 C 0 km/h
2079 22-09-2009 07:53:01 11.4 C 9.03 g/m*3 11.4 C 0 km/h
2080 22-09-2009 08:05:02 11.3 C 8.87 g/m*3 11.3 C 0 km/h
2081 22-09-2009 08:17:01 11.1 C 8.76 g/m*3 11.1 C 0 km/h
2082 22-09-2009 08:29:01 10.9 C 8.75 g/m*3 10.9 C 0 km/h
2083 22-09-2009 08:41:02 11.1 C 8.86 g/m*3 11.1 C 0 km/h
2084 22-09-2009 08:53:01 11.2 C 8.92 g/m*3 11.2 C 0 km/h
2085 22-09-2009 09:05:02 11.5 C 8.99 g/m*3 11.5 C 0 km/h
2086 22-09-2009 09:17:01 11.6 C 9.04 g/m*3 11.6 C 0 km/h
2087 22-09-2009 09:29:01 11.7 C 9.1 g/m*3 11.7 C 0 km/h
2088 22-09-2009 09:41:02 12 C 9.17 g/m*3 12 C 0 km/h
2089 22-09-2009 09:53:02 12.1 C 9.01 g/m*3 12.1 C 0 km/h
2090 22-09-2009 10:05:02 12.8 C 9.41 g/m*3 12.8 C 0 km/h
2091 22-09-2009 10:17:02 13 C 9.07 g/m*3 13 C 0 km/h
2092 22-09-2009 10:29:02 13 C 8.96 g/m*3 13 C 0 km/h
2093 22-09-2009 10:41:02 13.2 C 9.19 g/m*3 13.2 C 0 km/h
2094 22-09-2009 10:53:01 13.5 C 9.36 g/m*3 13.5 C 0 km/h
2095 22-09-2009 11:05:02 14 C 9.53 g/m*3 14 C 0 km/h
2096 22-09-2009 11:17:02 14.4 C 9.52 g/m*3 14.4 C 0 km/h
2097 22-09-2009 11:29:02 14.9 C 9.69 g/m*3 14.9 C 0 km/h
2098 22-09-2009 11:41:02 15.6 C 9.71 g/m*3 15.6 C 0 km/h
2099 22-09-2009 11:53:02 16.4 C 10.05 g/m*3 16.4 C 0 km/h
2100 22-09-2009 12:05:02 17.2 C 10.4 g/m*3 17.2 C 0 km/h
Sensor: Nr:Datum:Temp:Abs-Feuchte:Windchill:Wind:
Aussen-T/F 2101 22-09-2009 12:17:02 17.8 C 10.02 g/m*3 17.8 C 0 km/h
2102 22-09-2009 12:29:02 18.5 C 9.81 g/m*3 18.5 C 0 km/h
2103 22-09-2009 12:41:02 18.9 C 9.56 g/m*3 18.9 C 0 km/h
2104 22-09-2009 12:53:02 19.6 C 9.79 g/m*3 19.6 C 0 km/h
2105 22-09-2009 13:05:02 20 C 9.68 g/m*3 20 C 0 km/h
2106 22-09-2009 13:17:02 20.5 C 9.25 g/m*3 20.5 C 0 km/h
2107 22-09-2009 13:29:02 21 C 9.34 g/m*3 21 C 0 km/h
2108 22-09-2009 13:41:01 21.7 C 8.77 g/m*3 21.7 C 0 km/h
2109 22-09-2009 13:53:02 22.2 C 8.05 g/m*3 22.2 C 0 km/h
2110 22-09-2009 14:05:01 23.1 C 8.48 g/m*3 23.1 C 0 km/h
2111 22-09-2009 14:17:02 23.7 C 7.91 g/m*3 23.7 C 0 km/h
2112 22-09-2009 14:29:02 24.3 C 8.41 g/m*3 24.3 C 0 km/h
2113 22-09-2009 14:41:01 24.7 C 8.15 g/m*3 24.7 C 0 km/h
2114 22-09-2009 14:53:02 24.7 C 7.47 g/m*3 24.7 C 0 km/h
2115 22-09-2009 15:05:02 25.4 C 7.77 g/m*3 25.4 C 0 km/h
2116 22-09-2009 15:17:02 26.1 C 7.59 g/m*3 26.1 C 0 km/h
2117 22-09-2009 15:29:02 26.4 C 7.97 g/m*3 26.4 C 0 km/h
2118 22-09-2009 15:41:03 27.1 C 7.76 g/m*3 27.1 C 0 km/h
2119 22-09-2009 15:53:02 27.8 C 7.8 g/m*3 27.8 C 0 km/h
2120 22-09-2009 16:05:01 28.2 C 7.7 g/m*3 28.2 C 0 km/h
2121 22-09-2009 16:17:02 29.1 C 7.22 g/m*3 29.1 C 0 km/h
2122 22-09-2009 16:29:02 29.2 C 7.26 g/m*3 29.2 C 0 km/h
2123 22-09-2009 16:41:02 28 C 8.16 g/m*3 28 C 0 km/h
2124 22-09-2009 16:53:02 26 C 8.52 g/m*3 26 C 0 km/h
2125 22-09-2009 17:05:03 27 C 8.49 g/m*3 27 C 0 km/h
Sensor: Nr:Datum:Temp:Abs-Feuchte:Windchill:Wind:
Aussen-T/F 2126 22-09-2009 17:17:02 27.7 C 8.29 g/m*3 27.7 C 0 km/h
2127 22-09-2009 17:29:02 27.6 C 8.51 g/m*3 27.6 C 0 km/h
2128 22-09-2009 17:41:03 27.5 C 8.47 g/m*3 27.5 C 0 km/h
2129 22-09-2009 17:53:02 27.5 C 8.47 g/m*3 27.5 C 0 km/h
2130 22-09-2009 18:05:02 26.7 C 8.61 g/m*3 26.7 C 0 km/h
2131 22-09-2009 18:17:02 26.2 C 8.37 g/m*3 26.2 C 0 km/h
2132 22-09-2009 18:29:02 25.6 C 8.57 g/m*3 25.6 C 0 km/h
2133 22-09-2009 18:41:02 24.9 C 8.7 g/m*3 24.9 C 0 km/h
2134 22-09-2009 18:53:02 24.4 C 8.23 g/m*3 24.4 C 0 km/h
2135 22-09-2009 19:05:02 23.5 C 8.04 g/m*3 23.5 C 0 km/h
2136 22-09-2009 19:17:02 22.5 C 7.99 g/m*3 22.5 C 0 km/h
2137 22-09-2009 19:29:02 21.5 C 8.3 g/m*3 21.5 C 0 km/h
2138 22-09-2009 19:41:02 20.7 C 8.46 g/m*3 20.7 C 0 km/h
2139 22-09-2009 19:53:01 20 C 8.47 g/m*3 20 C 0 km/h
2140 22-09-2009 20:05:02 19.7 C 8.66 g/m*3 19.7 C 0 km/h
2141 22-09-2009 20:17:01 19.2 C 8.24 g/m*3 19.2 C 0 km/h
2142 22-09-2009 20:29:01 19.1 C 8.03 g/m*3 19.1 C 0 km/h
2143 22-09-2009 20:41:02 19 C 8.15 g/m*3 19 C 0 km/h
2144 22-09-2009 20:53:02 18.8 C 8.05 g/m*3 18.8 C 0 km/h
2145 22-09-2009 21:05:02 18.8 C 7.89 g/m*3 18.8 C 0 km/h
2146 22-09-2009 21:17:02 18.7 C 7.84 g/m*3 18.7 C 0 km/h
2147 22-09-2009 21:29:02 18.3 C 7.97 g/m*3 18.3 C 0 km/h
2148 22-09-2009 21:41:02 18.1 C 8.03 g/m*3 18.1 C 0 km/h
2149 22-09-2009 21:53:01 17.8 C 8.2 g/m*3 17.8 C 0 km/h
2150 22-09-2009 22:05:02 17.4 C 8.45 g/m*3 17.4 C 0 km/h
Sensor: Nr:Datum:Temp:Abs-Feuchte:Windchill:Wind:
Aussen-T/F 2151 22-09-2009 22:18:03 17.2 C 8.49 g/m*3 17.2 C 0 km/h
2152 22-09-2009 22:30:03 17 C 8.39 g/m*3 17 C 0 km/h
2153 22-09-2009 22:42:03 16.4 C 9.07 g/m*3 16.4 C 0 km/h
2154 22-09-2009 22:54:03 16.3 C 9.02 g/m*3 16.3 C 0 km/h
2155 22-09-2009 23:06:03 16.1 C 8.91 g/m*3 16.1 C 0 km/h
2156 22-09-2009 23:18:03 16 C 8.99 g/m*3 16 C 0 km/h
2157 22-09-2009 23:30:03 15.9 C 9.07 g/m*3 15.9 C 0 km/h
2158 22-09-2009 23:42:03 15.6 C 9.04 g/m*3 15.6 C 0 km/h
2159 22-09-2009 23:54:03 15.4 C 9.2 g/m*3 15.4 C 0 km/h
2160 23-09-2009 00:06:03 15.1 C 9.16 g/m*3 15.1 C 0 km/h
2161 23-09-2009 00:18:03 14.8 C 9.25 g/m*3 14.8 C 0 km/h
2162 23-09-2009 00:30:03 14.7 C 9.32 g/m*3 14.7 C 0 km/h
2163 23-09-2009 00:42:03 14.6 C 9.26 g/m*3 14.6 C 0 km/h
2164 23-09-2009 00:54:03 14.4 C 9.27 g/m*3 14.4 C 0 km/h
2165 23-09-2009 01:06:03 14.4 C 9.27 g/m*3 14.4 C 0 km/h
2166 23-09-2009 01:18:03 14.2 C 9.28 g/m*3 14.2 C 0 km/h
2167 23-09-2009 01:30:03 14.4 C 9.27 g/m*3 14.4 C 0 km/h
2168 23-09-2009 01:42:03 14.1 C 9.1 g/m*3 14.1 C 0 km/h
2169 23-09-2009 01:54:03 14 C 9.05 g/m*3 14 C 0 km/h
2170 23-09-2009 02:06:04 13.8 C 9.06 g/m*3 13.8 C 0 km/h
2171 23-09-2009 02:18:04 13.7 C 9.12 g/m*3 13.7 C 0 km/h
2172 23-09-2009 02:30:04 13.4 C 8.95 g/m*3 13.4 C 0 km/h
2173 23-09-2009 02:42:04 13.3 C 9.01 g/m*3 13.3 C 0 km/h
2174 23-09-2009 02:54:04 13.2 C 9.07 g/m*3 13.2 C 0 km/h
2175 23-09-2009 03:06:04 13.1 C 9.01 g/m*3 13.1 C 0 km/h
Sensor: Nr:Datum:Temp:Abs-Feuchte:Windchill:Wind:
Aussen-T/F 2176 23-09-2009 03:18:04 12.9 C 9.13 g/m*3 12.9 C 0 km/h
2177 23-09-2009 03:30:04 12.9 C 9.13 g/m*3 12.9 C 0 km/h
2178 23-09-2009 03:42:04 12.8 C 9.18 g/m*3 12.8 C 0 km/h
2179 23-09-2009 03:54:04 12.7 C 9.13 g/m*3 12.7 C 0 km/h
2180 23-09-2009 04:06:04 12.6 C 9.07 g/m*3 12.6 C 0 km/h
2181 23-09-2009 04:18:04 12.5 C 9.13 g/m*3 12.5 C 0 km/h
2182 23-09-2009 04:30:04 12.4 C 9.18 g/m*3 12.4 C 0 km/h
2183 23-09-2009 04:42:04 12.3 C 9.12 g/m*3 12.3 C 0 km/h
2184 23-09-2009 04:54:04 12.3 C 9.12 g/m*3 12.3 C 0 km/h
2185 23-09-2009 05:06:04 12.1 C 9.01 g/m*3 12.1 C 0 km/h
2186 23-09-2009 05:18:04 12.1 C 9.01 g/m*3 12.1 C 0 km/h
2187 23-09-2009 05:30:04 11.9 C 8.9 g/m*3 11.9 C 0 km/h
2188 23-09-2009 05:42:04 11.8 C 8.84 g/m*3 11.8 C 0 km/h
2189 23-09-2009 05:54:04 11.8 C 8.84 g/m*3 11.8 C 0 km/h
2190 23-09-2009 06:06:05 11.6 C 8.83 g/m*3 11.6 C 0 km/h
2191 23-09-2009 06:18:05 11.5 C 8.78 g/m*3 11.5 C 0 km/h
2192 23-09-2009 06:30:05 11.3 C 8.67 g/m*3 11.3 C 0 km/h
2193 23-09-2009 06:42:05 11.2 C 8.72 g/m*3 11.2 C 0 km/h
2194 23-09-2009 06:54:05 11.1 C 8.66 g/m*3 11.1 C 0 km/h
2195 23-09-2009 07:06:03 11.1 C 8.66 g/m*3 11.1 C 0 km/h
2196 23-09-2009 07:18:03 10.9 C 8.65 g/m*3 10.9 C 0 km/h
2197 23-09-2009 07:30:03 10.9 C 8.65 g/m*3 10.9 C 0 km/h
2198 23-09-2009 07:42:04 11 C 8.71 g/m*3 11 C 0 km/h
2199 23-09-2009 07:54:02 10.9 C 8.75 g/m*3 10.9 C 0 km/h
2200 23-09-2009 08:06:02 10.9 C 8.85 g/m*3 10.9 C 0 km/h
Sensor: Nr:Datum:Temp:Abs-Feuchte:Windchill:Wind:
Aussen-T/F 2201 23-09-2009 08:18:02 11 C 8.81 g/m*3 11 C 0 km/h
2202 23-09-2009 08:30:02 11 C 8.81 g/m*3 11 C 0 km/h
2203 23-09-2009 08:42:02 11.1 C 8.86 g/m*3 11.1 C 0 km/h
2204 23-09-2009 08:54:02 11.3 C 8.98 g/m*3 11.3 C 0 km/h
2205 23-09-2009 09:06:02 11.4 C 9.14 g/m*3 11.4 C 0 km/h
2206 23-09-2009 09:18:01 11.5 C 9.19 g/m*3 11.5 C 0 km/h
2207 23-09-2009 09:30:01 11.7 C 9.31 g/m*3 11.7 C 0 km/h
2208 23-09-2009 09:42:02 12.3 C 9.66 g/m*3 12.3 C 0 km/h
2209 23-09-2009 09:54:02 12.9 C 9.92 g/m*3 12.9 C 0 km/h
2210 23-09-2009 10:06:02 13.5 C 9.94 g/m*3 13.5 C 0 km/h
2211 23-09-2009 10:18:02 14.3 C 9.83 g/m*3 14.3 C 0 km/h
2212 23-09-2009 10:30:02 14.8 C 9.75 g/m*3 14.8 C 0 km/h
2213 23-09-2009 10:42:02 15.2 C 9.48 g/m*3 15.2 C 0 km/h
2214 23-09-2009 10:54:02 15.6 C 9.58 g/m*3 15.6 C 0 km/h
2215 23-09-2009 11:06:02 15.9 C 9.48 g/m*3 15.9 C 0 km/h
2216 23-09-2009 11:18:02 16.6 C 9.32 g/m*3 16.6 C 0 km/h
2217 23-09-2009 11:30:02 17.2 C 9.23 g/m*3 17.2 C 0 km/h
2218 23-09-2009 11:42:02 17.8 C 9.26 g/m*3 17.8 C 0 km/h
2219 23-09-2009 11:54:01 18.3 C 9.22 g/m*3 18.3 C 0 km/h
2220 23-09-2009 12:06:02 19.1 C 9.34 g/m*3 19.1 C 0 km/h
2221 23-09-2009 12:18:01 19.5 C 9.4 g/m*3 19.5 C 0 km/h
2222 23-09-2009 12:30:01 19.6 C 8.95 g/m*3 19.6 C 0 km/h
2223 23-09-2009 12:42:01 19.4 C 8.84 g/m*3 19.4 C 0 km/h
2224 23-09-2009 12:54:01 19.5 C 9.23 g/m*3 19.5 C 0 km/h
2225 23-09-2009 13:06:02 20.4 C 9.2 g/m*3 20.4 C 0 km/h
Sensor: Nr:Datum:Temp:Abs-Feuchte:Windchill:Wind:
Aussen-T/F 2226 23-09-2009 13:18:01 21 C 9.16 g/m*3 21 C 0 km/h
2227 23-09-2009 13:30:01 21.6 C 9.1 g/m*3 21.6 C 0 km/h
2228 23-09-2009 13:42:01 22.1 C 8.98 g/m*3 22.1 C 0 km/h
2229 23-09-2009 13:54:01 22.5 C 8.99 g/m*3 22.5 C 0 km/h
2230 23-09-2009 14:06:02 22.7 C 8.69 g/m*3 22.7 C 0 km/h
2231 23-09-2009 14:18:02 23.5 C 8.88 g/m*3 23.5 C 0 km/h
2232 23-09-2009 14:30:02 24.1 C 8.53 g/m*3 24.1 C 0 km/h
2233 23-09-2009 14:42:01 24.3 C 8.63 g/m*3 24.3 C 0 km/h
2234 23-09-2009 14:54:01 24.7 C 8.6 g/m*3 24.7 C 0 km/h
2235 23-09-2009 15:06:02 25.6 C 8.33 g/m*3 25.6 C 0 km/h
2236 23-09-2009 15:18:01 26.1 C 8.32 g/m*3 26.1 C 0 km/h
2237 23-09-2009 15:30:01 26.1 C 8.57 g/m*3 26.1 C 0 km/h
2238 23-09-2009 15:42:02 26.6 C 8.31 g/m*3 26.6 C 0 km/h
2239 23-09-2009 15:54:02 26.6 C 8.56 g/m*3 26.6 C 0 km/h
2240 23-09-2009 16:06:02 27.1 C 8.02 g/m*3 27.1 C 0 km/h
2241 23-09-2009 16:18:02 26.8 C 8.14 g/m*3 26.8 C 0 km/h
2242 23-09-2009 16:30:02 26.1 C 8.57 g/m*3 26.1 C 0 km/h
2243 23-09-2009 16:42:02 26.4 C 8.71 g/m*3 26.4 C 0 km/h
2244 23-09-2009 16:54:01 27.5 C 8.2 g/m*3 27.5 C 0 km/h
2245 23-09-2009 17:06:02 27.6 C 8.25 g/m*3 27.6 C 0 km/h
2246 23-09-2009 17:18:01 26.2 C 8.62 g/m*3 26.2 C 0 km/h
2247 23-09-2009 17:30:01 25.3 C 9.13 g/m*3 25.3 C 0 km/h
2248 23-09-2009 17:42:02 24.5 C 9.4 g/m*3 24.5 C 0 km/h
2249 23-09-2009 17:54:02 23.7 C 9.63 g/m*3 23.7 C 0 km/h
2250 23-09-2009 18:06:02 23.7 C 9.84 g/m*3 23.7 C 0 km/h
Sensor: Nr:Datum:Temp:Abs-Feuchte:Windchill:Wind:
Aussen-T/F 2251 23-09-2009 18:18:01 24 C 9.36 g/m*3 24 C 0 km/h
2252 23-09-2009 18:30:01 24 C 9.57 g/m*3 24 C 0 km/h
2253 23-09-2009 18:42:02 23.8 C 9.68 g/m*3 23.8 C 0 km/h
2254 23-09-2009 18:54:02 23 C 9.66 g/m*3 23 C 0 km/h
2255 23-09-2009 19:06:02 21.6 C 9.48 g/m*3 21.6 C 0 km/h
2256 23-09-2009 19:18:02 21.1 C 9.58 g/m*3 21.1 C 0 km/h
2257 23-09-2009 19:30:02 20.8 C 9.78 g/m*3 20.8 C 0 km/h
2258 23-09-2009 19:42:02 20.3 C 9.67 g/m*3 20.3 C 0 km/h
2259 23-09-2009 19:54:01 20 C 9.85 g/m*3 20 C 0 km/h
2260 23-09-2009 20:06:02 19.7 C 10.02 g/m*3 19.7 C 0 km/h
2261 23-09-2009 20:18:01 19.4 C 9.84 g/m*3 19.4 C 0 km/h
2262 23-09-2009 20:30:01 19.1 C 10 g/m*3 19.1 C 0 km/h
2263 23-09-2009 20:42:01 18.7 C 10.09 g/m*3 18.7 C 0 km/h
2264 23-09-2009 20:54:01 18.4 C 10.07 g/m*3 18.4 C 0 km/h
2265 23-09-2009 21:06:02 18.4 C 10.22 g/m*3 18.4 C 0 km/h
2266 23-09-2009 21:18:01 18.6 C 10.19 g/m*3 18.6 C 0 km/h
2267 23-09-2009 21:30:01 18.5 C 10.13 g/m*3 18.5 C 0 km/h
2268 23-09-2009 21:42:01 18.3 C 10.16 g/m*3 18.3 C 0 km/h
2269 23-09-2009 21:54:01 18 C 10.14 g/m*3 18 C 0 km/h
2270 23-09-2009 22:06:02 17.9 C 10.23 g/m*3 17.9 C 0 km/h
2271 23-09-2009 22:18:01 18.2 C 10.26 g/m*3 18.2 C 0 km/h
2272 23-09-2009 22:30:01 18.2 C 10.1 g/m*3 18.2 C 0 km/h
2273 23-09-2009 22:42:02 18.2 C 10.26 g/m*3 18.2 C 0 km/h
2274 23-09-2009 22:54:02 18.3 C 10.32 g/m*3 18.3 C 0 km/h
2275 23-09-2009 23:06:02 18.2 C 10.26 g/m*3 18.2 C 0 km/h
Sensor: Nr:Datum:Temp:Abs-Feuchte:Windchill:Wind:
Aussen-T/F 2276 23-09-2009 23:18:02 18.1 C 10.35 g/m*3 18.1 C 0 km/h
2277 23-09-2009 23:30:02 18.1 C 10.35 g/m*3 18.1 C 0 km/h
2278 23-09-2009 23:42:02 18 C 10.29 g/m*3 18 C 0 km/h
2279 23-09-2009 23:54:02 17.8 C 10.47 g/m*3 17.8 C 0 km/h
2280 24-09-2009 00:06:02 17.6 C 10.5 g/m*3 17.6 C 0 km/h
2281 24-09-2009 00:18:02 17.6 C 10.5 g/m*3 17.6 C 0 km/h
2282 24-09-2009 00:30:02 17.5 C 10.44 g/m*3 17.5 C 0 km/h
2283 24-09-2009 00:42:02 17.2 C 10.4 g/m*3 17.2 C 0 km/h
2284 24-09-2009 00:54:01 16.9 C 10.5 g/m*3 16.9 C 0 km/h
2285 24-09-2009 01:06:02 16.7 C 10.37 g/m*3 16.7 C 0 km/h
2286 24-09-2009 01:18:01 16.8 C 10.58 g/m*3 16.8 C 0 km/h
2287 24-09-2009 01:30:01 16.8 C 10.58 g/m*3 16.8 C 0 km/h
2288 24-09-2009 01:42:01 16.8 C 10.58 g/m*3 16.8 C 0 km/h
2289 24-09-2009 01:54:01 16.6 C 10.59 g/m*3 16.6 C 0 km/h
2290 24-09-2009 02:06:02 16.6 C 10.59 g/m*3 16.6 C 0 km/h
2291 24-09-2009 02:18:01 16.6 C 10.59 g/m*3 16.6 C 0 km/h
2292 24-09-2009 02:30:01 16.6 C 10.59 g/m*3 16.6 C 0 km/h
2293 24-09-2009 02:42:02 16.5 C 10.67 g/m*3 16.5 C 0 km/h
2294 24-09-2009 02:55:03 16.5 C 10.67 g/m*3 16.5 C 0 km/h
2295 24-09-2009 03:07:03 16.6 C 10.59 g/m*3 16.6 C 0 km/h
2296 24-09-2009 03:19:03 16.6 C 10.59 g/m*3 16.6 C 0 km/h
2297 24-09-2009 03:31:01 16.3 C 10.54 g/m*3 16.3 C 0 km/h
2298 24-09-2009 03:43:01 16.1 C 10.55 g/m*3 16.1 C 0 km/h
2299 24-09-2009 03:55:01 16.2 C 10.62 g/m*3 16.2 C 0 km/h
2300 24-09-2009 04:07:02 16.3 C 10.68 g/m*3 16.3 C 0 km/h
Sensor: Nr:Datum:Temp:Abs-Feuchte:Windchill:Wind:
Aussen-T/F 2301 24-09-2009 04:19:01 16.4 C 10.75 g/m*3 16.4 C 0 km/h
2302 24-09-2009 04:31:02 16.4 C 10.75 g/m*3 16.4 C 0 km/h
2303 24-09-2009 04:43:03 16.4 C 10.61 g/m*3 16.4 C 0 km/h
2304 24-09-2009 04:55:02 16.4 C 10.61 g/m*3 16.4 C 0 km/h
2305 24-09-2009 05:07:02 16.4 C 10.61 g/m*3 16.4 C 0 km/h
2306 24-09-2009 05:19:01 16.2 C 10.62 g/m*3 16.2 C 0 km/h
2307 24-09-2009 05:31:02 16.2 C 10.62 g/m*3 16.2 C 0 km/h
2308 24-09-2009 05:43:02 16.2 C 10.76 g/m*3 16.2 C 0 km/h
2309 24-09-2009 05:55:02 16.3 C 10.82 g/m*3 16.3 C 0 km/h
2310 24-09-2009 06:07:02 16.3 C 10.68 g/m*3 16.3 C 0 km/h
2311 24-09-2009 06:19:01 16.2 C 10.62 g/m*3 16.2 C 0 km/h
2312 24-09-2009 06:31:02 16.2 C 10.62 g/m*3 16.2 C 0 km/h
2313 24-09-2009 06:43:02 16 C 10.63 g/m*3 16 C 0 km/h
2314 24-09-2009 06:55:02 16 C 10.63 g/m*3 16 C 0 km/h
2315 24-09-2009 07:07:02 15.9 C 10.7 g/m*3 15.9 C 0 km/h
2316 24-09-2009 07:19:01 15.9 C 10.7 g/m*3 15.9 C 0 km/h
2317 24-09-2009 07:31:02 16.1 C 10.69 g/m*3 16.1 C 0 km/h
2318 24-09-2009 07:43:02 16.2 C 10.76 g/m*3 16.2 C 0 km/h
2319 24-09-2009 07:55:02 16.2 C 10.76 g/m*3 16.2 C 0 km/h
2320 24-09-2009 08:07:02 16.2 C 10.62 g/m*3 16.2 C 0 km/h
2321 24-09-2009 08:19:02 16.1 C 10.55 g/m*3 16.1 C 0 km/h
2322 24-09-2009 08:31:02 16.2 C 10.62 g/m*3 16.2 C 0 km/h
2323 24-09-2009 08:43:02 16.3 C 10.68 g/m*3 16.3 C 0 km/h
2324 24-09-2009 08:55:01 16.5 C 10.81 g/m*3 16.5 C 0 km/h
2325 24-09-2009 09:07:02 16.6 C 10.74 g/m*3 16.6 C 0 km/h
Sensor: Nr:Datum:Temp:Abs-Feuchte:Windchill:Wind:
Aussen-T/F 2326 24-09-2009 09:19:02 16.5 C 10.67 g/m*3 16.5 C 0 km/h
2327 24-09-2009 09:31:02 16.6 C 10.74 g/m*3 16.6 C 0 km/h
2328 24-09-2009 09:43:02 16.8 C 10.58 g/m*3 16.8 C 0 km/h
2329 24-09-2009 09:55:01 16.9 C 10.64 g/m*3 16.9 C 0 km/h
2330 24-09-2009 10:07:02 16.9 C 10.64 g/m*3 16.9 C 0 km/h
2331 24-09-2009 10:19:01 17.1 C 10.77 g/m*3 17.1 C 0 km/h
2332 24-09-2009 10:31:02 17.3 C 10.75 g/m*3 17.3 C 0 km/h
2333 24-09-2009 10:43:02 17.8 C 10.93 g/m*3 17.8 C 0 km/h
2334 24-09-2009 10:55:02 18.1 C 10.66 g/m*3 18.1 C 0 km/h
2335 24-09-2009 11:07:02 18.4 C 10.7 g/m*3 18.4 C 0 km/h
2336 24-09-2009 11:19:02 18.6 C 10.82 g/m*3 18.6 C 0 km/h
2337 24-09-2009 11:31:02 19.3 C 10.62 g/m*3 19.3 C 0 km/h
2338 24-09-2009 11:43:03 19.7 C 10.36 g/m*3 19.7 C 0 km/h
2339 24-09-2009 11:55:02 20.1 C 10.43 g/m*3 20.1 C 0 km/h
2340 24-09-2009 12:07:02 20.1 C 10.08 g/m*3 20.1 C 0 km/h
2341 24-09-2009 12:19:02 19.9 C 10.48 g/m*3 19.9 C 0 km/h
2342 24-09-2009 12:31:02 19.5 C 10.41 g/m*3 19.5 C 0 km/h
2343 24-09-2009 12:43:02 19.9 C 10.65 g/m*3 19.9 C 0 km/h
2344 24-09-2009 12:55:01 20.6 C 10.56 g/m*3 20.6 C 0 km/h
2345 24-09-2009 13:07:01 20.9 C 10.38 g/m*3 20.9 C 0 km/h
2346 24-09-2009 13:19:01 19.4 C 10.34 g/m*3 19.4 C 0 km/h
2347 24-09-2009 13:31:01 17.7 C 11.16 g/m*3 17.7 C 0 km/h
2348 24-09-2009 13:43:01 17.5 C 11.33 g/m*3 17.5 C 0 km/h
2349 24-09-2009 13:55:01 17.6 C 11.4 g/m*3 17.6 C 0 km/h
2350 24-09-2009 14:07:01 18.1 C 10.97 g/m*3 18.1 C 0 km/h
Sensor: Nr:Datum:Temp:Abs-Feuchte:Windchill:Wind:
Aussen-T/F 2351 24-09-2009 14:19:01 18.5 C 10.6 g/m*3 18.5 C 0 km/h
2352 24-09-2009 14:31:01 18.7 C 10.25 g/m*3 18.7 C 0 km/h
2353 24-09-2009 14:43:01 19.4 C 10.51 g/m*3 19.4 C 0 km/h
2354 24-09-2009 14:55:01 19.8 C 10.08 g/m*3 19.8 C 0 km/h
2355 24-09-2009 15:07:01 20.3 C 10.02 g/m*3 20.3 C 0 km/h
2356 24-09-2009 15:19:02 20.2 C 9.97 g/m*3 20.2 C 0 km/h
2357 24-09-2009 15:31:01 19.7 C 9.85 g/m*3 19.7 C 0 km/h
2358 24-09-2009 15:43:01 19.4 C 10.01 g/m*3 19.4 C 0 km/h
2359 24-09-2009 15:55:01 19.7 C 10.02 g/m*3 19.7 C 0 km/h
2360 24-09-2009 16:07:01 19.7 C 9.51 g/m*3 19.7 C 0 km/h
2361 24-09-2009 16:19:02 19.6 C 9.96 g/m*3 19.6 C 0 km/h
2362 24-09-2009 16:31:01 19.5 C 9.9 g/m*3 19.5 C 0 km/h
2363 24-09-2009 16:43:01 19.5 C 9.73 g/m*3 19.5 C 0 km/h
2364 24-09-2009 16:55:02 19 C 9.61 g/m*3 19 C 0 km/h
2365 24-09-2009 17:07:02 19 C 9.78 g/m*3 19 C 0 km/h
2366 24-09-2009 17:19:03 18.8 C 9.66 g/m*3 18.8 C 0 km/h
2367 24-09-2009 17:31:02 18.5 C 9.81 g/m*3 18.5 C 0 km/h
2368 24-09-2009 17:43:02 18.5 C 9.97 g/m*3 18.5 C 0 km/h
2369 24-09-2009 17:55:03 18.5 C 10.13 g/m*3 18.5 C 0 km/h
2370 24-09-2009 18:07:02 18.6 C 10.35 g/m*3 18.6 C 0 km/h
2371 24-09-2009 18:19:02 18.5 C 10.28 g/m*3 18.5 C 0 km/h
2372 24-09-2009 18:31:02 18.5 C 10.13 g/m*3 18.5 C 0 km/h
2373 24-09-2009 18:43:02 18.2 C 9.79 g/m*3 18.2 C 0 km/h
2374 24-09-2009 18:55:02 18.3 C 10.01 g/m*3 18.3 C 0 km/h
2375 24-09-2009 19:07:02 17.9 C 9.77 g/m*3 17.9 C 0 km/h
Sensor: Nr:Datum:Temp:Abs-Feuchte:Windchill:Wind:
Aussen-T/F 2376 24-09-2009 19:19:02 17.7 C 9.66 g/m*3 17.7 C 0 km/h
2377 24-09-2009 19:31:02 17.6 C 9.6 g/m*3 17.6 C 0 km/h
2378 24-09-2009 19:43:02 17.4 C 9.63 g/m*3 17.4 C 0 km/h
2379 24-09-2009 19:55:02 17.2 C 9.67 g/m*3 17.2 C 0 km/h
2380 24-09-2009 20:07:01 16.9 C 9.92 g/m*3 16.9 C 0 km/h
2381 24-09-2009 20:19:02 16.6 C 10.03 g/m*3 16.6 C 0 km/h
2382 24-09-2009 20:31:02 16.4 C 10.05 g/m*3 16.4 C 0 km/h
2383 24-09-2009 20:43:02 16.1 C 10.01 g/m*3 16.1 C 0 km/h
2384 24-09-2009 20:55:02 15.7 C 10.03 g/m*3 15.7 C 0 km/h
2385 24-09-2009 21:07:01 15.5 C 10.05 g/m*3 15.5 C 0 km/h
2386 24-09-2009 21:19:02 15.5 C 10.18 g/m*3 15.5 C 0 km/h
2387 24-09-2009 21:31:01 15.3 C 10.19 g/m*3 15.3 C 0 km/h
2388 24-09-2009 21:43:01 15 C 10.13 g/m*3 15 C 0 km/h
2389 24-09-2009 21:55:03 14.8 C 10.26 g/m*3 14.8 C 0 km/h
2390 24-09-2009 22:08:03 14.8 C 10.39 g/m*3 14.8 C 0 km/h
2391 24-09-2009 22:20:03 14.7 C 10.32 g/m*3 14.7 C 0 km/h
2392 24-09-2009 22:32:03 14.3 C 10.2 g/m*3 14.3 C 0 km/h
2393 24-09-2009 22:44:03 14.1 C 10.07 g/m*3 14.1 C 0 km/h
2394 24-09-2009 22:56:04 14 C 10.01 g/m*3 14 C 0 km/h
2395 24-09-2009 23:08:04 14 C 10.13 g/m*3 14 C 0 km/h
2396 24-09-2009 23:20:04 14 C 10.13 g/m*3 14 C 0 km/h
2397 24-09-2009 23:32:04 13.8 C 10.13 g/m*3 13.8 C 0 km/h
2398 24-09-2009 23:44:04 13.4 C 9.88 g/m*3 13.4 C 0 km/h
2399 24-09-2009 23:56:04 13.2 C 9.76 g/m*3 13.2 C 0 km/h
2400 25-09-2009 00:08:04 13 C 9.64 g/m*3 13 C 0 km/h
Sensor: Nr:Datum:Temp:Abs-Feuchte:Windchill:Wind:
Aussen-T/F 2401 25-09-2009 00:20:04 12.8 C 9.63 g/m*3 12.8 C 0 km/h
2402 25-09-2009 00:32:04 12.7 C 9.57 g/m*3 12.7 C 0 km/h
2403 25-09-2009 00:44:04 12.5 C 9.57 g/m*3 12.5 C 0 km/h
2404 25-09-2009 00:56:04 12.4 C 9.51 g/m*3 12.4 C 0 km/h
2405 25-09-2009 01:08:04 12.3 C 9.45 g/m*3 12.3 C 0 km/h
2406 25-09-2009 01:20:04 12.5 C 9.68 g/m*3 12.5 C 0 km/h
2407 25-09-2009 01:32:04 12.6 C 9.74 g/m*3 12.6 C 0 km/h
2408 25-09-2009 01:44:04 12.6 C 9.74 g/m*3 12.6 C 0 km/h
2409 25-09-2009 01:56:04 12.7 C 9.8 g/m*3 12.7 C 0 km/h
2410 25-09-2009 02:08:04 12.8 C 9.74 g/m*3 12.8 C 0 km/h
2411 25-09-2009 02:20:04 12.8 C 9.74 g/m*3 12.8 C 0 km/h
2412 25-09-2009 02:32:04 12.8 C 9.63 g/m*3 12.8 C 0 km/h
2413 25-09-2009 02:44:04 12.7 C 9.57 g/m*3 12.7 C 0 km/h
2414 25-09-2009 02:56:04 12.5 C 9.57 g/m*3 12.5 C 0 km/h
2415 25-09-2009 03:08:05 12.4 C 9.51 g/m*3 12.4 C 0 km/h
2416 25-09-2009 03:20:05 12.2 C 9.39 g/m*3 12.2 C 0 km/h
2417 25-09-2009 03:32:05 12.3 C 9.56 g/m*3 12.3 C 0 km/h
2418 25-09-2009 03:44:05 12.3 C 9.56 g/m*3 12.3 C 0 km/h
2419 25-09-2009 03:56:05 12.4 C 9.62 g/m*3 12.4 C 0 km/h
2420 25-09-2009 04:08:05 12.3 C 9.56 g/m*3 12.3 C 0 km/h
2421 25-09-2009 04:20:05 11.8 C 9.26 g/m*3 11.8 C 0 km/h
2422 25-09-2009 04:32:05 11.7 C 9.2 g/m*3 11.7 C 0 km/h
2423 25-09-2009 04:44:05 11.7 C 9.31 g/m*3 11.7 C 0 km/h
2424 25-09-2009 04:56:05 11.5 C 9.19 g/m*3 11.5 C 0 km/h
2425 25-09-2009 05:08:05 11.2 C 9.02 g/m*3 11.2 C 0 km/h
Sensor: Nr:Datum:Temp:Abs-Feuchte:Windchill:Wind:
Aussen-T/F 2426 25-09-2009 05:20:05 11.1 C 8.96 g/m*3 11.1 C 0 km/h
2427 25-09-2009 05:32:05 11.1 C 9.07 g/m*3 11.1 C 0 km/h
2428 25-09-2009 05:44:05 11 C 9.01 g/m*3 11 C 0 km/h
2429 25-09-2009 05:56:05 10.8 C 8.9 g/m*3 10.8 C 0 km/h
2430 25-09-2009 06:08:05 10.8 C 8.99 g/m*3 10.8 C 0 km/h
2431 25-09-2009 06:20:05 10.9 C 9.05 g/m*3 10.9 C 0 km/h
2432 25-09-2009 06:32:05 11 C 9.01 g/m*3 11 C 0 km/h
2433 25-09-2009 06:44:05 10.9 C 8.95 g/m*3 10.9 C 0 km/h
2434 25-09-2009 06:56:05 10.9 C 8.95 g/m*3 10.9 C 0 km/h
2435 25-09-2009 07:08:06 11.1 C 8.96 g/m*3 11.1 C 0 km/h
2436 25-09-2009 07:20:06 11.1 C 8.96 g/m*3 11.1 C 0 km/h
2437 25-09-2009 07:32:04 11 C 8.91 g/m*3 11 C 0 km/h
2438 25-09-2009 07:44:04 10.9 C 8.95 g/m*3 10.9 C 0 km/h
2439 25-09-2009 07:56:02 11.1 C 9.07 g/m*3 11.1 C 0 km/h
2440 25-09-2009 08:08:02 11.3 C 9.18 g/m*3 11.3 C 0 km/h
2441 25-09-2009 08:20:02 11.4 C 9.14 g/m*3 11.4 C 0 km/h
2442 25-09-2009 08:32:02 11.6 C 9.25 g/m*3 11.6 C 0 km/h
2443 25-09-2009 08:44:02 11.9 C 9.43 g/m*3 11.9 C 0 km/h
2444 25-09-2009 08:56:02 11.8 C 9.16 g/m*3 11.8 C 0 km/h
2445 25-09-2009 09:08:01 11.9 C 9.21 g/m*3 11.9 C 0 km/h
2446 25-09-2009 09:20:01 12.4 C 9.4 g/m*3 12.4 C 0 km/h
2447 25-09-2009 09:32:02 12.7 C 9.35 g/m*3 12.7 C 0 km/h
2448 25-09-2009 09:44:02 13.2 C 9.42 g/m*3 13.2 C 0 km/h
2449 25-09-2009 09:56:02 13.4 C 9.18 g/m*3 13.4 C 0 km/h
2450 25-09-2009 10:08:02 14 C 9.17 g/m*3 14 C 0 km/h
Sensor: Nr:Datum:Temp:Abs-Feuchte:Windchill:Wind:
Aussen-T/F 2451 25-09-2009 10:20:02 14.1 C 8.86 g/m*3 14.1 C 0 km/h
2452 25-09-2009 10:32:02 14.3 C 8.85 g/m*3 14.3 C 0 km/h
2453 25-09-2009 10:44:02 14.4 C 8.65 g/m*3 14.4 C 0 km/h
2454 25-09-2009 10:56:02 14.6 C 8.76 g/m*3 14.6 C 0 km/h
2455 25-09-2009 11:08:02 14.7 C 8.69 g/m*3 14.7 C 0 km/h
2456 25-09-2009 11:20:01 15 C 8.59 g/m*3 15 C 0 km/h
2457 25-09-2009 11:32:02 15 C 8.72 g/m*3 15 C 0 km/h
2458 25-09-2009 11:44:02 15 C 8.85 g/m*3 15 C 0 km/h
2459 25-09-2009 11:56:02 15.5 C 8.99 g/m*3 15.5 C 0 km/h
2460 25-09-2009 12:08:02 15.7 C 8.83 g/m*3 15.7 C 0 km/h
2461 25-09-2009 12:20:02 16.3 C 8.74 g/m*3 16.3 C 0 km/h
2462 25-09-2009 12:32:02 16.6 C 8.9 g/m*3 16.6 C 0 km/h
2463 25-09-2009 12:44:02 16.9 C 8.77 g/m*3 16.9 C 0 km/h
2464 25-09-2009 12:56:03 17.7 C 8.6 g/m*3 17.7 C 0 km/h
2465 25-09-2009 13:08:02 18.2 C 8.24 g/m*3 18.2 C 0 km/h
2466 25-09-2009 13:20:02 18.8 C 8.37 g/m*3 18.8 C 0 km/h
2467 25-09-2009 13:32:02 19.4 C 7.67 g/m*3 19.4 C 0 km/h
2468 25-09-2009 13:44:02 20 C 7.09 g/m*3 20 C 0 km/h
2469 25-09-2009 13:56:02 20.9 C 7.1 g/m*3 20.9 C 0 km/h
2470 25-09-2009 14:08:02 21 C 5.86 g/m*3 21 C 0 km/h
2471 25-09-2009 14:20:01 21.3 C 6.15 g/m*3 21.3 C 0 km/h
2472 25-09-2009 14:32:02 22.7 C 6.26 g/m*3 22.7 C 0 km/h
2473 25-09-2009 14:44:02 22.1 C 6.05 g/m*3 22.1 C 0 km/h
2474 25-09-2009 14:56:02 21.5 C 6.6 g/m*3 21.5 C 0 km/h
2475 25-09-2009 15:08:02 20.4 C 6.55 g/m*3 20.4 C 0 km/h
Sensor: Nr:Datum:Temp:Abs-Feuchte:Windchill:Wind:
Aussen-T/F 2476 25-09-2009 15:20:02 20.5 C 7.12 g/m*3 20.5 C 0 km/h
2477 25-09-2009 15:32:02 22.1 C 6.44 g/m*3 22.1 C 0 km/h
2478 25-09-2009 15:44:02 23.1 C 5.58 g/m*3 23.1 C 0 km/h
2479 25-09-2009 15:56:02 21.1 C 5.53 g/m*3 21.1 C 0 km/h
2480 25-09-2009 16:08:02 21.3 C 5.96 g/m*3 21.3 C 0 km/h
2481 25-09-2009 16:20:02 21.2 C 6.12 g/m*3 21.2 C 0 km/h
2482 25-09-2009 16:32:02 20.4 C 6.37 g/m*3 20.4 C 0 km/h
2483 25-09-2009 16:44:02 20.5 C 6.41 g/m*3 20.5 C 0 km/h
2484 25-09-2009 16:56:02 21.4 C 6.19 g/m*3 21.4 C 0 km/h
2485 25-09-2009 17:08:02 20.8 C 5.98 g/m*3 20.8 C 0 km/h
2486 25-09-2009 17:20:02 21.5 C 6.22 g/m*3 21.5 C 0 km/h
2487 25-09-2009 17:32:02 21.5 C 6.41 g/m*3 21.5 C 0 km/h
2488 25-09-2009 17:44:02 20.8 C 6.7 g/m*3 20.8 C 0 km/h
2489 25-09-2009 17:56:01 20 C 6.91 g/m*3 20 C 0 km/h
2490 25-09-2009 18:08:01 19.9 C 7.39 g/m*3 19.9 C 0 km/h
2491 25-09-2009 18:20:02 19.5 C 7.55 g/m*3 19.5 C 0 km/h
2492 25-09-2009 18:32:01 19.1 C 7.38 g/m*3 19.1 C 0 km/h
2493 25-09-2009 18:44:01 18.6 C 7.48 g/m*3 18.6 C 0 km/h
2494 25-09-2009 18:56:02 18.4 C 7.55 g/m*3 18.4 C 0 km/h
2495 25-09-2009 19:08:02 17.8 C 7.44 g/m*3 17.8 C 0 km/h
2496 25-09-2009 19:20:03 17 C 7.23 g/m*3 17 C 0 km/h
2497 25-09-2009 19:32:02 16.8 C 7.43 g/m*3 16.8 C 0 km/h
2498 25-09-2009 19:44:02 16.5 C 7.44 g/m*3 16.5 C 0 km/h
2499 25-09-2009 19:56:03 16.2 C 7.31 g/m*3 16.2 C 0 km/h
2500 25-09-2009 20:08:02 16 C 7.49 g/m*3 16 C 0 km/h
Sensor: Nr:Datum:Temp:Abs-Feuchte:Windchill:Wind:
Aussen-T/F 2501 25-09-2009 20:20:02 15.6 C 7.45 g/m*3 15.6 C 0 km/h
2502 25-09-2009 20:32:02 15.2 C 7.53 g/m*3 15.2 C 0 km/h
2503 25-09-2009 20:44:02 15.1 C 7.61 g/m*3 15.1 C 0 km/h
2504 25-09-2009 20:56:02 15.3 C 7.7 g/m*3 15.3 C 0 km/h
2505 25-09-2009 21:08:02 15.5 C 7.93 g/m*3 15.5 C 0 km/h
2506 25-09-2009 21:20:02 15.5 C 8.06 g/m*3 15.5 C 0 km/h
2507 25-09-2009 21:32:02 15.6 C 8.11 g/m*3 15.6 C 0 km/h
2508 25-09-2009 21:44:02 15.4 C 8.01 g/m*3 15.4 C 0 km/h
2509 25-09-2009 21:56:02 15.1 C 8 g/m*3 15.1 C 0 km/h
2510 25-09-2009 22:08:02 14.9 C 8.03 g/m*3 14.9 C 0 km/h
2511 25-09-2009 22:21:03 14.6 C 8.01 g/m*3 14.6 C 0 km/h
2512 25-09-2009 22:33:03 14.3 C 7.86 g/m*3 14.3 C 0 km/h
2513 25-09-2009 22:45:03 13.9 C 7.91 g/m*3 13.9 C 0 km/h
2514 25-09-2009 22:57:03 13.7 C 7.93 g/m*3 13.7 C 0 km/h
2515 25-09-2009 23:09:03 13.3 C 7.97 g/m*3 13.3 C 0 km/h
2516 25-09-2009 23:21:03 13.1 C 7.99 g/m*3 13.1 C 0 km/h
2517 25-09-2009 23:33:03 13 C 8.05 g/m*3 13 C 0 km/h
2518 25-09-2009 23:45:03 12.7 C 8.13 g/m*3 12.7 C 0 km/h
2519 25-09-2009 23:57:03 12.6 C 8.08 g/m*3 12.6 C 0 km/h
2520 26-09-2009 00:09:03 12.4 C 8.09 g/m*3 12.4 C 0 km/h
2521 26-09-2009 00:21:03 12.1 C 7.94 g/m*3 12.1 C 0 km/h
2522 26-09-2009 00:33:03 12.1 C 8.04 g/m*3 12.1 C 0 km/h
2523 26-09-2009 00:45:03 11.8 C 8.1 g/m*3 11.8 C 0 km/h
2524 26-09-2009 00:57:03 11.8 C 8.1 g/m*3 11.8 C 0 km/h
2525 26-09-2009 01:09:03 11.7 C 8.05 g/m*3 11.7 C 0 km/h
Sensor: Nr:Datum:Temp:Abs-Feuchte:Windchill:Wind:
Aussen-T/F 2526 26-09-2009 01:21:03 11.6 C 8.11 g/m*3 11.6 C 0 km/h
2527 26-09-2009 01:33:03 11.7 C 8.16 g/m*3 11.7 C 0 km/h
2528 26-09-2009 01:45:03 11.5 C 8.06 g/m*3 11.5 C 0 km/h
2529 26-09-2009 01:57:03 11.2 C 7.91 g/m*3 11.2 C 0 km/h
2530 26-09-2009 02:09:04 11.1 C 7.86 g/m*3 11.1 C 0 km/h
2531 26-09-2009 02:21:04 10.9 C 7.86 g/m*3 10.9 C 0 km/h
2532 26-09-2009 02:33:04 10.7 C 7.86 g/m*3 10.7 C 0 km/h
2533 26-09-2009 02:45:04 10.6 C 7.81 g/m*3 10.6 C 0 km/h
2534 26-09-2009 02:57:04 10.4 C 7.81 g/m*3 10.4 C 0 km/h
2535 26-09-2009 03:09:04 10.1 C 7.66 g/m*3 10.1 C 0 km/h
2536 26-09-2009 03:21:04 10 C 7.61 g/m*3 10 C 0 km/h
2537 26-09-2009 03:33:04 9.8 C 7.61 g/m*3 9.8 C 0 km/h
2538 26-09-2009 03:45:04 9.7 C 7.65 g/m*3 9.7 C 0 km/h
2539 26-09-2009 03:57:04 9.5 C 7.55 g/m*3 9.5 C 0 km/h
2540 26-09-2009 04:09:04 9.3 C 7.55 g/m*3 9.3 C 0 km/h
2541 26-09-2009 04:21:04 9.2 C 7.5 g/m*3 9.2 C 0 km/h
2542 26-09-2009 04:33:04 9.1 C 7.54 g/m*3 9.1 C 0 km/h
2543 26-09-2009 04:45:04 9 C 7.49 g/m*3 9 C 0 km/h
2544 26-09-2009 04:57:04 8.8 C 7.57 g/m*3 8.8 C 0 km/h
2545 26-09-2009 05:09:04 8.7 C 7.52 g/m*3 8.7 C 0 km/h
2546 26-09-2009 05:21:04 8.6 C 7.48 g/m*3 8.6 C 0 km/h
2547 26-09-2009 05:33:04 8.5 C 7.43 g/m*3 8.5 C 0 km/h
2548 26-09-2009 05:45:04 8.4 C 7.3 g/m*3 8.4 C 0 km/h
2549 26-09-2009 05:57:04 8.2 C 7.29 g/m*3 8.2 C 0 km/h
2550 26-09-2009 06:09:05 8 C 7.19 g/m*3 8 C 0 km/h
Sensor: Nr:Datum:Temp:Abs-Feuchte:Windchill:Wind:
Aussen-T/F 2551 26-09-2009 06:21:05 7.8 C 7.26 g/m*3 7.8 C 0 km/h
2552 26-09-2009 06:33:05 7.8 C 7.26 g/m*3 7.8 C 0 km/h
2553 26-09-2009 06:45:05 7.8 C 7.26 g/m*3 7.8 C 0 km/h
2554 26-09-2009 06:57:05 7.8 C 7.35 g/m*3 7.8 C 0 km/h
2555 26-09-2009 07:09:05 7.9 C 7.39 g/m*3 7.9 C 0 km/h
2556 26-09-2009 07:21:05 7.9 C 7.39 g/m*3 7.9 C 0 km/h
2557 26-09-2009 07:33:05 7.9 C 7.39 g/m*3 7.9 C 0 km/h
2558 26-09-2009 07:45:05 8.1 C 7.41 g/m*3 8.1 C 0 km/h
2559 26-09-2009 07:57:05 7.9 C 7.39 g/m*3 7.9 C 0 km/h
2560 26-09-2009 08:09:05 7.8 C 7.43 g/m*3 7.8 C 0 km/h
2561 26-09-2009 08:21:05 7.9 C 7.47 g/m*3 7.9 C 0 km/h
2562 26-09-2009 08:33:05 8 C 7.44 g/m*3 8 C 0 km/h
2563 26-09-2009 08:45:02 8.1 C 7.49 g/m*3 8.1 C 0 km/h
2564 26-09-2009 08:57:02 8.5 C 7.77 g/m*3 8.5 C 0 km/h
2565 26-09-2009 09:09:03 8.7 C 7.78 g/m*3 8.7 C 0 km/h
2566 26-09-2009 09:21:02 9.1 C 7.9 g/m*3 9.1 C 0 km/h
2567 26-09-2009 09:33:02 9.2 C 7.95 g/m*3 9.2 C 0 km/h
2568 26-09-2009 09:45:01 9.5 C 8.1 g/m*3 9.5 C 0 km/h
2569 26-09-2009 09:57:01 9.9 C 8.31 g/m*3 9.9 C 0 km/h
2570 26-09-2009 10:09:02 10.2 C 8.37 g/m*3 10.2 C 0 km/h
2571 26-09-2009 10:21:01 10.9 C 8.65 g/m*3 10.9 C 0 km/h
2572 26-09-2009 10:33:02 11.1 C 8.36 g/m*3 11.1 C 0 km/h
2573 26-09-2009 10:45:01 11.2 C 8.41 g/m*3 11.2 C 0 km/h
2574 26-09-2009 10:57:01 11.7 C 8.79 g/m*3 11.7 C 0 km/h
2575 26-09-2009 11:09:02 12.2 C 8.85 g/m*3 12.2 C 0 km/h
Sensor: Nr:Datum:Temp:Abs-Feuchte:Windchill:Wind:
Aussen-T/F 2576 26-09-2009 11:21:01 12.8 C 8.85 g/m*3 12.8 C 0 km/h
2577 26-09-2009 11:33:02 13.4 C 8.72 g/m*3 13.4 C 0 km/h
2578 26-09-2009 11:45:02 14.1 C 8.86 g/m*3 14.1 C 0 km/h
2579 26-09-2009 11:57:02 14.7 C 8.81 g/m*3 14.7 C 0 km/h
2580 26-09-2009 12:09:02 15.2 C 8.83 g/m*3 15.2 C 0 km/h
2581 26-09-2009 12:21:01 15.6 C 8.64 g/m*3 15.6 C 0 km/h
2582 26-09-2009 12:33:02 16.1 C 8.5 g/m*3 16.1 C 0 km/h
2583 26-09-2009 12:45:02 16.4 C 8.65 g/m*3 16.4 C 0 km/h
2584 26-09-2009 12:57:02 17.1 C 8.73 g/m*3 17.1 C 0 km/h
2585 26-09-2009 13:09:02 17.6 C 8.85 g/m*3 17.6 C 0 km/h
2586 26-09-2009 13:21:02 18.2 C 8.39 g/m*3 18.2 C 0 km/h
2587 26-09-2009 13:33:02 18.9 C 8.1 g/m*3 18.9 C 0 km/h
2588 26-09-2009 13:45:01 19.7 C 7.81 g/m*3 19.7 C 0 km/h
2589 26-09-2009 13:57:01 20.4 C 8.14 g/m*3 20.4 C 0 km/h
2590 26-09-2009 14:09:02 20.9 C 7.29 g/m*3 20.9 C 0 km/h
2591 26-09-2009 14:21:02 21.1 C 6.82 g/m*3 21.1 C 0 km/h
2592 26-09-2009 14:33:02 21.9 C 6.95 g/m*3 21.9 C 0 km/h
2593 26-09-2009 14:45:02 22.7 C 7.07 g/m*3 22.7 C 0 km/h
2594 26-09-2009 14:57:02 23 C 6.37 g/m*3 23 C 0 km/h
2595 26-09-2009 15:09:01 23.4 C 6.52 g/m*3 23.4 C 0 km/h
2596 26-09-2009 15:21:02 23.8 C 6.45 g/m*3 23.8 C 0 km/h
2597 26-09-2009 15:33:01 24.1 C 6.56 g/m*3 24.1 C 0 km/h
2598 26-09-2009 15:45:02 23.9 C 6.06 g/m*3 23.9 C 0 km/h
2599 26-09-2009 15:57:02 24 C 5.87 g/m*3 24 C 0 km/h
2600 26-09-2009 16:09:01 24.2 C 5.94 g/m*3 24.2 C 0 km/h
Sensor: Nr:Datum:Temp:Abs-Feuchte:Windchill:Wind:
Aussen-T/F 2601 26-09-2009 16:21:02 24.4 C 6.68 g/m*3 24.4 C 0 km/h
2602 26-09-2009 16:33:02 24.7 C 5.88 g/m*3 24.7 C 0 km/h
2603 26-09-2009 16:45:02 24.7 C 6.11 g/m*3 24.7 C 0 km/h
2604 26-09-2009 16:57:03 25.7 C 6.46 g/m*3 25.7 C 0 km/h
2605 26-09-2009 17:09:02 25.6 C 6.19 g/m*3 25.6 C 0 km/h
2606 26-09-2009 17:21:02 26 C 6.33 g/m*3 26 C 0 km/h
2607 26-09-2009 17:33:02 25.7 C 6.94 g/m*3 25.7 C 0 km/h
2608 26-09-2009 17:45:02 25.5 C 7.1 g/m*3 25.5 C 0 km/h
2609 26-09-2009 17:57:02 25 C 6.91 g/m*3 25 C 0 km/h
2610 26-09-2009 18:09:02 24.5 C 6.94 g/m*3 24.5 C 0 km/h
2611 26-09-2009 18:21:01 23.7 C 7.06 g/m*3 23.7 C 0 km/h
2612 26-09-2009 18:33:02 22.7 C 7.07 g/m*3 22.7 C 0 km/h
2613 26-09-2009 18:45:02 22 C 7.18 g/m*3 22 C 0 km/h
2614 26-09-2009 18:57:02 21.1 C 7.19 g/m*3 21.1 C 0 km/h
2615 26-09-2009 19:09:02 20 C 7.26 g/m*3 20 C 0 km/h
2616 26-09-2009 19:21:02 19.1 C 7.38 g/m*3 19.1 C 0 km/h
2617 26-09-2009 19:33:02 18.3 C 7.35 g/m*3 18.3 C 0 km/h
2618 26-09-2009 19:45:02 17.8 C 7.44 g/m*3 17.8 C 0 km/h
2619 26-09-2009 19:57:02 17.2 C 7.47 g/m*3 17.2 C 0 km/h
2620 26-09-2009 20:09:02 17.1 C 7.57 g/m*3 17.1 C 0 km/h
2621 26-09-2009 20:21:02 16.7 C 7.53 g/m*3 16.7 C 0 km/h
2622 26-09-2009 20:33:02 16.2 C 7.58 g/m*3 16.2 C 0 km/h
2623 26-09-2009 20:45:01 16 C 7.49 g/m*3 16 C 0 km/h
2624 26-09-2009 20:57:01 15.8 C 7.67 g/m*3 15.8 C 0 km/h
2625 26-09-2009 21:09:02 15.5 C 7.67 g/m*3 15.5 C 0 km/h
Sensor: Nr:Datum:Temp:Abs-Feuchte:Windchill:Wind:
Aussen-T/F 2626 26-09-2009 21:21:01 15.3 C 7.57 g/m*3 15.3 C 0 km/h
2627 26-09-2009 21:33:01 14.9 C 7.65 g/m*3 14.9 C 0 km/h
2628 26-09-2009 21:45:01 14.7 C 7.81 g/m*3 14.7 C 0 km/h
2629 26-09-2009 21:57:01 14.5 C 7.71 g/m*3 14.5 C 0 km/h
2630 26-09-2009 22:09:01 14.3 C 7.74 g/m*3 14.3 C 0 km/h
2631 26-09-2009 22:21:01 14 C 7.72 g/m*3 14 C 0 km/h
2632 26-09-2009 22:33:02 13.8 C 7.86 g/m*3 13.8 C 0 km/h
2633 26-09-2009 22:45:02 13.6 C 7.89 g/m*3 13.6 C 0 km/h
2634 26-09-2009 22:57:02 13.4 C 7.79 g/m*3 13.4 C 0 km/h
2635 26-09-2009 23:09:02 13.2 C 7.81 g/m*3 13.2 C 0 km/h
2636 26-09-2009 23:21:02 13 C 7.94 g/m*3 13 C 0 km/h
2637 26-09-2009 23:33:02 12.6 C 8.08 g/m*3 12.6 C 0 km/h
2638 26-09-2009 23:45:02 12.5 C 8.25 g/m*3 12.5 C 0 km/h
2639 26-09-2009 23:57:02 12.2 C 8.09 g/m*3 12.2 C 0 km/h
2640 27-09-2009 00:09:03 12.1 C 8.04 g/m*3 12.1 C 0 km/h
2641 27-09-2009 00:21:02 11.9 C 8.05 g/m*3 11.9 C 0 km/h
2642 27-09-2009 00:33:02 11.7 C 8.16 g/m*3 11.7 C 0 km/h
2643 27-09-2009 00:45:02 11.5 C 8.06 g/m*3 11.5 C 0 km/h
2644 27-09-2009 00:57:02 11.5 C 8.16 g/m*3 11.5 C 0 km/h
2645 27-09-2009 01:09:02 11.4 C 8.11 g/m*3 11.4 C 0 km/h
2646 27-09-2009 01:21:02 11.1 C 7.96 g/m*3 11.1 C 0 km/h
2647 27-09-2009 01:33:02 11.1 C 7.96 g/m*3 11.1 C 0 km/h
2648 27-09-2009 01:45:02 10.9 C 7.96 g/m*3 10.9 C 0 km/h
2649 27-09-2009 01:57:02 10.8 C 8.01 g/m*3 10.8 C 0 km/h
2650 27-09-2009 02:09:01 10.6 C 8 g/m*3 10.6 C 0 km/h
Sensor: Nr:Datum:Temp:Abs-Feuchte:Windchill:Wind:
Aussen-T/F 2651 27-09-2009 02:21:02 10.5 C 7.95 g/m*3 10.5 C 0 km/h
2652 27-09-2009 02:33:02 10.4 C 7.9 g/m*3 10.4 C 0 km/h
2653 27-09-2009 02:45:01 10.2 C 7.8 g/m*3 10.2 C 0 km/h
2654 27-09-2009 02:57:01 10.1 C 7.75 g/m*3 10.1 C 0 km/h
2655 27-09-2009 03:09:01 9.9 C 7.75 g/m*3 9.9 C 0 km/h
2656 27-09-2009 03:21:01 9.8 C 7.7 g/m*3 9.8 C 0 km/h
2657 27-09-2009 03:33:01 9.7 C 7.65 g/m*3 9.7 C 0 km/h
2658 27-09-2009 03:45:01 9.6 C 7.69 g/m*3 9.6 C 0 km/h
2659 27-09-2009 03:57:02 9.5 C 7.65 g/m*3 9.5 C 0 km/h
2660 27-09-2009 04:09:01 9.3 C 7.55 g/m*3 9.3 C 0 km/h
2661 27-09-2009 04:21:01 9.3 C 7.55 g/m*3 9.3 C 0 km/h
2662 27-09-2009 04:33:02 9.2 C 7.5 g/m*3 9.2 C 0 km/h
2663 27-09-2009 04:45:01 9 C 7.41 g/m*3 9 C 0 km/h
2664 27-09-2009 04:57:01 8.9 C 7.45 g/m*3 8.9 C 0 km/h
2665 27-09-2009 05:09:02 8.8 C 7.4 g/m*3 8.8 C 0 km/h
2666 27-09-2009 05:21:01 8.6 C 7.3 g/m*3 8.6 C 0 km/h
2667 27-09-2009 05:33:02 8.5 C 7.34 g/m*3 8.5 C 0 km/h
2668 27-09-2009 05:45:01 8.5 C 7.43 g/m*3 8.5 C 0 km/h
2669 27-09-2009 05:57:01 8.6 C 7.48 g/m*3 8.6 C 0 km/h
2670 27-09-2009 06:09:02 8.6 C 7.56 g/m*3 8.6 C 0 km/h
2671 27-09-2009 06:21:01 8.6 C 7.56 g/m*3 8.6 C 0 km/h
2672 27-09-2009 06:33:01 8.7 C 7.7 g/m*3 8.7 C 0 km/h
2673 27-09-2009 06:45:01 8.9 C 7.8 g/m*3 8.9 C 0 km/h
2674 27-09-2009 06:57:01 8.8 C 7.66 g/m*3 8.8 C 0 km/h
2675 27-09-2009 07:09:02 8.8 C 7.66 g/m*3 8.8 C 0 km/h
Sensor: Nr:Datum:Temp:Abs-Feuchte:Windchill:Wind:
Aussen-T/F 2676 27-09-2009 07:21:01 8.7 C 7.61 g/m*3 8.7 C 0 km/h
2677 27-09-2009 07:33:01 8.8 C 7.66 g/m*3 8.8 C 0 km/h
2678 27-09-2009 07:45:01 8.8 C 7.57 g/m*3 8.8 C 0 km/h
2679 27-09-2009 07:57:01 8.5 C 7.43 g/m*3 8.5 C 0 km/h
2680 27-09-2009 08:09:01 8.5 C 7.51 g/m*3 8.5 C 0 km/h
2681 27-09-2009 08:21:01 8.5 C 7.51 g/m*3 8.5 C 0 km/h
2682 27-09-2009 08:33:01 8.3 C 7.42 g/m*3 8.3 C 0 km/h
2683 27-09-2009 08:45:01 8.5 C 7.6 g/m*3 8.5 C 0 km/h
2684 27-09-2009 08:57:01 8.7 C 7.7 g/m*3 8.7 C 0 km/h
2685 27-09-2009 09:09:01 8.8 C 7.66 g/m*3 8.8 C 0 km/h
2686 27-09-2009 09:21:02 8.9 C 7.71 g/m*3 8.9 C 0 km/h
2687 27-09-2009 09:33:01 9.3 C 7.73 g/m*3 9.3 C 0 km/h
2688 27-09-2009 09:45:02 9.4 C 7.69 g/m*3 9.4 C 0 km/h
2689 27-09-2009 09:57:02 9.7 C 7.74 g/m*3 9.7 C 0 km/h
2690 27-09-2009 10:09:01 10.3 C 7.95 g/m*3 10.3 C 0 km/h
2691 27-09-2009 10:21:02 11 C 8.11 g/m*3 11 C 0 km/h
2692 27-09-2009 10:33:01 11.5 C 8.06 g/m*3 11.5 C 0 km/h
2693 27-09-2009 10:45:02 11.9 C 8.05 g/m*3 11.9 C 0 km/h
2694 27-09-2009 10:57:02 12.5 C 8.14 g/m*3 12.5 C 0 km/h
2695 27-09-2009 11:09:01 12.6 C 7.97 g/m*3 12.6 C 0 km/h
2696 27-09-2009 11:21:02 13 C 8.05 g/m*3 13 C 0 km/h
2697 27-09-2009 11:33:01 13.1 C 8.1 g/m*3 13.1 C 0 km/h
2698 27-09-2009 11:45:02 13 C 8.28 g/m*3 13 C 0 km/h
2699 27-09-2009 11:57:02 13.3 C 8.55 g/m*3 13.3 C 0 km/h
2700 27-09-2009 12:09:01 13.8 C 8.7 g/m*3 13.8 C 0 km/h
Sensor: Nr:Datum:Temp:Abs-Feuchte:Windchill:Wind:
Aussen-T/F 2701 27-09-2009 12:21:01 14.4 C 8.65 g/m*3 14.4 C 0 km/h
2702 27-09-2009 12:33:02 15 C 8.85 g/m*3 15 C 0 km/h
2703 27-09-2009 12:45:02 15.8 C 8.75 g/m*3 15.8 C 0 km/h
2704 27-09-2009 12:57:02 16.4 C 8.79 g/m*3 16.4 C 0 km/h
2705 27-09-2009 13:09:01 17.1 C 8.59 g/m*3 17.1 C 0 km/h
2706 27-09-2009 13:21:01 18.2 C 8.7 g/m*3 18.2 C 0 km/h
2707 27-09-2009 13:33:02 18.9 C 8.42 g/m*3 18.9 C 0 km/h
2708 27-09-2009 13:45:01 19.3 C 8.79 g/m*3 19.3 C 0 km/h
2709 27-09-2009 13:57:01 20.3 C 8.27 g/m*3 20.3 C 0 km/h
2710 27-09-2009 14:09:01 21.1 C 8.29 g/m*3 21.1 C 0 km/h
2711 27-09-2009 14:21:01 22 C 7.96 g/m*3 22 C 0 km/h
2712 27-09-2009 14:33:02 22.3 C 8.29 g/m*3 22.3 C 0 km/h
2713 27-09-2009 14:45:01 22.8 C 8.13 g/m*3 22.8 C 0 km/h
2714 27-09-2009 14:57:01 23.3 C 7.74 g/m*3 23.3 C 0 km/h
2715 27-09-2009 15:09:02 23.8 C 8.17 g/m*3 23.8 C 0 km/h
2716 27-09-2009 15:21:01 24 C 6.53 g/m*3 24 C 0 km/h
2717 27-09-2009 15:33:02 24.5 C 7.39 g/m*3 24.5 C 0 km/h
2718 27-09-2009 15:45:01 25 C 6.68 g/m*3 25 C 0 km/h
2719 27-09-2009 15:57:01 25.4 C 7.06 g/m*3 25.4 C 0 km/h
2720 27-09-2009 16:09:02 25.7 C 7.18 g/m*3 25.7 C 0 km/h
2721 27-09-2009 16:21:01 26 C 7.06 g/m*3 26 C 0 km/h
2722 27-09-2009 16:33:01 25.9 C 7.02 g/m*3 25.9 C 0 km/h
2723 27-09-2009 16:45:01 26.1 C 6.85 g/m*3 26.1 C 0 km/h
2724 27-09-2009 16:57:01 26.2 C 6.65 g/m*3 26.2 C 0 km/h
2725 27-09-2009 17:09:01 26.4 C 6.97 g/m*3 26.4 C 0 km/h
Sensor: Nr:Datum:Temp:Abs-Feuchte:Windchill:Wind:
Aussen-T/F 2726 27-09-2009 17:21:01 26.4 C 6.47 g/m*3 26.4 C 0 km/h
2727 27-09-2009 17:33:01 26.2 C 6.65 g/m*3 26.2 C 0 km/h
2728 27-09-2009 17:45:01 25.1 C 6.71 g/m*3 25.1 C 0 km/h
2729 27-09-2009 17:57:01 24.4 C 6.45 g/m*3 24.4 C 0 km/h
2730 27-09-2009 18:09:01 23.9 C 6.49 g/m*3 23.9 C 0 km/h
2731 27-09-2009 18:21:02 23.2 C 6.44 g/m*3 23.2 C 0 km/h
2732 27-09-2009 18:33:01 22.3 C 6.52 g/m*3 22.3 C 0 km/h
2733 27-09-2009 18:45:02 21.5 C 6.6 g/m*3 21.5 C 0 km/h
2734 27-09-2009 18:57:02 20.3 C 6.86 g/m*3 20.3 C 0 km/h
2735 27-09-2009 19:09:01 19.4 C 7.01 g/m*3 19.4 C 0 km/h
2736 27-09-2009 19:21:02 18.7 C 7.04 g/m*3 18.7 C 0 km/h
2737 27-09-2009 19:33:02 18.2 C 6.99 g/m*3 18.2 C 0 km/h
2738 27-09-2009 19:45:01 17.9 C 7.18 g/m*3 17.9 C 0 km/h
2739 27-09-2009 19:57:01 17.3 C 7.22 g/m*3 17.3 C 0 km/h
2740 27-09-2009 20:09:01 16.9 C 7.34 g/m*3 16.9 C 0 km/h
2741 27-09-2009 20:21:02 16.6 C 7.35 g/m*3 16.6 C 0 km/h
2742 27-09-2009 20:33:01 16.3 C 7.49 g/m*3 16.3 C 0 km/h
2743 27-09-2009 20:45:01 16.2 C 7.45 g/m*3 16.2 C 0 km/h
2744 27-09-2009 20:57:01 16.1 C 7.4 g/m*3 16.1 C 0 km/h
2745 27-09-2009 21:09:01 15.8 C 7.54 g/m*3 15.8 C 0 km/h
2746 27-09-2009 21:21:02 15.5 C 7.67 g/m*3 15.5 C 0 km/h
2747 27-09-2009 21:33:01 15.2 C 7.53 g/m*3 15.2 C 0 km/h
2748 27-09-2009 21:45:02 14.9 C 7.77 g/m*3 14.9 C 0 km/h
2749 27-09-2009 21:57:02 14.7 C 7.81 g/m*3 14.7 C 0 km/h
2750 27-09-2009 22:09:01 14.5 C 7.84 g/m*3 14.5 C 0 km/h
Sensor: Nr:Datum:Temp:Abs-Feuchte:Windchill:Wind:
Aussen-T/F 2751 27-09-2009 22:21:02 14 C 7.72 g/m*3 14 C 0 km/h
2752 27-09-2009 22:33:01 13.8 C 7.86 g/m*3 13.8 C 0 km/h
2753 27-09-2009 22:45:01 13.7 C 7.93 g/m*3 13.7 C 0 km/h
2754 27-09-2009 22:57:01 13.3 C 7.97 g/m*3 13.3 C 0 km/h
2755 27-09-2009 23:09:01 12.9 C 8.11 g/m*3 12.9 C 0 km/h
2756 27-09-2009 23:21:02 12.9 C 8.11 g/m*3 12.9 C 0 km/h
2757 27-09-2009 23:33:01 12.8 C 8.06 g/m*3 12.8 C 0 km/h
2758 27-09-2009 23:45:02 12.7 C 8.01 g/m*3 12.7 C 0 km/h
2759 27-09-2009 23:57:02 12.5 C 7.92 g/m*3 12.5 C 0 km/h
2760 28-09-2009 00:09:01 12.5 C 8.14 g/m*3 12.5 C 0 km/h
2761 28-09-2009 00:21:02 12.3 C 8.04 g/m*3 12.3 C 0 km/h
2762 28-09-2009 00:33:01 12.1 C 8.04 g/m*3 12.1 C 0 km/h
2763 28-09-2009 00:45:02 11.8 C 8 g/m*3 11.8 C 0 km/h
2764 28-09-2009 00:57:02 11.6 C 8 g/m*3 11.6 C 0 km/h
2765 28-09-2009 01:09:01 11.5 C 7.95 g/m*3 11.5 C 0 km/h
2766 28-09-2009 01:21:02 11.4 C 8.01 g/m*3 11.4 C 0 km/h
2767 28-09-2009 01:33:01 11.3 C 7.96 g/m*3 11.3 C 0 km/h
2768 28-09-2009 01:45:02 11.2 C 7.91 g/m*3 11.2 C 0 km/h
2769 28-09-2009 01:57:02 11.1 C 7.96 g/m*3 11.1 C 0 km/h
2770 28-09-2009 02:09:01 11 C 7.91 g/m*3 11 C 0 km/h
2771 28-09-2009 02:21:02 10.8 C 7.91 g/m*3 10.8 C 0 km/h
2772 28-09-2009 02:33:01 10.8 C 7.91 g/m*3 10.8 C 0 km/h
2773 28-09-2009 02:46:06 10.6 C 7.91 g/m*3 10.6 C 0 km/h
2774 28-09-2009 02:58:06 10.5 C 7.95 g/m*3 10.5 C 0 km/h
2775 28-09-2009 03:10:06 10.4 C 7.9 g/m*3 10.4 C 0 km/h
Sensor: Nr:Datum:Temp:Abs-Feuchte:Windchill:Wind:
Aussen-T/F 2776 28-09-2009 03:22:06 10.2 C 7.9 g/m*3 10.2 C 0 km/h
2777 28-09-2009 03:34:01 10 C 7.8 g/m*3 10 C 0 km/h
2778 28-09-2009 03:46:01 9.9 C 7.94 g/m*3 9.9 C 0 km/h
2779 28-09-2009 03:58:01 9.8 C 7.89 g/m*3 9.8 C 0 km/h
2780 28-09-2009 04:10:02 9.7 C 7.93 g/m*3 9.7 C 0 km/h
2781 28-09-2009 04:22:02 9.7 C 7.93 g/m*3 9.7 C 0 km/h
2782 28-09-2009 04:34:02 9.5 C 7.83 g/m*3 9.5 C 0 km/h
2783 28-09-2009 04:46:01 9.4 C 7.78 g/m*3 9.4 C 0 km/h
2784 28-09-2009 04:58:01 9.3 C 7.73 g/m*3 9.3 C 0 km/h
2785 28-09-2009 05:10:02 9.2 C 7.68 g/m*3 9.2 C 0 km/h
2786 28-09-2009 05:22:02 9 C 7.58 g/m*3 9 C 0 km/h
2787 28-09-2009 05:34:01 8.9 C 7.62 g/m*3 8.9 C 0 km/h
2788 28-09-2009 05:46:02 8.9 C 7.71 g/m*3 8.9 C 0 km/h
2789 28-09-2009 05:58:02 8.7 C 7.61 g/m*3 8.7 C 0 km/h
2790 28-09-2009 06:10:01 8.7 C 7.61 g/m*3 8.7 C 0 km/h
2791 28-09-2009 06:22:02 8.7 C 7.61 g/m*3 8.7 C 0 km/h
2792 28-09-2009 06:34:01 8.5 C 7.51 g/m*3 8.5 C 0 km/h
2793 28-09-2009 06:46:02 8.5 C 7.51 g/m*3 8.5 C 0 km/h
2794 28-09-2009 06:58:02 8.4 C 7.47 g/m*3 8.4 C 0 km/h
2795 28-09-2009 07:10:02 8.2 C 7.37 g/m*3 8.2 C 0 km/h
2796 28-09-2009 07:22:02 8.2 C 7.45 g/m*3 8.2 C 0 km/h
2797 28-09-2009 07:34:03 8 C 7.36 g/m*3 8 C 0 km/h
2798 28-09-2009 07:46:02 8 C 7.36 g/m*3 8 C 0 km/h
2799 28-09-2009 07:58:03 8 C 7.36 g/m*3 8 C 0 km/h
2800 28-09-2009 08:10:01 8 C 7.36 g/m*3 8 C 0 km/h
Sensor: Nr:Datum:Temp:Abs-Feuchte:Windchill:Wind:
Aussen-T/F 2801 28-09-2009 08:22:02 8 C 7.36 g/m*3 8 C 0 km/h
2802 28-09-2009 08:34:02 8.1 C 7.41 g/m*3 8.1 C 0 km/h
2803 28-09-2009 08:46:02 8.4 C 7.55 g/m*3 8.4 C 0 km/h
2804 28-09-2009 08:58:02 8.3 C 7.5 g/m*3 8.3 C 0 km/h
2805 28-09-2009 09:10:03 8.6 C 7.73 g/m*3 8.6 C 0 km/h
2806 28-09-2009 09:22:02 8.9 C 7.88 g/m*3 8.9 C 0 km/h
2807 28-09-2009 09:34:01 9.4 C 8.05 g/m*3 9.4 C 0 km/h
2808 28-09-2009 09:46:02 9.4 C 7.87 g/m*3 9.4 C 0 km/h
2809 28-09-2009 09:58:02 9.6 C 7.88 g/m*3 9.6 C 0 km/h
2810 28-09-2009 10:10:01 10 C 7.89 g/m*3 10 C 0 km/h
2811 28-09-2009 10:22:02 10.4 C 8 g/m*3 10.4 C 0 km/h
2812 28-09-2009 10:34:01 10.4 C 7.9 g/m*3 10.4 C 0 km/h
2813 28-09-2009 10:46:02 11.2 C 8.21 g/m*3 11.2 C 0 km/h
2814 28-09-2009 10:58:02 12.1 C 8.47 g/m*3 12.1 C 0 km/h
2815 28-09-2009 11:10:02 12.7 C 8.46 g/m*3 12.7 C 0 km/h
2816 28-09-2009 11:22:02 13.5 C 8.54 g/m*3 13.5 C 0 km/h
2817 28-09-2009 11:34:03 14.1 C 8.37 g/m*3 14.1 C 0 km/h
2818 28-09-2009 11:46:02 14.8 C 8.36 g/m*3 14.8 C 0 km/h
2819 28-09-2009 11:58:02 15.8 C 8.21 g/m*3 15.8 C 0 km/h
2820 28-09-2009 12:10:01 16.2 C 8 g/m*3 16.2 C 0 km/h
2821 28-09-2009 12:22:02 16.4 C 8.23 g/m*3 16.4 C 0 km/h
2822 28-09-2009 12:34:02 16.9 C 8.2 g/m*3 16.9 C 0 km/h
2823 28-09-2009 12:46:02 17.4 C 8.3 g/m*3 17.4 C 0 km/h
2824 28-09-2009 12:58:02 18.1 C 8.19 g/m*3 18.1 C 0 km/h
2825 28-09-2009 13:10:02 18.5 C 8.23 g/m*3 18.5 C 0 km/h
Sensor: Nr:Datum:Temp:Abs-Feuchte:Windchill:Wind:
Aussen-T/F 2826 28-09-2009 13:22:02 18.9 C 8.26 g/m*3 18.9 C 0 km/h
2827 28-09-2009 13:34:02 19.2 C 8.08 g/m*3 19.2 C 0 km/h
2828 28-09-2009 13:46:01 19.8 C 8.2 g/m*3 19.8 C 0 km/h
2829 28-09-2009 13:58:01 20.8 C 8.15 g/m*3 20.8 C 0 km/h
2830 28-09-2009 14:10:02 21.2 C 7.6 g/m*3 21.2 C 0 km/h
2831 28-09-2009 14:22:01 21 C 7.69 g/m*3 21 C 0 km/h
2832 28-09-2009 14:34:01 20.6 C 7.87 g/m*3 20.6 C 0 km/h
2833 28-09-2009 14:46:01 20.6 C 8.23 g/m*3 20.6 C 0 km/h
2834 28-09-2009 14:58:01 21.4 C 7.87 g/m*3 21.4 C 0 km/h
2835 28-09-2009 15:10:02 22 C 7.57 g/m*3 22 C 0 km/h
2836 28-09-2009 15:22:01 22 C 7.76 g/m*3 22 C 0 km/h
2837 28-09-2009 15:34:01 21.6 C 7.78 g/m*3 21.6 C 0 km/h
2838 28-09-2009 15:46:01 22.5 C 7.99 g/m*3 22.5 C 0 km/h
2839 28-09-2009 15:58:01 22.6 C 7.83 g/m*3 22.6 C 0 km/h
2840 28-09-2009 16:10:02 22.8 C 7.72 g/m*3 22.8 C 0 km/h
2841 28-09-2009 16:22:01 23 C 7.6 g/m*3 23 C 0 km/h
2842 28-09-2009 16:34:01 23.5 C 7.61 g/m*3 23.5 C 0 km/h
2843 28-09-2009 16:46:01 22.8 C 7.32 g/m*3 22.8 C 0 km/h
2844 28-09-2009 16:58:01 22.7 C 8.08 g/m*3 22.7 C 0 km/h
2845 28-09-2009 17:10:01 22.5 C 7.99 g/m*3 22.5 C 0 km/h
2846 28-09-2009 17:22:02 21.9 C 8.1 g/m*3 21.9 C 0 km/h
2847 28-09-2009 17:34:01 22.1 C 7.81 g/m*3 22.1 C 0 km/h
2848 28-09-2009 17:46:03 21.9 C 8.1 g/m*3 21.9 C 0 km/h
2849 28-09-2009 17:58:03 20.8 C 8.33 g/m*3 20.8 C 0 km/h
2850 28-09-2009 18:10:02 19.8 C 8.37 g/m*3 19.8 C 0 km/h
Sensor: Nr:Datum:Temp:Abs-Feuchte:Windchill:Wind:
Aussen-T/F 2851 28-09-2009 18:22:02 19.2 C 8.41 g/m*3 19.2 C 0 km/h
2852 28-09-2009 18:34:02 18.7 C 8.65 g/m*3 18.7 C 0 km/h
2853 28-09-2009 18:46:02 18.3 C 8.76 g/m*3 18.3 C 0 km/h
2854 28-09-2009 18:58:02 18.1 C 8.81 g/m*3 18.1 C 0 km/h
2855 28-09-2009 19:10:02 17.8 C 8.95 g/m*3 17.8 C 0 km/h
2856 28-09-2009 19:22:02 17.3 C 8.84 g/m*3 17.3 C 0 km/h
2857 28-09-2009 19:34:01 17 C 8.83 g/m*3 17 C 0 km/h
2858 28-09-2009 19:46:02 16.6 C 8.9 g/m*3 16.6 C 0 km/h
2859 28-09-2009 19:58:02 16.3 C 8.88 g/m*3 16.3 C 0 km/h
2860 28-09-2009 20:10:01 16.1 C 9.05 g/m*3 16.1 C 0 km/h
2861 28-09-2009 20:22:02 15.8 C 9.15 g/m*3 15.8 C 0 km/h
2862 28-09-2009 20:34:02 15.6 C 9.04 g/m*3 15.6 C 0 km/h
2863 28-09-2009 20:46:02 15.6 C 9.18 g/m*3 15.6 C 0 km/h
2864 28-09-2009 20:58:02 15.4 C 9.07 g/m*3 15.4 C 0 km/h
2865 28-09-2009 21:10:02 15.3 C 9.01 g/m*3 15.3 C 0 km/h
2866 28-09-2009 21:22:02 15.3 C 9.01 g/m*3 15.3 C 0 km/h
2867 28-09-2009 21:34:02 15.2 C 8.96 g/m*3 15.2 C 0 km/h
2868 28-09-2009 21:46:01 15.2 C 8.96 g/m*3 15.2 C 0 km/h
2869 28-09-2009 21:58:01 14.8 C 8.99 g/m*3 14.8 C 0 km/h
2870 28-09-2009 22:11:02 14.6 C 9.01 g/m*3 14.6 C 0 km/h
2871 28-09-2009 22:23:02 14.5 C 8.95 g/m*3 14.5 C 0 km/h
2872 28-09-2009 22:35:02 14.5 C 8.95 g/m*3 14.5 C 0 km/h
2873 28-09-2009 22:47:02 14 C 8.81 g/m*3 14 C 0 km/h
2874 28-09-2009 22:59:02 13.9 C 8.99 g/m*3 13.9 C 0 km/h
2875 28-09-2009 23:11:02 14 C 9.17 g/m*3 14 C 0 km/h
Sensor: Nr:Datum:Temp:Abs-Feuchte:Windchill:Wind:
Aussen-T/F 2876 28-09-2009 23:23:02 14.2 C 9.4 g/m*3 14.2 C 0 km/h
2877 28-09-2009 23:35:02 14.5 C 9.33 g/m*3 14.5 C 0 km/h
2878 28-09-2009 23:47:02 14.2 C 9.28 g/m*3 14.2 C 0 km/h
2879 28-09-2009 23:59:02 14.4 C 9.39 g/m*3 14.4 C 0 km/h
2880 29-09-2009 00:11:02 14.5 C 9.33 g/m*3 14.5 C 0 km/h
2881 29-09-2009 00:23:02 14.7 C 9.32 g/m*3 14.7 C 0 km/h
2882 29-09-2009 00:35:03 14.7 C 9.32 g/m*3 14.7 C 0 km/h
2883 29-09-2009 00:47:03 14.7 C 9.19 g/m*3 14.7 C 0 km/h
2884 29-09-2009 00:59:03 14.6 C 9.13 g/m*3 14.6 C 0 km/h
2885 29-09-2009 01:11:03 14.6 C 9.13 g/m*3 14.6 C 0 km/h
2886 29-09-2009 01:23:03 14.6 C 9.13 g/m*3 14.6 C 0 km/h
2887 29-09-2009 01:35:03 14.6 C 9.13 g/m*3 14.6 C 0 km/h
2888 29-09-2009 01:47:03 14.7 C 9.19 g/m*3 14.7 C 0 km/h
2889 29-09-2009 01:59:03 14.6 C 9.26 g/m*3 14.6 C 0 km/h
2890 29-09-2009 02:11:03 14.7 C 9.32 g/m*3 14.7 C 0 km/h
2891 29-09-2009 02:23:03 14.7 C 9.32 g/m*3 14.7 C 0 km/h
2892 29-09-2009 02:35:03 14.8 C 9.12 g/m*3 14.8 C 0 km/h
2893 29-09-2009 02:47:03 15 C 8.85 g/m*3 15 C 0 km/h
2894 29-09-2009 02:59:03 15.1 C 8.77 g/m*3 15.1 C 0 km/h
2895 29-09-2009 03:11:03 15.2 C 8.7 g/m*3 15.2 C 0 km/h
2896 29-09-2009 03:23:03 15.2 C 8.44 g/m*3 15.2 C 0 km/h
2897 29-09-2009 03:35:03 15.2 C 8.44 g/m*3 15.2 C 0 km/h
2898 29-09-2009 03:47:03 15.2 C 8.31 g/m*3 15.2 C 0 km/h
2899 29-09-2009 03:59:03 15.2 C 8.18 g/m*3 15.2 C 0 km/h
2900 29-09-2009 04:11:03 15.2 C 8.05 g/m*3 15.2 C 0 km/h
Sensor: Nr:Datum:Temp:Abs-Feuchte:Windchill:Wind:
Aussen-T/F 2901 29-09-2009 04:23:04 15.2 C 8.05 g/m*3 15.2 C 0 km/h
2902 29-09-2009 04:35:04 15 C 7.95 g/m*3 15 C 0 km/h
2903 29-09-2009 04:47:04 14.9 C 8.03 g/m*3 14.9 C 0 km/h
2904 29-09-2009 04:59:04 14.9 C 7.9 g/m*3 14.9 C 0 km/h
2905 29-09-2009 05:11:04 14.9 C 7.9 g/m*3 14.9 C 0 km/h
2906 29-09-2009 05:23:04 14.7 C 7.68 g/m*3 14.7 C 0 km/h
2907 29-09-2009 05:35:04 14.2 C 7.57 g/m*3 14.2 C 0 km/h
2908 29-09-2009 05:47:04 13.9 C 7.79 g/m*3 13.9 C 0 km/h
2909 29-09-2009 05:59:04 13.7 C 7.82 g/m*3 13.7 C 0 km/h
2910 29-09-2009 06:11:04 13.4 C 7.79 g/m*3 13.4 C 0 km/h
2911 29-09-2009 06:23:04 13.2 C 7.92 g/m*3 13.2 C 0 km/h
2912 29-09-2009 06:35:04 13 C 7.94 g/m*3 13 C 0 km/h
2913 29-09-2009 06:47:04 13.1 C 7.87 g/m*3 13.1 C 0 km/h
2914 29-09-2009 06:59:04 13.2 C 7.81 g/m*3 13.2 C 0 km/h
2915 29-09-2009 07:11:02 13.4 C 7.9 g/m*3 13.4 C 0 km/h
2916 29-09-2009 07:23:02 13.4 C 7.9 g/m*3 13.4 C 0 km/h
2917 29-09-2009 07:35:02 13.5 C 7.95 g/m*3 13.5 C 0 km/h
2918 29-09-2009 07:47:01 13.4 C 8.02 g/m*3 13.4 C 0 km/h
2919 29-09-2009 07:59:01 13.6 C 7.89 g/m*3 13.6 C 0 km/h
2920 29-09-2009 08:11:02 13.6 C 7.89 g/m*3 13.6 C 0 km/h
2921 29-09-2009 08:23:01 13.6 C 7.89 g/m*3 13.6 C 0 km/h
2922 29-09-2009 08:35:01 13.8 C 7.98 g/m*3 13.8 C 0 km/h
2923 29-09-2009 08:47:01 14 C 7.84 g/m*3 14 C 0 km/h
2924 29-09-2009 08:59:01 14 C 7.96 g/m*3 14 C 0 km/h
2925 29-09-2009 09:11:01 14.2 C 7.94 g/m*3 14.2 C 0 km/h
Sensor: Nr:Datum:Temp:Abs-Feuchte:Windchill:Wind:
Aussen-T/F 2926 29-09-2009 09:23:02 14.6 C 8.13 g/m*3 14.6 C 0 km/h
2927 29-09-2009 09:35:01 14.7 C 8.06 g/m*3 14.7 C 0 km/h
2928 29-09-2009 09:47:03 14.7 C 8.06 g/m*3 14.7 C 0 km/h
2929 29-09-2009 09:59:03 15 C 8.21 g/m*3 15 C 0 km/h
2930 29-09-2009 10:11:02 15 C 8.08 g/m*3 15 C 0 km/h
2931 29-09-2009 10:23:03 15 C 8.08 g/m*3 15 C 0 km/h
2932 29-09-2009 10:35:02 15.2 C 8.18 g/m*3 15.2 C 0 km/h
2933 29-09-2009 10:47:02 15.1 C 8.13 g/m*3 15.1 C 0 km/h
2934 29-09-2009 10:59:02 15.3 C 8.23 g/m*3 15.3 C 0 km/h
2935 29-09-2009 11:11:02 15.3 C 8.23 g/m*3 15.3 C 0 km/h
2936 29-09-2009 11:23:02 15.4 C 8.41 g/m*3 15.4 C 0 km/h
2937 29-09-2009 11:35:02 15.3 C 8.49 g/m*3 15.3 C 0 km/h
2938 29-09-2009 11:47:02 15.6 C 8.64 g/m*3 15.6 C 0 km/h
2939 29-09-2009 11:59:02 15.7 C 8.7 g/m*3 15.7 C 0 km/h
2940 29-09-2009 12:11:01 16.1 C 8.64 g/m*3 16.1 C 0 km/h
2941 29-09-2009 12:23:02 16.2 C 8.41 g/m*3 16.2 C 0 km/h
2942 29-09-2009 12:35:02 16.6 C 8.48 g/m*3 16.6 C 0 km/h
2943 29-09-2009 12:47:02 17 C 8.39 g/m*3 17 C 0 km/h
2944 29-09-2009 12:59:02 17.5 C 8.2 g/m*3 17.5 C 0 km/h
2945 29-09-2009 13:11:02 17.8 C 8.35 g/m*3 17.8 C 0 km/h
2946 29-09-2009 13:23:02 17.7 C 8.45 g/m*3 17.7 C 0 km/h
2947 29-09-2009 13:35:02 17.9 C 8.7 g/m*3 17.9 C 0 km/h
2948 29-09-2009 13:47:02 18.7 C 8.33 g/m*3 18.7 C 0 km/h
2949 29-09-2009 13:59:02 18.6 C 8.44 g/m*3 18.6 C 0 km/h
2950 29-09-2009 14:11:02 18.5 C 8.39 g/m*3 18.5 C 0 km/h
Sensor: Nr:Datum:Temp:Abs-Feuchte:Windchill:Wind:
Aussen-T/F 2951 29-09-2009 14:23:01 18.6 C 8.59 g/m*3 18.6 C 0 km/h
2952 29-09-2009 14:35:02 18.3 C 8.44 g/m*3 18.3 C 0 km/h
2953 29-09-2009 14:47:02 18.4 C 8.34 g/m*3 18.4 C 0 km/h
2954 29-09-2009 14:59:02 18.1 C 8.34 g/m*3 18.1 C 0 km/h
2955 29-09-2009 15:11:02 18.1 C 8.34 g/m*3 18.1 C 0 km/h
2956 29-09-2009 15:23:02 18.2 C 8.55 g/m*3 18.2 C 0 km/h
2957 29-09-2009 15:35:02 18 C 8.45 g/m*3 18 C 0 km/h
2958 29-09-2009 15:47:02 17.8 C 8.5 g/m*3 17.8 C 0 km/h
2959 29-09-2009 15:59:02 17.6 C 8.85 g/m*3 17.6 C 0 km/h
2960 29-09-2009 16:11:02 17.6 C 8.7 g/m*3 17.6 C 0 km/h
2961 29-09-2009 16:23:02 17.8 C 8.65 g/m*3 17.8 C 0 km/h
2962 29-09-2009 16:35:02 17.6 C 8.85 g/m*3 17.6 C 0 km/h
2963 29-09-2009 16:47:02 17.5 C 9.09 g/m*3 17.5 C 0 km/h
2964 29-09-2009 16:59:02 17.7 C 9.05 g/m*3 17.7 C 0 km/h
2965 29-09-2009 17:11:02 17.9 C 8.86 g/m*3 17.9 C 0 km/h
2966 29-09-2009 17:23:02 18 C 9.06 g/m*3 18 C 0 km/h
2967 29-09-2009 17:35:02 17.7 C 9.05 g/m*3 17.7 C 0 km/h
2968 29-09-2009 17:47:02 17.5 C 9.09 g/m*3 17.5 C 0 km/h
2969 29-09-2009 17:59:02 17.4 C 9.04 g/m*3 17.4 C 0 km/h
2970 29-09-2009 18:11:02 17.3 C 8.99 g/m*3 17.3 C 0 km/h
2971 29-09-2009 18:23:03 17.3 C 8.84 g/m*3 17.3 C 0 km/h
2972 29-09-2009 18:35:02 17.2 C 8.93 g/m*3 17.2 C 0 km/h
2973 29-09-2009 18:47:02 17.2 C 9.08 g/m*3 17.2 C 0 km/h
2974 29-09-2009 18:59:02 17.3 C 9.13 g/m*3 17.3 C 0 km/h
2975 29-09-2009 19:11:02 17.1 C 8.88 g/m*3 17.1 C 0 km/h
Sensor: Nr:Datum:Temp:Abs-Feuchte:Windchill:Wind:
Aussen-T/F 2976 29-09-2009 19:23:03 17.2 C 8.93 g/m*3 17.2 C 0 km/h
2977 29-09-2009 19:35:02 17.2 C 8.93 g/m*3 17.2 C 0 km/h
2978 29-09-2009 19:47:02 17.2 C 8.79 g/m*3 17.2 C 0 km/h
2979 29-09-2009 19:59:02 17 C 8.83 g/m*3 17 C 0 km/h
2980 29-09-2009 20:11:02 17 C 8.83 g/m*3 17 C 0 km/h
2981 29-09-2009 20:23:02 17.1 C 9.03 g/m*3 17.1 C 0 km/h
2982 29-09-2009 20:35:02 17.2 C 9.23 g/m*3 17.2 C 0 km/h
2983 29-09-2009 20:47:02 17 C 9.26 g/m*3 17 C 0 km/h
2984 29-09-2009 20:59:02 16.9 C 9.49 g/m*3 16.9 C 0 km/h
2985 29-09-2009 21:11:02 16.8 C 9.44 g/m*3 16.8 C 0 km/h
2986 29-09-2009 21:23:02 16.8 C 9.58 g/m*3 16.8 C 0 km/h
2987 29-09-2009 21:35:01 16.6 C 9.61 g/m*3 16.6 C 0 km/h
2988 29-09-2009 21:47:02 16.6 C 9.61 g/m*3 16.6 C 0 km/h
2989 29-09-2009 21:59:02 16.6 C 9.61 g/m*3 16.6 C 0 km/h
2990 29-09-2009 22:11:02 16.4 C 9.63 g/m*3 16.4 C 0 km/h
2991 29-09-2009 22:24:03 16.4 C 9.77 g/m*3 16.4 C 0 km/h
2992 29-09-2009 22:36:03 16.3 C 9.71 g/m*3 16.3 C 0 km/h
2993 29-09-2009 22:48:03 16.2 C 9.79 g/m*3 16.2 C 0 km/h
2994 29-09-2009 23:00:03 16.2 C 9.93 g/m*3 16.2 C 0 km/h
2995 29-09-2009 23:12:03 16.1 C 9.87 g/m*3 16.1 C 0 km/h
2996 29-09-2009 23:24:03 16 C 9.95 g/m*3 16 C 0 km/h
2997 29-09-2009 23:36:03 16 C 9.95 g/m*3 16 C 0 km/h
2998 29-09-2009 23:48:03 16 C 9.95 g/m*3 16 C 0 km/h
2999 30-09-2009 00:00:03 15.9 C 10.16 g/m*3 15.9 C 0 km/h
3000 30-09-2009 00:12:03 15.7 C 10.03 g/m*3 15.7 C 0 km/h
Sensor: Nr:Datum:Temp:Abs-Feuchte:Windchill:Wind:
Aussen-T/F 3001 30-09-2009 00:24:03 15.6 C 10.11 g/m*3 15.6 C 0 km/h
3002 30-09-2009 00:36:03 15.6 C 10.11 g/m*3 15.6 C 0 km/h
3003 30-09-2009 00:48:03 15.6 C 10.11 g/m*3 15.6 C 0 km/h
3004 30-09-2009 01:00:03 15.6 C 10.11 g/m*3 15.6 C 0 km/h
3005 30-09-2009 01:12:04 15.6 C 10.11 g/m*3 15.6 C 0 km/h
3006 30-09-2009 01:24:04 15.6 C 10.11 g/m*3 15.6 C 0 km/h
3007 30-09-2009 01:36:04 15.6 C 10.11 g/m*3 15.6 C 0 km/h
3008 30-09-2009 01:48:04 15.6 C 10.11 g/m*3 15.6 C 0 km/h
3009 30-09-2009 02:00:04 15.6 C 9.97 g/m*3 15.6 C 0 km/h
3010 30-09-2009 02:12:04 15.5 C 9.91 g/m*3 15.5 C 0 km/h
3011 30-09-2009 02:24:04 15.5 C 9.91 g/m*3 15.5 C 0 km/h
3012 30-09-2009 02:36:04 15.5 C 9.78 g/m*3 15.5 C 0 km/h
3013 30-09-2009 02:48:04 15.6 C 9.84 g/m*3 15.6 C 0 km/h
3014 30-09-2009 03:00:04 15.6 C 9.84 g/m*3 15.6 C 0 km/h
3015 30-09-2009 03:12:04 15.6 C 9.84 g/m*3 15.6 C 0 km/h
3016 30-09-2009 03:24:04 15.5 C 9.78 g/m*3 15.5 C 0 km/h
3017 30-09-2009 03:36:04 15.5 C 9.78 g/m*3 15.5 C 0 km/h
3018 30-09-2009 03:48:04 15.4 C 9.72 g/m*3 15.4 C 0 km/h
3019 30-09-2009 04:00:04 15.4 C 9.72 g/m*3 15.4 C 0 km/h
3020 30-09-2009 04:12:04 15.4 C 9.85 g/m*3 15.4 C 0 km/h
3021 30-09-2009 04:24:04 15.3 C 9.79 g/m*3 15.3 C 0 km/h
3022 30-09-2009 04:36:04 15.2 C 9.86 g/m*3 15.2 C 0 km/h
3023 30-09-2009 04:48:04 15.2 C 9.86 g/m*3 15.2 C 0 km/h
3024 30-09-2009 05:00:05 15.2 C 9.99 g/m*3 15.2 C 0 km/h
3025 30-09-2009 05:12:05 15.2 C 10.12 g/m*3 15.2 C 0 km/h
Sensor: Nr:Datum:Temp:Abs-Feuchte:Windchill:Wind:
Aussen-T/F 3026 30-09-2009 05:24:05 15.2 C 9.99 g/m*3 15.2 C 0 km/h
3027 30-09-2009 05:36:05 15.3 C 10.06 g/m*3 15.3 C 0 km/h
3028 30-09-2009 05:48:05 15.3 C 10.06 g/m*3 15.3 C 0 km/h
3029 30-09-2009 06:00:05 15.3 C 9.92 g/m*3 15.3 C 0 km/h
3030 30-09-2009 06:12:05 15.3 C 9.92 g/m*3 15.3 C 0 km/h
3031 30-09-2009 06:24:05 15.3 C 9.92 g/m*3 15.3 C 0 km/h
3032 30-09-2009 06:36:05 15.2 C 9.86 g/m*3 15.2 C 0 km/h
3033 30-09-2009 06:48:05 15.2 C 9.99 g/m*3 15.2 C 0 km/h
3034 30-09-2009 07:00:05 15.2 C 9.99 g/m*3 15.2 C 0 km/h
3035 30-09-2009 07:12:05 15.1 C 9.93 g/m*3 15.1 C 0 km/h
3036 30-09-2009 07:24:02 15.1 C 9.93 g/m*3 15.1 C 0 km/h
3037 30-09-2009 07:36:02 15.1 C 9.93 g/m*3 15.1 C 0 km/h
3038 30-09-2009 07:48:02 15.1 C 9.93 g/m*3 15.1 C 0 km/h
3039 30-09-2009 08:00:02 15.2 C 9.99 g/m*3 15.2 C 0 km/h
3040 30-09-2009 08:12:02 15.2 C 9.99 g/m*3 15.2 C 0 km/h
3041 30-09-2009 08:24:02 15.4 C 10.12 g/m*3 15.4 C 0 km/h
3042 30-09-2009 08:36:01 15.6 C 10.24 g/m*3 15.6 C 0 km/h
3043 30-09-2009 08:48:02 15.8 C 10.36 g/m*3 15.8 C 0 km/h
3044 30-09-2009 09:00:02 16 C 10.22 g/m*3 16 C 0 km/h
3045 30-09-2009 09:12:01 16.1 C 10.01 g/m*3 16.1 C 0 km/h
3046 30-09-2009 09:24:01 16.1 C 10.01 g/m*3 16.1 C 0 km/h
3047 30-09-2009 09:36:02 16.3 C 10.13 g/m*3 16.3 C 0 km/h
3048 30-09-2009 09:48:02 16.3 C 10.13 g/m*3 16.3 C 0 km/h
3049 30-09-2009 10:00:02 16.2 C 9.93 g/m*3 16.2 C 0 km/h
3050 30-09-2009 10:12:01 16.3 C 9.99 g/m*3 16.3 C 0 km/h
Sensor: Nr:Datum:Temp:Abs-Feuchte:Windchill:Wind:
Aussen-T/F 3051 30-09-2009 10:24:02 16.3 C 9.99 g/m*3 16.3 C 0 km/h
3052 30-09-2009 10:36:02 16 C 10.08 g/m*3 16 C 0 km/h
3053 30-09-2009 10:48:02 16.2 C 10.2 g/m*3 16.2 C 0 km/h
3054 30-09-2009 11:00:02 16.6 C 10.03 g/m*3 16.6 C 0 km/h
3055 30-09-2009 11:12:03 17.4 C 10.08 g/m*3 17.4 C 0 km/h
3056 30-09-2009 11:24:02 17.9 C 10.54 g/m*3 17.9 C 0 km/h
3057 30-09-2009 11:36:02 18.4 C 9.91 g/m*3 18.4 C 0 km/h
3058 30-09-2009 11:48:01 19 C 9.78 g/m*3 19 C 0 km/h
3059 30-09-2009 12:00:01 19.1 C 9.67 g/m*3 19.1 C 0 km/h
3060 30-09-2009 12:12:02 19.2 C 9.4 g/m*3 19.2 C 0 km/h
3061 30-09-2009 12:24:01 19.7 C 9.51 g/m*3 19.7 C 0 km/h
3062 30-09-2009 12:36:02 19.6 C 9.45 g/m*3 19.6 C 0 km/h
3063 30-09-2009 12:48:02 19.4 C 9.34 g/m*3 19.4 C 0 km/h
3064 30-09-2009 13:00:02 19.4 C 9.34 g/m*3 19.4 C 0 km/h
3065 30-09-2009 13:12:02 19.6 C 9.79 g/m*3 19.6 C 0 km/h
3066 30-09-2009 13:24:03 20.5 C 9.79 g/m*3 20.5 C 0 km/h
3067 30-09-2009 13:36:02 20.6 C 9.66 g/m*3 20.6 C 0 km/h
3068 30-09-2009 13:48:03 20.2 C 9.62 g/m*3 20.2 C 0 km/h
3069 30-09-2009 14:00:03 20 C 9.51 g/m*3 20 C 0 km/h
3070 30-09-2009 14:12:02 19.7 C 9.68 g/m*3 19.7 C 0 km/h
3071 30-09-2009 14:24:02 19.4 C 9.51 g/m*3 19.4 C 0 km/h
3072 30-09-2009 14:36:02 19.4 C 9.51 g/m*3 19.4 C 0 km/h
3073 30-09-2009 14:48:02 19.3 C 9.62 g/m*3 19.3 C 0 km/h
3074 30-09-2009 15:00:02 19.1 C 9.67 g/m*3 19.1 C 0 km/h
3075 30-09-2009 15:12:02 19 C 9.61 g/m*3 19 C 0 km/h
Sensor: Nr:Datum:Temp:Abs-Feuchte:Windchill:Wind:
Aussen-T/F 3076 30-09-2009 15:24:02 19.1 C 9.84 g/m*3 19.1 C 0 km/h
3077 30-09-2009 15:36:02 19.2 C 9.73 g/m*3 19.2 C 0 km/h
3078 30-09-2009 15:48:02 19.2 C 9.89 g/m*3 19.2 C 0 km/h
3079 30-09-2009 16:00:02 19.1 C 9.84 g/m*3 19.1 C 0 km/h
3080 30-09-2009 16:12:01 19.1 C 9.67 g/m*3 19.1 C 0 km/h
3081 30-09-2009 16:24:02 19.3 C 9.62 g/m*3 19.3 C 0 km/h
3082 30-09-2009 16:36:02 19.1 C 9.67 g/m*3 19.1 C 0 km/h
3083 30-09-2009 16:48:01 19.1 C 10 g/m*3 19.1 C 0 km/h
3084 30-09-2009 17:00:01 19.3 C 9.95 g/m*3 19.3 C 0 km/h
3085 30-09-2009 17:12:02 19.3 C 9.62 g/m*3 19.3 C 0 km/h
3086 30-09-2009 17:24:01 19.1 C 9.84 g/m*3 19.1 C 0 km/h
3087 30-09-2009 17:36:02 18.9 C 10.21 g/m*3 18.9 C 0 km/h
3088 30-09-2009 17:48:02 18.7 C 10.41 g/m*3 18.7 C 0 km/h
3089 30-09-2009 18:00:02 18.4 C 10.38 g/m*3 18.4 C 0 km/h
3090 30-09-2009 18:12:02 18.4 C 10.54 g/m*3 18.4 C 0 km/h
3091 30-09-2009 18:24:01 18.4 C 10.54 g/m*3 18.4 C 0 km/h
3092 30-09-2009 18:36:02 18.3 C 10.48 g/m*3 18.3 C 0 km/h
3093 30-09-2009 18:48:02 17.8 C 10.47 g/m*3 17.8 C 0 km/h
3094 30-09-2009 19:00:02 17.3 C 9.72 g/m*3 17.3 C 0 km/h
3095 30-09-2009 19:12:02 16.9 C 9.78 g/m*3 16.9 C 0 km/h
3096 30-09-2009 19:24:02 16.5 C 9.69 g/m*3 16.5 C 0 km/h
3097 30-09-2009 19:36:02 16.3 C 9.71 g/m*3 16.3 C 0 km/h
3098 30-09-2009 19:48:02 16.2 C 9.65 g/m*3 16.2 C 0 km/h
3099 30-09-2009 20:00:02 16 C 9.54 g/m*3 16 C 0 km/h
3100 30-09-2009 20:12:02 15.5 C 9.65 g/m*3 15.5 C 0 km/h
Sensor: Nr:Datum:Temp:Abs-Feuchte:Windchill:Wind:
Aussen-T/F 3101 30-09-2009 20:24:02 15 C 9.62 g/m*3 15 C 0 km/h
3102 30-09-2009 20:36:02 14.8 C 9.75 g/m*3 14.8 C 0 km/h
3103 30-09-2009 20:48:02 14.6 C 9.64 g/m*3 14.6 C 0 km/h
3104 30-09-2009 21:00:02 14.4 C 9.64 g/m*3 14.4 C 0 km/h
3105 30-09-2009 21:12:03 14.5 C 9.95 g/m*3 14.5 C 0 km/h
3106 30-09-2009 21:24:02 14.2 C 9.77 g/m*3 14.2 C 0 km/h
3107 30-09-2009 21:36:02 14.1 C 9.71 g/m*3 14.1 C 0 km/h
3108 30-09-2009 21:48:01 13.9 C 9.83 g/m*3 13.9 C 0 km/h
3109 30-09-2009 22:00:01 13.8 C 9.89 g/m*3 13.8 C 0 km/h
3110 30-09-2009 22:12:02 13.7 C 9.83 g/m*3 13.7 C 0 km/h
3111 30-09-2009 22:24:01 13.6 C 9.77 g/m*3 13.6 C 0 km/h
3112 30-09-2009 22:37:02 13.6 C 9.89 g/m*3 13.6 C 0 km/h
3113 30-09-2009 22:49:02 13.4 C 9.76 g/m*3 13.4 C 0 km/h
3114 30-09-2009 23:01:02 13.6 C 10 g/m*3 13.6 C 0 km/h
3115 30-09-2009 23:13:02 13.6 C 10 g/m*3 13.6 C 0 km/h
3116 30-09-2009 23:25:03 13.7 C 10.07 g/m*3 13.7 C 0 km/h
3117 30-09-2009 23:37:03 13.7 C 10.07 g/m*3 13.7 C 0 km/h
3118 30-09-2009 23:49:03 13.7 C 9.95 g/m*3 13.7 C 0 km/h
3119 01-10-2009 00:01:03 13.8 C 10.01 g/m*3 13.8 C 0 km/h
3120 01-10-2009 00:13:03 13.6 C 9.89 g/m*3 13.6 C 0 km/h
3121 01-10-2009 00:25:03 13.4 C 9.76 g/m*3 13.4 C 0 km/h
3122 01-10-2009 00:37:03 13.1 C 9.7 g/m*3 13.1 C 0 km/h
3123 01-10-2009 00:49:03 13.2 C 9.87 g/m*3 13.2 C 0 km/h
3124 01-10-2009 01:01:03 13.4 C 10 g/m*3 13.4 C 0 km/h
3125 01-10-2009 01:13:03 13.5 C 10.06 g/m*3 13.5 C 0 km/h
Sensor: Nr:Datum:Temp:Abs-Feuchte:Windchill:Wind:
Aussen-T/F 3126 01-10-2009 01:25:03 13.6 C 10 g/m*3 13.6 C 0 km/h
3127 01-10-2009 01:37:03 13.5 C 9.94 g/m*3 13.5 C 0 km/h
3128 01-10-2009 01:49:03 13.7 C 10.07 g/m*3 13.7 C 0 km/h
3129 01-10-2009 02:01:03 13.7 C 9.95 g/m*3 13.7 C 0 km/h
3130 01-10-2009 02:13:03 13.8 C 9.89 g/m*3 13.8 C 0 km/h
3131 01-10-2009 02:25:03 13.7 C 9.83 g/m*3 13.7 C 0 km/h
3132 01-10-2009 02:37:03 13.7 C 9.83 g/m*3 13.7 C 0 km/h
3133 01-10-2009 02:49:03 13.7 C 9.83 g/m*3 13.7 C 0 km/h
3134 01-10-2009 03:01:03 13.6 C 9.77 g/m*3 13.6 C 0 km/h
3135 01-10-2009 03:13:04 13.6 C 9.89 g/m*3 13.6 C 0 km/h
3136 01-10-2009 03:25:04 13.5 C 9.83 g/m*3 13.5 C 0 km/h
3137 01-10-2009 03:37:04 13.4 C 9.76 g/m*3 13.4 C 0 km/h
3138 01-10-2009 03:49:04 13.4 C 9.76 g/m*3 13.4 C 0 km/h
3139 01-10-2009 04:01:04 13.4 C 9.76 g/m*3 13.4 C 0 km/h
3140 01-10-2009 04:13:04 13.4 C 9.76 g/m*3 13.4 C 0 km/h
3141 01-10-2009 04:25:04 13.3 C 9.82 g/m*3 13.3 C 0 km/h
3142 01-10-2009 04:37:04 13.3 C 9.82 g/m*3 13.3 C 0 km/h
3143 01-10-2009 04:49:04 13.3 C 9.82 g/m*3 13.3 C 0 km/h
3144 01-10-2009 05:01:04 13.3 C 9.82 g/m*3 13.3 C 0 km/h
3145 01-10-2009 05:13:04 13.3 C 9.82 g/m*3 13.3 C 0 km/h
3146 01-10-2009 05:25:04 13.2 C 9.76 g/m*3 13.2 C 0 km/h
3147 01-10-2009 05:37:04 13.1 C 9.7 g/m*3 13.1 C 0 km/h
3148 01-10-2009 05:49:04 13 C 9.75 g/m*3 13 C 0 km/h
3149 01-10-2009 06:01:04 12.9 C 9.81 g/m*3 12.9 C 0 km/h
3150 01-10-2009 06:13:04 12.8 C 9.86 g/m*3 12.8 C 0 km/h
Sensor: Nr:Datum:Temp:Abs-Feuchte:Windchill:Wind:
Aussen-T/F 3151 01-10-2009 06:25:04 13 C 9.87 g/m*3 13 C 0 km/h
3152 01-10-2009 06:37:04 13.1 C 9.93 g/m*3 13.1 C 0 km/h
3153 01-10-2009 06:49:04 13.2 C 9.99 g/m*3 13.2 C 0 km/h
3154 01-10-2009 07:01:02 13.2 C 9.87 g/m*3 13.2 C 0 km/h
3155 01-10-2009 07:13:02 13.3 C 9.94 g/m*3 13.3 C 0 km/h
3156 01-10-2009 07:25:03 13.2 C 9.76 g/m*3 13.2 C 0 km/h
3157 01-10-2009 07:37:02 13.2 C 9.76 g/m*3 13.2 C 0 km/h
3158 01-10-2009 07:49:03 13.1 C 9.7 g/m*3 13.1 C 0 km/h
3159 01-10-2009 08:01:02 13 C 9.64 g/m*3 13 C 0 km/h
3160 01-10-2009 08:13:02 13.2 C 9.76 g/m*3 13.2 C 0 km/h
3161 01-10-2009 08:25:02 13.5 C 9.83 g/m*3 13.5 C 0 km/h
3162 01-10-2009 08:37:02 13.7 C 9.95 g/m*3 13.7 C 0 km/h
3163 01-10-2009 08:49:02 13.8 C 9.77 g/m*3 13.8 C 0 km/h
3164 01-10-2009 09:01:01 13.9 C 9.83 g/m*3 13.9 C 0 km/h
3165 01-10-2009 09:13:01 14 C 9.77 g/m*3 14 C 0 km/h
3166 01-10-2009 09:25:02 14.1 C 9.71 g/m*3 14.1 C 0 km/h
3167 01-10-2009 09:37:01 14.2 C 9.65 g/m*3 14.2 C 0 km/h
3168 01-10-2009 09:49:02 14.2 C 9.4 g/m*3 14.2 C 0 km/h
3169 01-10-2009 10:01:01 14.6 C 9.39 g/m*3 14.6 C 0 km/h
3170 01-10-2009 10:13:01 14.7 C 9.32 g/m*3 14.7 C 0 km/h
3171 01-10-2009 10:25:01 15 C 9.23 g/m*3 15 C 0 km/h
3172 01-10-2009 10:37:02 15.4 C 9.2 g/m*3 15.4 C 0 km/h
3173 01-10-2009 10:49:02 15.7 C 9.23 g/m*3 15.7 C 0 km/h
3174 01-10-2009 11:01:02 15.4 C 9.2 g/m*3 15.4 C 0 km/h
3175 01-10-2009 11:13:02 16.4 C 9.07 g/m*3 16.4 C 0 km/h
Sensor: Nr:Datum:Temp:Abs-Feuchte:Windchill:Wind:
Aussen-T/F 3176 01-10-2009 11:25:02 17 C 8.68 g/m*3 17 C 0 km/h
3177 01-10-2009 11:37:02 17.7 C 8.75 g/m*3 17.7 C 0 km/h
3178 01-10-2009 11:49:02 17.9 C 8.7 g/m*3 17.9 C 0 km/h
3179 01-10-2009 12:01:02 18.2 C 8.55 g/m*3 18.2 C 0 km/h
3180 01-10-2009 12:13:02 18.5 C 7.75 g/m*3 18.5 C 0 km/h
3181 01-10-2009 12:25:02 18.2 C 7.31 g/m*3 18.2 C 0 km/h
3182 01-10-2009 12:37:02 18.1 C 7.57 g/m*3 18.1 C 0 km/h
3183 01-10-2009 12:49:01 17.9 C 7.94 g/m*3 17.9 C 0 km/h
3184 01-10-2009 13:01:01 16.9 C 8.63 g/m*3 16.9 C 0 km/h
3185 01-10-2009 13:13:02 16.8 C 9.01 g/m*3 16.8 C 0 km/h
3186 01-10-2009 13:25:01 17.5 C 8.65 g/m*3 17.5 C 0 km/h
3187 01-10-2009 13:37:01 18.3 C 7.97 g/m*3 18.3 C 0 km/h
3188 01-10-2009 13:49:01 18.7 C 8.01 g/m*3 18.7 C 0 km/h
3189 01-10-2009 14:01:01 18.6 C 7.8 g/m*3 18.6 C 0 km/h
3190 01-10-2009 14:13:01 18.1 C 7.73 g/m*3 18.1 C 0 km/h
3191 01-10-2009 14:25:02 17.9 C 8.09 g/m*3 17.9 C 0 km/h
3192 01-10-2009 14:37:01 18.3 C 8.13 g/m*3 18.3 C 0 km/h
3193 01-10-2009 14:49:03 18.7 C 8.01 g/m*3 18.7 C 0 km/h
3194 01-10-2009 15:01:02 19 C 7.82 g/m*3 19 C 0 km/h
3195 01-10-2009 15:13:02 19.2 C 7.91 g/m*3 19.2 C 0 km/h
3196 01-10-2009 15:25:02 19.1 C 7.87 g/m*3 19.1 C 0 km/h
3197 01-10-2009 15:37:02 18.7 C 7.84 g/m*3 18.7 C 0 km/h
3198 01-10-2009 15:49:02 18 C 7.83 g/m*3 18 C 0 km/h
3199 01-10-2009 16:01:02 17.4 C 8.15 g/m*3 17.4 C 0 km/h
3200 01-10-2009 16:13:02 17 C 7.81 g/m*3 17 C 0 km/h
Sensor: Nr:Datum:Temp:Abs-Feuchte:Windchill:Wind:
Aussen-T/F 3201 01-10-2009 16:25:02 16.8 C 7.86 g/m*3 16.8 C 0 km/h
3202 01-10-2009 16:37:01 16.5 C 7.44 g/m*3 16.5 C 0 km/h
3203 01-10-2009 16:49:02 16.2 C 7.31 g/m*3 16.2 C 0 km/h
3204 01-10-2009 17:01:01 16 C 7.49 g/m*3 16 C 0 km/h
3205 01-10-2009 17:13:01 15.6 C 7.85 g/m*3 15.6 C 0 km/h
3206 01-10-2009 17:25:01 15.6 C 7.98 g/m*3 15.6 C 0 km/h
3207 01-10-2009 17:37:02 15.5 C 8.06 g/m*3 15.5 C 0 km/h
3208 01-10-2009 17:49:02 15.1 C 8 g/m*3 15.1 C 0 km/h
3209 01-10-2009 18:01:02 14.9 C 8.16 g/m*3 14.9 C 0 km/h
3210 01-10-2009 18:13:02 15 C 8.08 g/m*3 15 C 0 km/h
3211 01-10-2009 18:25:02 14.9 C 8.16 g/m*3 14.9 C 0 km/h
3212 01-10-2009 18:37:02 15 C 8.08 g/m*3 15 C 0 km/h
3213 01-10-2009 18:49:02 14.9 C 8.16 g/m*3 14.9 C 0 km/h
3214 01-10-2009 19:01:02 14.7 C 8.06 g/m*3 14.7 C 0 km/h
3215 01-10-2009 19:13:02 14.7 C 8.06 g/m*3 14.7 C 0 km/h
3216 01-10-2009 19:25:02 14.7 C 8.06 g/m*3 14.7 C 0 km/h
3217 01-10-2009 19:37:02 14.7 C 8.06 g/m*3 14.7 C 0 km/h
3218 01-10-2009 19:49:01 14.6 C 8.13 g/m*3 14.6 C 0 km/h
3219 01-10-2009 20:01:01 14.7 C 8.44 g/m*3 14.7 C 0 km/h
3220 01-10-2009 20:13:01 13.5 C 8.3 g/m*3 13.5 C 0 km/h
3221 01-10-2009 20:25:01 13.4 C 8.37 g/m*3 13.4 C 0 km/h
3222 01-10-2009 20:37:01 13.6 C 8.36 g/m*3 13.6 C 0 km/h
3223 01-10-2009 20:49:02 13.6 C 7.77 g/m*3 13.6 C 0 km/h
3224 01-10-2009 21:01:02 13.3 C 7.63 g/m*3 13.3 C 0 km/h
3225 01-10-2009 21:13:02 13.4 C 7.44 g/m*3 13.4 C 0 km/h
Sensor: Nr:Datum:Temp:Abs-Feuchte:Windchill:Wind:
Aussen-T/F 3226 01-10-2009 21:25:03 13.4 C 7.44 g/m*3 13.4 C 0 km/h
3227 01-10-2009 21:37:02 13.4 C 7.21 g/m*3 13.4 C 0 km/h
3228 01-10-2009 21:49:03 13.3 C 7.16 g/m*3 13.3 C 0 km/h
3229 01-10-2009 22:01:02 13.2 C 7.23 g/m*3 13.2 C